<?xml version='1.0' encoding='UTF-8'?><gpx version="1.1" creator="JPX - https://github.com/jenetics/jpx" xmlns="http://www.topografix.com/GPX/1/1"><trk><trkseg><trkpt lat="43.72627154517678" lon="11.577162142773656"><ele>1422.0</ele><time>2026-04-18T08:50:08Z</time></trkpt><trkpt lat="43.72619625232577" lon="11.577267170653856"><ele>1422.0</ele><time>2026-04-18T08:50:24.999Z</time></trkpt><trkpt lat="43.72614102661223" lon="11.577323476144162"><ele>1422.0</ele><time>2026-04-18T08:50:25.999Z</time></trkpt><trkpt lat="43.72608323125734" lon="11.577385517929487"><ele>1422.0</ele><time>2026-04-18T08:50:26.999Z</time></trkpt><trkpt lat="43.7260128947546" lon="11.577473061617956"><ele>1422.0</ele><time>2026-04-18T08:50:27.999Z</time></trkpt><trkpt lat="43.7259553049729" lon="11.5775503624994"><ele>1422.0</ele><time>2026-04-18T08:50:28.999Z</time></trkpt><trkpt lat="43.725890814606245" lon="11.57760037269232"><ele>1422.0</ele><time>2026-04-18T08:50:29.999Z</time></trkpt><trkpt lat="43.72582857495306" lon="11.577664713801363"><ele>1422.0</ele><time>2026-04-18T08:50:30.999Z</time></trkpt><trkpt lat="43.7257647702307" lon="11.57772797254831"><ele>1422.0</ele><time>2026-04-18T08:50:31.999Z</time></trkpt><trkpt lat="43.7256958548914" lon="11.577791060042069"><ele>1422.0</ele><time>2026-04-18T08:50:32.999Z</time></trkpt><trkpt lat="43.72563231218774" lon="11.577846890586718"><ele>1422.0</ele><time>2026-04-18T08:50:33.999Z</time></trkpt><trkpt lat="43.725519822863646" lon="11.577945286968275"><ele>1422.0</ele><time>2026-04-18T08:50:35.999Z</time></trkpt><trkpt lat="43.725466402853534" lon="11.577992032592459"><ele>1421.25</ele><time>2026-04-18T08:50:36.999Z</time></trkpt><trkpt lat="43.725400246888874" lon="11.578048712522591"><ele>1420.5</ele><time>2026-04-18T08:50:37.999Z</time></trkpt><trkpt lat="43.72531001084594" lon="11.578146177285749"><ele>1419.75</ele><time>2026-04-18T08:50:38.999Z</time></trkpt><trkpt lat="43.72518622410391" lon="11.578227101525162"><ele>1419.0</ele><time>2026-04-18T08:50:39.999Z</time></trkpt><trkpt lat="43.7250478221025" lon="11.5783124221402"><ele>1420.5</ele><time>2026-04-18T08:50:40.999Z</time></trkpt><trkpt lat="43.725118703543735" lon="11.578266097187434"><ele>1422.0</ele><time>2026-04-18T08:50:41.999Z</time></trkpt><trkpt lat="43.72503117088786" lon="11.578313873671966"><ele>1423.5</ele><time>2026-04-18T08:50:42.999Z</time></trkpt><trkpt lat="43.72493667494462" lon="11.578360477978931"><ele>1425.0</ele><time>2026-04-18T08:50:43.999Z</time></trkpt><trkpt lat="43.72485847662499" lon="11.578348402809482"><ele>1426.5</ele><time>2026-04-18T08:50:44.999Z</time></trkpt><trkpt lat="43.72477356165471" lon="11.578325136855577"><ele>1428.0</ele><time>2026-04-18T08:50:45.999Z</time></trkpt><trkpt lat="43.72468566368785" lon="11.578289604696451"><ele>1428.0</ele><time>2026-04-18T08:50:46.999Z</time></trkpt><trkpt lat="43.72460073231696" lon="11.57825543093698"><ele>1428.0</ele><time>2026-04-18T08:50:47.999Z</time></trkpt><trkpt lat="43.72453200355617" lon="11.578229583971451"><ele>1428.0</ele><time>2026-04-18T08:50:48.999Z</time></trkpt><trkpt lat="43.72446850621811" lon="11.578205704218052"><ele>1428.0</ele><time>2026-04-18T08:50:49.999Z</time></trkpt><trkpt lat="43.72440492402197" lon="11.578181792525173"><ele>1428.0</ele><time>2026-04-18T08:50:50.999Z</time></trkpt><trkpt lat="43.72429717971231" lon="11.578150926023426"><ele>1428.0</ele><time>2026-04-18T08:50:52.999Z</time></trkpt><trkpt lat="43.72425343814059" lon="11.578082174923528"><ele>1427.8000000000002</ele><time>2026-04-18T08:50:55.999Z</time></trkpt><trkpt lat="43.724196259101525" lon="11.57795504000629"><ele>1427.6</ele><time>2026-04-18T08:50:58.999Z</time></trkpt><trkpt lat="43.72413013799552" lon="11.577892874497952"><ele>1427.4</ele><time>2026-04-18T08:50:59.999Z</time></trkpt><trkpt lat="43.72406671065593" lon="11.577801008369724"><ele>1427.1999999999998</ele><time>2026-04-18T08:51:00.999Z</time></trkpt><trkpt lat="43.72400865721112" lon="11.577679705431684"><ele>1427.0</ele><time>2026-04-18T08:51:01.999Z</time></trkpt><trkpt lat="43.72394436178485" lon="11.577588229906834"><ele>1428.3333333333335</ele><time>2026-04-18T08:51:02.999Z</time></trkpt><trkpt lat="43.72388367822118" lon="11.577520941142415"><ele>1429.6666666666667</ele><time>2026-04-18T08:51:03.999Z</time></trkpt><trkpt lat="43.72383538933228" lon="11.577457583663826"><ele>1431.0</ele><time>2026-04-18T08:51:04.999Z</time></trkpt><trkpt lat="43.72376083833017" lon="11.577413409466207"><ele>1432.3333333333333</ele><time>2026-04-18T08:51:05.999Z</time></trkpt><trkpt lat="43.72367021979864" lon="11.577385053674183"><ele>1433.6666666666665</ele><time>2026-04-18T08:51:06.999Z</time></trkpt><trkpt lat="43.723557018093004" lon="11.577372937515356"><ele>1435.0</ele><time>2026-04-18T08:51:07.999Z</time></trkpt><trkpt lat="43.723452526822186" lon="11.57737127773255"><ele>1435.0</ele><time>2026-04-18T08:51:08.999Z</time></trkpt><trkpt lat="43.72337047866501" lon="11.577379063610858"><ele>1435.0</ele><time>2026-04-18T08:51:09.999Z</time></trkpt><trkpt lat="43.723280014016005" lon="11.577359416975495"><ele>1435.0</ele><time>2026-04-18T08:51:10.999Z</time></trkpt><trkpt lat="43.72317409584833" lon="11.577368211539369"><ele>1435.0</ele><time>2026-04-18T08:51:11.999Z</time></trkpt><trkpt lat="43.72306521983572" lon="11.577376929733868"><ele>1435.0</ele><time>2026-04-18T08:51:12.999Z</time></trkpt><trkpt lat="43.72295578901709" lon="11.577386859667962"><ele>1435.0</ele><time>2026-04-18T08:51:14Z</time></trkpt><trkpt lat="43.7228437263233" lon="11.577397928284354"><ele>1435.0</ele><time>2026-04-18T08:51:15Z</time></trkpt><trkpt lat="43.722719066747864" lon="11.577413281659522"><ele>1435.0</ele><time>2026-04-18T08:51:16Z</time></trkpt><trkpt lat="43.722592008257045" lon="11.577429883014986"><ele>1435.0</ele><time>2026-04-18T08:51:17Z</time></trkpt><trkpt lat="43.72245358997706" lon="11.577447968649015"><ele>1435.2</ele><time>2026-04-18T08:51:18Z</time></trkpt><trkpt lat="43.72233648451615" lon="11.577454272141136"><ele>1435.4</ele><time>2026-04-18T08:51:19Z</time></trkpt><trkpt lat="43.722236463009985" lon="11.577464992475823"><ele>1435.6</ele><time>2026-04-18T08:51:20Z</time></trkpt><trkpt lat="43.72215859175578" lon="11.57749746174591"><ele>1435.8</ele><time>2026-04-18T08:51:21Z</time></trkpt><trkpt lat="43.722087816594275" lon="11.577515016419092"><ele>1436.0</ele><time>2026-04-18T08:51:22Z</time></trkpt><trkpt lat="43.721998471582346" lon="11.57754443306378"><ele>1436.0</ele><time>2026-04-18T08:51:23Z</time></trkpt><trkpt lat="43.721924159290154" lon="11.577584773867505"><ele>1436.0</ele><time>2026-04-18T08:51:24Z</time></trkpt><trkpt lat="43.7218427145311" lon="11.577597532123372"><ele>1436.0</ele><time>2026-04-18T08:51:25Z</time></trkpt><trkpt lat="43.72173604078682" lon="11.577675820329242"><ele>1436.0</ele><time>2026-04-18T08:51:27Z</time></trkpt><trkpt lat="43.72167326067669" lon="11.577686448459133"><ele>1436.0</ele><time>2026-04-18T08:51:28Z</time></trkpt><trkpt lat="43.72156591049978" lon="11.577754770580045"><ele>1436.1666666666667</ele><time>2026-04-18T08:51:30Z</time></trkpt><trkpt lat="43.72150098596622" lon="11.577801211291959"><ele>1436.3333333333335</ele><time>2026-04-18T08:51:31Z</time></trkpt><trkpt lat="43.72143483152617" lon="11.577853222185047"><ele>1436.5</ele><time>2026-04-18T08:51:32Z</time></trkpt><trkpt lat="43.72138454291168" lon="11.577924617463491"><ele>1436.6666666666667</ele><time>2026-04-18T08:51:33Z</time></trkpt><trkpt lat="43.72130153499385" lon="11.577981417163707"><ele>1436.8333333333333</ele><time>2026-04-18T08:51:34Z</time></trkpt><trkpt lat="43.72122755611223" lon="11.578056779942317"><ele>1437.0</ele><time>2026-04-18T08:51:35Z</time></trkpt><trkpt lat="43.7211545131756" lon="11.578131189443187"><ele>1437.0</ele><time>2026-04-18T08:51:36Z</time></trkpt><trkpt lat="43.721066053371814" lon="11.57823417478972"><ele>1437.0</ele><time>2026-04-18T08:51:37Z</time></trkpt><trkpt lat="43.72094760985308" lon="11.578347765361816"><ele>1437.0</ele><time>2026-04-18T08:51:38Z</time></trkpt><trkpt lat="43.72083256759081" lon="11.578464259452872"><ele>1437.0</ele><time>2026-04-18T08:51:39Z</time></trkpt><trkpt lat="43.72074979779779" lon="11.57855144434836"><ele>1440.0</ele><time>2026-04-18T08:51:40Z</time></trkpt><trkpt lat="43.72066416045602" lon="11.578692189380801"><ele>1443.0</ele><time>2026-04-18T08:51:41Z</time></trkpt><trkpt lat="43.72055967771052" lon="11.578823896288654"><ele>1446.0</ele><time>2026-04-18T08:51:42Z</time></trkpt><trkpt lat="43.720468336699206" lon="11.578994545983342"><ele>1449.0</ele><time>2026-04-18T08:51:43Z</time></trkpt><trkpt lat="43.72039986513063" lon="11.579101486813572"><ele>1449.0</ele><time>2026-04-18T08:51:44Z</time></trkpt><trkpt lat="43.72034413587277" lon="11.579179033541964"><ele>1449.0</ele><time>2026-04-18T08:51:45Z</time></trkpt><trkpt lat="43.72027481723406" lon="11.579259170149715"><ele>1449.0</ele><time>2026-04-18T08:51:46Z</time></trkpt><trkpt lat="43.72019280759016" lon="11.579363716844467"><ele>1449.0</ele><time>2026-04-18T08:51:47Z</time></trkpt><trkpt lat="43.72008521312783" lon="11.57943160855458"><ele>1449.0</ele><time>2026-04-18T08:51:48Z</time></trkpt><trkpt lat="43.720007639086" lon="11.57951087980388"><ele>1450.2</ele><time>2026-04-18T08:51:49Z</time></trkpt><trkpt lat="43.719942258039765" lon="11.579576688724801"><ele>1451.4</ele><time>2026-04-18T08:51:50Z</time></trkpt><trkpt lat="43.7198836146769" lon="11.579634504520113"><ele>1452.6</ele><time>2026-04-18T08:51:51Z</time></trkpt><trkpt lat="43.71978060018279" lon="11.579736065264854"><ele>1453.8</ele><time>2026-04-18T08:51:53Z</time></trkpt><trkpt lat="43.71969682602659" lon="11.579817130763491"><ele>1455.0</ele><time>2026-04-18T08:51:54Z</time></trkpt><trkpt lat="43.71959254804643" lon="11.579901796245363"><ele>1455.0</ele><time>2026-04-18T08:51:55Z</time></trkpt><trkpt lat="43.71952320497765" lon="11.58002400248157"><ele>1455.0</ele><time>2026-04-18T08:51:56Z</time></trkpt><trkpt lat="43.7194335376285" lon="11.580084154292425"><ele>1455.0</ele><time>2026-04-18T08:51:57Z</time></trkpt><trkpt lat="43.71935777135468" lon="11.580144177752924"><ele>1455.0</ele><time>2026-04-18T08:51:58Z</time></trkpt><trkpt lat="43.719274084123626" lon="11.580207456122178"><ele>1455.0</ele><time>2026-04-18T08:51:59Z</time></trkpt><trkpt lat="43.719186441481874" lon="11.580271034026332"><ele>1452.8</ele><time>2026-04-18T08:52:00Z</time></trkpt><trkpt lat="43.71910118090172" lon="11.58032767462082"><ele>1450.6</ele><time>2026-04-18T08:52:01Z</time></trkpt><trkpt lat="43.71901551952092" lon="11.580376285684235"><ele>1448.4</ele><time>2026-04-18T08:52:02Z</time></trkpt><trkpt lat="43.7189103733667" lon="11.580416469217479"><ele>1446.2</ele><time>2026-04-18T08:52:03Z</time></trkpt><trkpt lat="43.71879544386641" lon="11.580450494299578"><ele>1444.0</ele><time>2026-04-18T08:52:04Z</time></trkpt><trkpt lat="43.71865929496163" lon="11.580496133259418"><ele>1444.75</ele><time>2026-04-18T08:52:05Z</time></trkpt><trkpt lat="43.71851095010633" lon="11.580550976710038"><ele>1445.5</ele><time>2026-04-18T08:52:06Z</time></trkpt><trkpt lat="43.71838515634883" lon="11.580614468517215"><ele>1446.25</ele><time>2026-04-18T08:52:07Z</time></trkpt><trkpt lat="43.71827030853128" lon="11.58070061118304"><ele>1447.0</ele><time>2026-04-18T08:52:08Z</time></trkpt><trkpt lat="43.7181669455399" lon="11.580845779007907"><ele>1447.0</ele><time>2026-04-18T08:52:09Z</time></trkpt><trkpt lat="43.71804476306555" lon="11.581004944118295"><ele>1447.0</ele><time>2026-04-18T08:52:10Z</time></trkpt><trkpt lat="43.71791977340774" lon="11.581139094372077"><ele>1447.0</ele><time>2026-04-18T08:52:11Z</time></trkpt><trkpt lat="43.717812344272296" lon="11.58127185980559"><ele>1448.0</ele><time>2026-04-18T08:52:12Z</time></trkpt><trkpt lat="43.71772851554575" lon="11.581389115257332"><ele>1449.0</ele><time>2026-04-18T08:52:13Z</time></trkpt><trkpt lat="43.71766232687741" lon="11.58149982031054"><ele>1450.0</ele><time>2026-04-18T08:52:14Z</time></trkpt><trkpt lat="43.71761335866193" lon="11.581605022113912"><ele>1451.0</ele><time>2026-04-18T08:52:14.999Z</time></trkpt><trkpt lat="43.71756947993461" lon="11.581722121091751"><ele>1452.0</ele><time>2026-04-18T08:52:15.999Z</time></trkpt><trkpt lat="43.71753960229381" lon="11.58185364974417"><ele>1452.0</ele><time>2026-04-18T08:52:16.999Z</time></trkpt><trkpt lat="43.717507674343544" lon="11.581964111974647"><ele>1452.0</ele><time>2026-04-18T08:52:17.999Z</time></trkpt><trkpt lat="43.7174885542113" lon="11.582069649066481"><ele>1452.0</ele><time>2026-04-18T08:52:18.999Z</time></trkpt><trkpt lat="43.71746835971581" lon="11.582172960746908"><ele>1452.0</ele><time>2026-04-18T08:52:19.999Z</time></trkpt><trkpt lat="43.717478525651856" lon="11.582291756158877"><ele>1452.0</ele><time>2026-04-18T08:52:20.999Z</time></trkpt><trkpt lat="43.71753220625756" lon="11.582406905256097"><ele>1452.0</ele><time>2026-04-18T08:52:21.999Z</time></trkpt><trkpt lat="43.717574539424675" lon="11.582518156614983"><ele>1452.3999999999999</ele><time>2026-04-18T08:52:22.999Z</time></trkpt><trkpt lat="43.71763365350041" lon="11.582612693915397"><ele>1452.8</ele><time>2026-04-18T08:52:23.999Z</time></trkpt><trkpt lat="43.717700660726145" lon="11.582690188237603"><ele>1453.2</ele><time>2026-04-18T08:52:24.999Z</time></trkpt><trkpt lat="43.717785334028214" lon="11.582770250433045"><ele>1453.6</ele><time>2026-04-18T08:52:25.999Z</time></trkpt><trkpt lat="43.71788044930136" lon="11.582835360165605"><ele>1454.0</ele><time>2026-04-18T08:52:26.999Z</time></trkpt><trkpt lat="43.717992476580775" lon="11.582896344079904"><ele>1458.5</ele><time>2026-04-18T08:52:27.999Z</time></trkpt><trkpt lat="43.718107820690996" lon="11.582961921110329"><ele>1463.0</ele><time>2026-04-18T08:52:28.999Z</time></trkpt><trkpt lat="43.71823424315976" lon="11.583027249985365"><ele>1467.5</ele><time>2026-04-18T08:52:29.999Z</time></trkpt><trkpt lat="43.71836074728845" lon="11.583097619720467"><ele>1472.0</ele><time>2026-04-18T08:52:30.999Z</time></trkpt><trkpt lat="43.71847076722254" lon="11.583162855110011"><ele>1470.0</ele><time>2026-04-18T08:52:31.999Z</time></trkpt><trkpt lat="43.71856939410985" lon="11.58321849373571"><ele>1468.0</ele><time>2026-04-18T08:52:32.999Z</time></trkpt><trkpt lat="43.71866091648055" lon="11.58328012033612"><ele>1466.0</ele><time>2026-04-18T08:52:33.999Z</time></trkpt><trkpt lat="43.71875839344474" lon="11.58333987326624"><ele>1464.0</ele><time>2026-04-18T08:52:34.999Z</time></trkpt><trkpt lat="43.71885839023167" lon="11.583396420871875"><ele>1462.0</ele><time>2026-04-18T08:52:35.999Z</time></trkpt><trkpt lat="43.7189504613147" lon="11.583441480446409"><ele>1462.0</ele><time>2026-04-18T08:52:36.999Z</time></trkpt><trkpt lat="43.71903005085105" lon="11.583482158223436"><ele>1462.0</ele><time>2026-04-18T08:52:37.999Z</time></trkpt><trkpt lat="43.71909480781439" lon="11.583514197482259"><ele>1462.0</ele><time>2026-04-18T08:52:38.999Z</time></trkpt><trkpt lat="43.71915443431406" lon="11.583543692210096"><ele>1462.0</ele><time>2026-04-18T08:52:39.999Z</time></trkpt><trkpt lat="43.719254607155875" lon="11.583595042214418"><ele>1462.0</ele><time>2026-04-18T08:52:41.999Z</time></trkpt><trkpt lat="43.7193363444606" lon="11.583677179922669"><ele>1462.0</ele><time>2026-04-18T08:53:12.999Z</time></trkpt><trkpt lat="43.71941584671258" lon="11.583799276176768"><ele>1462.6666666666665</ele><time>2026-04-18T08:53:14.999Z</time></trkpt><trkpt lat="43.71947341394572" lon="11.583950269366309"><ele>1463.3333333333333</ele><time>2026-04-18T08:53:16.999Z</time></trkpt><trkpt lat="43.71947545051916" lon="11.584051240684662"><ele>1464.0</ele><time>2026-04-18T08:53:17.999Z</time></trkpt><trkpt lat="43.71948410031362" lon="11.584141722672957"><ele>1464.6666666666667</ele><time>2026-04-18T08:53:18.999Z</time></trkpt><trkpt lat="43.7194893778337" lon="11.584237288721278"><ele>1465.3333333333335</ele><time>2026-04-18T08:53:20Z</time></trkpt><trkpt lat="43.719467339120584" lon="11.584351706955022"><ele>1466.0</ele><time>2026-04-18T08:53:22Z</time></trkpt><trkpt lat="43.7194053950582" lon="11.584404234080642"><ele>1467.8</ele><time>2026-04-18T08:53:24Z</time></trkpt><trkpt lat="43.71934109552155" lon="11.584393813187548"><ele>1469.6</ele><time>2026-04-18T08:53:26Z</time></trkpt><trkpt lat="43.71922711812055" lon="11.58435514211028"><ele>1471.4</ele><time>2026-04-18T08:53:28Z</time></trkpt><trkpt lat="43.71915347683753" lon="11.584329675232926"><ele>1473.2</ele><time>2026-04-18T08:53:29Z</time></trkpt><trkpt lat="43.719050041238276" lon="11.584308315515447"><ele>1475.0</ele><time>2026-04-18T08:53:30Z</time></trkpt><trkpt lat="43.71894294545788" lon="11.584267721789296"><ele>1475.0</ele><time>2026-04-18T08:53:31Z</time></trkpt><trkpt lat="43.71882465219681" lon="11.584235571821328"><ele>1475.0</ele><time>2026-04-18T08:53:32Z</time></trkpt><trkpt lat="43.71872063774658" lon="11.58422274770193"><ele>1475.0</ele><time>2026-04-18T08:53:33Z</time></trkpt><trkpt lat="43.71862139392529" lon="11.584174010070006"><ele>1475.0</ele><time>2026-04-18T08:53:35Z</time></trkpt><trkpt lat="43.718538805230445" lon="11.58414541423011"><ele>1475.0</ele><time>2026-04-18T08:53:37Z</time></trkpt><trkpt lat="43.71846684909473" lon="11.584102734898742"><ele>1475.0</ele><time>2026-04-18T08:53:39Z</time></trkpt><trkpt lat="43.71841708084793" lon="11.584036760809974"><ele>1475.0</ele><time>2026-04-18T08:53:44Z</time></trkpt><trkpt lat="43.71846965691533" lon="11.58409049438527"><ele>1475.0</ele><time>2026-04-18T08:53:49Z</time></trkpt><trkpt lat="43.718449892054856" lon="11.58417753993645"><ele>1475.0</ele><time>2026-04-18T08:53:57Z</time></trkpt><trkpt lat="43.71851877902952" lon="11.58419040439784"><ele>1475.0</ele><time>2026-04-18T08:54:12.999Z</time></trkpt><trkpt lat="43.718595559724754" lon="11.584195695643391"><ele>1475.0</ele><time>2026-04-18T08:54:14.999Z</time></trkpt><trkpt lat="43.718675632237954" lon="11.584236020166095"><ele>1475.0</ele><time>2026-04-18T08:54:16.999Z</time></trkpt><trkpt lat="43.718786718728296" lon="11.584251403143691"><ele>1475.0</ele><time>2026-04-18T08:54:18.999Z</time></trkpt><trkpt lat="43.718890054400696" lon="11.584283885342028"><ele>1475.0</ele><time>2026-04-18T08:54:20.999Z</time></trkpt><trkpt lat="43.718993480817524" lon="11.58431152521662"><ele>1475.0</ele><time>2026-04-18T08:54:22.999Z</time></trkpt><trkpt lat="43.71910070701201" lon="11.584338740968905"><ele>1475.0</ele><time>2026-04-18T08:54:24.999Z</time></trkpt><trkpt lat="43.71920472563279" lon="11.584394725387469"><ele>1475.0</ele><time>2026-04-18T08:54:26.999Z</time></trkpt><trkpt lat="43.719302313376815" lon="11.584426174771318"><ele>1473.2</ele><time>2026-04-18T08:54:28.999Z</time></trkpt><trkpt lat="43.71940284367433" lon="11.584437874531949"><ele>1471.4</ele><time>2026-04-18T08:54:30.999Z</time></trkpt><trkpt lat="43.719479709802826" lon="11.584376516125836"><ele>1469.6</ele><time>2026-04-18T08:54:32.999Z</time></trkpt><trkpt lat="43.719515238700176" lon="11.584236972787892"><ele>1467.8</ele><time>2026-04-18T08:54:34.999Z</time></trkpt><trkpt lat="43.71950591602828" lon="11.584057360602827"><ele>1466.0</ele><time>2026-04-18T08:54:36.999Z</time></trkpt><trkpt lat="43.719478912782805" lon="11.583944307623531"><ele>1466.0</ele><time>2026-04-18T08:54:37.999Z</time></trkpt><trkpt lat="43.71945214904968" lon="11.583865144630494"><ele>1466.0</ele><time>2026-04-18T08:54:38.999Z</time></trkpt><trkpt lat="43.71941463092209" lon="11.58372809864865"><ele>1466.0</ele><time>2026-04-18T08:54:40.999Z</time></trkpt><trkpt lat="43.71934053474981" lon="11.583627440223752"><ele>1466.0</ele><time>2026-04-18T08:54:42.999Z</time></trkpt><trkpt lat="43.71945413405429" lon="11.583684894591052"><ele>1466.0</ele><time>2026-04-18T08:55:03.999Z</time></trkpt><trkpt lat="43.719526930668074" lon="11.583729001600483"><ele>1466.0</ele><time>2026-04-18T08:55:04.999Z</time></trkpt><trkpt lat="43.719611096885465" lon="11.583786129633884"><ele>1466.0</ele><time>2026-04-18T08:55:05.999Z</time></trkpt><trkpt lat="43.719673884240656" lon="11.583824531918037"><ele>1466.0</ele><time>2026-04-18T08:55:06.999Z</time></trkpt><trkpt lat="43.71976087320954" lon="11.583931633264525"><ele>1466.0</ele><time>2026-04-18T08:55:08.999Z</time></trkpt><trkpt lat="43.71982515255541" lon="11.584063847896003"><ele>1466.0</ele><time>2026-04-18T08:55:10.999Z</time></trkpt><trkpt lat="43.71987134489661" lon="11.584243801804506"><ele>1465.9999999999998</ele><time>2026-04-18T08:55:12.999Z</time></trkpt><trkpt lat="43.71988890479629" lon="11.58434389760825"><ele>1466.0</ele><time>2026-04-18T08:55:13.999Z</time></trkpt><trkpt lat="43.71989974288605" lon="11.584442675230088"><ele>1466.0</ele><time>2026-04-18T08:55:14.999Z</time></trkpt><trkpt lat="43.719886929804126" lon="11.584552449872197"><ele>1466.0</ele><time>2026-04-18T08:55:15.999Z</time></trkpt><trkpt lat="43.71990160484355" lon="11.584651264577833"><ele>1466.0</ele><time>2026-04-18T08:55:16.999Z</time></trkpt><trkpt lat="43.71987300081405" lon="11.584742391196926"><ele>1465.9999999999998</ele><time>2026-04-18T08:55:17.999Z</time></trkpt><trkpt lat="43.71984234142476" lon="11.58482240080209"><ele>1466.0</ele><time>2026-04-18T08:55:18.999Z</time></trkpt><trkpt lat="43.719794161616385" lon="11.584898568443279"><ele>1465.6</ele><time>2026-04-18T08:55:19.999Z</time></trkpt><trkpt lat="43.719717893804926" lon="11.584945464420608"><ele>1465.1999999999998</ele><time>2026-04-18T08:55:20.998Z</time></trkpt><trkpt lat="43.71964219545956" lon="11.584971890529856"><ele>1464.8000000000002</ele><time>2026-04-18T08:55:21.998Z</time></trkpt><trkpt lat="43.71955727239446" lon="11.585006222531117"><ele>1464.4</ele><time>2026-04-18T08:55:22.998Z</time></trkpt><trkpt lat="43.719459344237244" lon="11.585044031335418"><ele>1464.0</ele><time>2026-04-18T08:55:23.998Z</time></trkpt><trkpt lat="43.71936103343951" lon="11.585085352727134"><ele>1464.0</ele><time>2026-04-18T08:55:24.998Z</time></trkpt><trkpt lat="43.71926364114114" lon="11.585126150555746"><ele>1464.0</ele><time>2026-04-18T08:55:26Z</time></trkpt><trkpt lat="43.719170316976275" lon="11.585165228041992"><ele>1464.0</ele><time>2026-04-18T08:55:27Z</time></trkpt><trkpt lat="43.71907770193284" lon="11.585203800548785"><ele>1464.0</ele><time>2026-04-18T08:55:28Z</time></trkpt><trkpt lat="43.71899689571595" lon="11.58523596698303"><ele>1464.0</ele><time>2026-04-18T08:55:29Z</time></trkpt><trkpt lat="43.71891280160888" lon="11.585269442198031"><ele>1464.0</ele><time>2026-04-18T08:55:30Z</time></trkpt><trkpt lat="43.71883186092175" lon="11.585301662050743"><ele>1464.0</ele><time>2026-04-18T08:55:31Z</time></trkpt><trkpt lat="43.71875142116571" lon="11.585333330159026"><ele>1464.0</ele><time>2026-04-18T08:55:32Z</time></trkpt><trkpt lat="43.71866719609513" lon="11.585366220578761"><ele>1464.0</ele><time>2026-04-18T08:55:33Z</time></trkpt><trkpt lat="43.71858448184255" lon="11.585401328350121"><ele>1464.0</ele><time>2026-04-18T08:55:34Z</time></trkpt><trkpt lat="43.71850681174591" lon="11.585441427933377"><ele>1464.0</ele><time>2026-04-18T08:55:35Z</time></trkpt><trkpt lat="43.71842957459798" lon="11.585483434075805"><ele>1461.5</ele><time>2026-04-18T08:55:36Z</time></trkpt><trkpt lat="43.71835882195316" lon="11.585522198893175"><ele>1459.0</ele><time>2026-04-18T08:55:37Z</time></trkpt><trkpt lat="43.718287850693685" lon="11.585563289293681"><ele>1456.5</ele><time>2026-04-18T08:55:38Z</time></trkpt><trkpt lat="43.71822079373489" lon="11.58561770182659"><ele>1454.0</ele><time>2026-04-18T08:55:39Z</time></trkpt><trkpt lat="43.718165590010955" lon="11.585684345871776"><ele>1451.5</ele><time>2026-04-18T08:55:40Z</time></trkpt><trkpt lat="43.71810828902553" lon="11.58579384532189"><ele>1449.0</ele><time>2026-04-18T08:55:41Z</time></trkpt><trkpt lat="43.71807027843297" lon="11.585884796089623"><ele>1449.0</ele><time>2026-04-18T08:55:42Z</time></trkpt><trkpt lat="43.71803692330632" lon="11.585980167770062"><ele>1449.0</ele><time>2026-04-18T08:55:43Z</time></trkpt><trkpt lat="43.71801706661081" lon="11.586088011285298"><ele>1449.0</ele><time>2026-04-18T08:55:44Z</time></trkpt><trkpt lat="43.7179906899682" lon="11.58617945013273"><ele>1449.0</ele><time>2026-04-18T08:55:45Z</time></trkpt><trkpt lat="43.71795177311307" lon="11.586262211471604"><ele>1449.0</ele><time>2026-04-18T08:55:46Z</time></trkpt><trkpt lat="43.717896497650244" lon="11.586351742672106"><ele>1449.0</ele><time>2026-04-18T08:55:47Z</time></trkpt><trkpt lat="43.71784816565558" lon="11.586453579202741"><ele>1447.8000000000002</ele><time>2026-04-18T08:55:48Z</time></trkpt><trkpt lat="43.71782123546573" lon="11.586549734381856"><ele>1446.6000000000001</ele><time>2026-04-18T08:55:49Z</time></trkpt><trkpt lat="43.717779829508586" lon="11.586716314550145"><ele>1445.4</ele><time>2026-04-18T08:55:51Z</time></trkpt><trkpt lat="43.71775586525599" lon="11.586876905894817"><ele>1444.2</ele><time>2026-04-18T08:55:53Z</time></trkpt><trkpt lat="43.71774016077321" lon="11.58696891342007"><ele>1443.0</ele><time>2026-04-18T08:55:54Z</time></trkpt><trkpt lat="43.7177136555528" lon="11.587076240140648"><ele>1443.0</ele><time>2026-04-18T08:55:55Z</time></trkpt><trkpt lat="43.71769049981149" lon="11.5871675082362"><ele>1443.0</ele><time>2026-04-18T08:55:56Z</time></trkpt><trkpt lat="43.717672452709245" lon="11.587259768630139"><ele>1443.0</ele><time>2026-04-18T08:55:57Z</time></trkpt><trkpt lat="43.71764674729771" lon="11.587351777601352"><ele>1443.0</ele><time>2026-04-18T08:55:58Z</time></trkpt><trkpt lat="43.7176270725464" lon="11.587468406390077"><ele>1443.0</ele><time>2026-04-18T08:55:59Z</time></trkpt><trkpt lat="43.717603910062216" lon="11.587576718773272"><ele>1443.0</ele><time>2026-04-18T08:56:00Z</time></trkpt><trkpt lat="43.717581167859954" lon="11.587692133611137"><ele>1443.0</ele><time>2026-04-18T08:56:01Z</time></trkpt><trkpt lat="43.71756489697153" lon="11.587797290184561"><ele>1443.0</ele><time>2026-04-18T08:56:02Z</time></trkpt><trkpt lat="43.71754245156383" lon="11.587918392542994"><ele>1443.0</ele><time>2026-04-18T08:56:03Z</time></trkpt><trkpt lat="43.71753019016208" lon="11.588022859514552"><ele>1443.0</ele><time>2026-04-18T08:56:04Z</time></trkpt><trkpt lat="43.71754434677977" lon="11.588130184608751"><ele>1443.0</ele><time>2026-04-18T08:56:05Z</time></trkpt><trkpt lat="43.71762305931741" lon="11.588185614572074"><ele>1443.0</ele><time>2026-04-18T08:56:06Z</time></trkpt><trkpt lat="43.71765619061238" lon="11.588287554487973"><ele>1442.5</ele><time>2026-04-18T08:56:07Z</time></trkpt><trkpt lat="43.717672875275106" lon="11.588377362751773"><ele>1442.0</ele><time>2026-04-18T08:56:08Z</time></trkpt><trkpt lat="43.71767677252424" lon="11.588472938825147"><ele>1441.5</ele><time>2026-04-18T08:56:10Z</time></trkpt><trkpt lat="43.71772019679755" lon="11.588396451572555"><ele>1441.0</ele><time>2026-04-18T09:00:01Z</time></trkpt><trkpt lat="43.71766422531552" lon="11.588271927994722"><ele>1440.5</ele><time>2026-04-18T09:00:03Z</time></trkpt><trkpt lat="43.71760455488115" lon="11.588174001570502"><ele>1440.0</ele><time>2026-04-18T09:00:04Z</time></trkpt><trkpt lat="43.71755236249837" lon="11.588081087176459"><ele>1440.0</ele><time>2026-04-18T09:00:05Z</time></trkpt><trkpt lat="43.71755834116723" lon="11.587990661169046"><ele>1440.0</ele><time>2026-04-18T09:00:06Z</time></trkpt><trkpt lat="43.717585077492735" lon="11.587832488961798"><ele>1440.0</ele><time>2026-04-18T09:00:08Z</time></trkpt><trkpt lat="43.71760805551846" lon="11.587675440104835"><ele>1440.0</ele><time>2026-04-18T09:00:09Z</time></trkpt><trkpt lat="43.717624379338034" lon="11.587491002682782"><ele>1440.0</ele><time>2026-04-18T09:00:10Z</time></trkpt><trkpt lat="43.71767440923499" lon="11.587336335861549"><ele>1440.6</ele><time>2026-04-18T09:00:11Z</time></trkpt><trkpt lat="43.717700741898796" lon="11.587225856058861"><ele>1441.2</ele><time>2026-04-18T09:00:12Z</time></trkpt><trkpt lat="43.71772770976959" lon="11.587119480010296"><ele>1441.8000000000002</ele><time>2026-04-18T09:00:13Z</time></trkpt><trkpt lat="43.717760615645226" lon="11.58698936485829"><ele>1442.4</ele><time>2026-04-18T09:00:14Z</time></trkpt><trkpt lat="43.717800153218754" lon="11.586833026116468"><ele>1443.0</ele><time>2026-04-18T09:00:15Z</time></trkpt><trkpt lat="43.7178139819071" lon="11.586696814142243"><ele>1443.0</ele><time>2026-04-18T09:00:16Z</time></trkpt><trkpt lat="43.71783880245362" lon="11.586580711108258"><ele>1443.0</ele><time>2026-04-18T09:00:16.999Z</time></trkpt><trkpt lat="43.71787860152939" lon="11.586464596612437"><ele>1443.0</ele><time>2026-04-18T09:00:17.999Z</time></trkpt><trkpt lat="43.71793787149382" lon="11.586341245832982"><ele>1443.0</ele><time>2026-04-18T09:00:18.999Z</time></trkpt><trkpt lat="43.718022202845084" lon="11.586189946697116"><ele>1443.0</ele><time>2026-04-18T09:00:19.999Z</time></trkpt><trkpt lat="43.71806675787662" lon="11.58605806059971"><ele>1445.0</ele><time>2026-04-18T09:00:20.999Z</time></trkpt><trkpt lat="43.71822240339439" lon="11.585697103048686"><ele>1447.0</ele><time>2026-04-18T09:00:23.999Z</time></trkpt><trkpt lat="43.718311407482965" lon="11.58561273447292"><ele>1449.0</ele><time>2026-04-18T09:00:24.999Z</time></trkpt><trkpt lat="43.71841030209473" lon="11.585547840601908"><ele>1449.0</ele><time>2026-04-18T09:00:25.999Z</time></trkpt><trkpt lat="43.718508718482866" lon="11.58549738270615"><ele>1449.0</ele><time>2026-04-18T09:00:26.999Z</time></trkpt><trkpt lat="43.718628915774026" lon="11.585429920288599"><ele>1449.0</ele><time>2026-04-18T09:00:27.999Z</time></trkpt><trkpt lat="43.71876977435191" lon="11.58537387408956"><ele>1449.0</ele><time>2026-04-18T09:00:28.999Z</time></trkpt><trkpt lat="43.71891876092633" lon="11.585314850063934"><ele>1450.5</ele><time>2026-04-18T09:00:29.999Z</time></trkpt><trkpt lat="43.719069359049094" lon="11.58525490178774"><ele>1452.0</ele><time>2026-04-18T09:00:30.999Z</time></trkpt><trkpt lat="43.719217085676405" lon="11.585193620236332"><ele>1453.5</ele><time>2026-04-18T09:00:31.999Z</time></trkpt><trkpt lat="43.71934411182507" lon="11.585140430675578"><ele>1455.0</ele><time>2026-04-18T09:00:32.999Z</time></trkpt><trkpt lat="43.71946517950193" lon="11.585112929991924"><ele>1455.0</ele><time>2026-04-18T09:00:33.999Z</time></trkpt><trkpt lat="43.71956156961926" lon="11.585068117788875"><ele>1455.0</ele><time>2026-04-18T09:00:34.999Z</time></trkpt><trkpt lat="43.71964438912477" lon="11.58502442564131"><ele>1455.0</ele><time>2026-04-18T09:00:35.999Z</time></trkpt><trkpt lat="43.71972879423277" lon="11.584985592670524"><ele>1455.0</ele><time>2026-04-18T09:00:36.999Z</time></trkpt><trkpt lat="43.719794794300185" lon="11.584934058743027"><ele>1455.0</ele><time>2026-04-18T09:00:37.999Z</time></trkpt><trkpt lat="43.71989086847432" lon="11.584846821049076"><ele>1455.0</ele><time>2026-04-18T09:00:39.999Z</time></trkpt><trkpt lat="43.71992481729626" lon="11.584761324404317"><ele>1455.0</ele><time>2026-04-18T09:00:40.999Z</time></trkpt><trkpt lat="43.719923494508755" lon="11.584653729659768"><ele>1455.0</ele><time>2026-04-18T09:00:41.999Z</time></trkpt><trkpt lat="43.71992328715421" lon="11.584561242197935"><ele>1455.0</ele><time>2026-04-18T09:00:42.999Z</time></trkpt><trkpt lat="43.71993133901501" lon="11.584448022833593"><ele>1455.0</ele><time>2026-04-18T09:00:43.999Z</time></trkpt><trkpt lat="43.719915859951605" lon="11.584303276681972"><ele>1455.0</ele><time>2026-04-18T09:00:44.999Z</time></trkpt><trkpt lat="43.71987490773828" lon="11.58416392655921"><ele>1457.2</ele><time>2026-04-18T09:00:45.999Z</time></trkpt><trkpt lat="43.71982241799106" lon="11.58397643864818"><ele>1459.4</ele><time>2026-04-18T09:00:46.999Z</time></trkpt><trkpt lat="43.71977142123303" lon="11.583870248419013"><ele>1461.6</ele><time>2026-04-18T09:00:47.999Z</time></trkpt><trkpt lat="43.71971077034735" lon="11.58378683285355"><ele>1463.8</ele><time>2026-04-18T09:00:48.999Z</time></trkpt><trkpt lat="43.719637913029764" lon="11.583725700959452"><ele>1466.0</ele><time>2026-04-18T09:00:49.999Z</time></trkpt><trkpt lat="43.71954620728075" lon="11.583708600913651"><ele>1465.0</ele><time>2026-04-18T09:00:50.999Z</time></trkpt><trkpt lat="43.7194560432248" lon="11.58363893556467"><ele>1464.0</ele><time>2026-04-18T09:00:51.999Z</time></trkpt><trkpt lat="43.719341394863164" lon="11.583590685743879"><ele>1463.0</ele><time>2026-04-18T09:00:52.999Z</time></trkpt><trkpt lat="43.71922129563021" lon="11.583539867723056"><ele>1462.0</ele><time>2026-04-18T09:00:53.999Z</time></trkpt><trkpt lat="43.71910284521944" lon="11.58348998048378"><ele>1462.0</ele><time>2026-04-18T09:00:54.999Z</time></trkpt><trkpt lat="43.71900423667055" lon="11.583445726661072"><ele>1462.0</ele><time>2026-04-18T09:00:55.999Z</time></trkpt><trkpt lat="43.718922632385755" lon="11.58340408263092"><ele>1462.0</ele><time>2026-04-18T09:00:56.999Z</time></trkpt><trkpt lat="43.71884615129916" lon="11.583357214448238"><ele>1462.0</ele><time>2026-04-18T09:00:57.999Z</time></trkpt><trkpt lat="43.71876700519539" lon="11.583315808268871"><ele>1462.0</ele><time>2026-04-18T09:00:58.999Z</time></trkpt><trkpt lat="43.71868349247974" lon="11.583259323133985"><ele>1462.0</ele><time>2026-04-18T09:00:59.999Z</time></trkpt><trkpt lat="43.71858676300579" lon="11.583201194841163"><ele>1462.0</ele><time>2026-04-18T09:01:00.999Z</time></trkpt><trkpt lat="43.718475661678404" lon="11.583123632553491"><ele>1462.0</ele><time>2026-04-18T09:01:01.999Z</time></trkpt><trkpt lat="43.71836378894419" lon="11.583056135503552"><ele>1462.0</ele><time>2026-04-18T09:01:02.999Z</time></trkpt><trkpt lat="43.71826495097328" lon="11.58300271399903"><ele>1464.0</ele><time>2026-04-18T09:01:03.999Z</time></trkpt><trkpt lat="43.71817271768457" lon="11.582954406625339"><ele>1466.0</ele><time>2026-04-18T09:01:04.999Z</time></trkpt><trkpt lat="43.71806718998558" lon="11.58290007773999"><ele>1468.0</ele><time>2026-04-18T09:01:05.999Z</time></trkpt><trkpt lat="43.717970510551574" lon="11.582823608501387"><ele>1470.0</ele><time>2026-04-18T09:01:06.999Z</time></trkpt><trkpt lat="43.717876908547865" lon="11.582767536606218"><ele>1472.0</ele><time>2026-04-18T09:01:07.999Z</time></trkpt><trkpt lat="43.71778674124838" lon="11.582709034532396"><ele>1468.3999999999999</ele><time>2026-04-18T09:01:08.999Z</time></trkpt><trkpt lat="43.717693034257756" lon="11.582663046461333"><ele>1464.8</ele><time>2026-04-18T09:01:09.999Z</time></trkpt><trkpt lat="43.717618101576015" lon="11.582580812822284"><ele>1461.2</ele><time>2026-04-18T09:01:10.999Z</time></trkpt><trkpt lat="43.717576094827976" lon="11.582473736291458"><ele>1457.6</ele><time>2026-04-18T09:01:11.999Z</time></trkpt><trkpt lat="43.717540996491174" lon="11.582384731013606"><ele>1454.0</ele><time>2026-04-18T09:01:12.999Z</time></trkpt><trkpt lat="43.71750528413641" lon="11.582213414820401"><ele>1454.0</ele><time>2026-04-18T09:01:14.999Z</time></trkpt><trkpt lat="43.717503220917195" lon="11.582111219051322"><ele>1454.0</ele><time>2026-04-18T09:01:15.999Z</time></trkpt><trkpt lat="43.71751920802414" lon="11.582004965946608"><ele>1454.0</ele><time>2026-04-18T09:01:16.999Z</time></trkpt><trkpt lat="43.71754682834835" lon="11.581904702733214"><ele>1454.0</ele><time>2026-04-18T09:01:17.999Z</time></trkpt><trkpt lat="43.717563242346884" lon="11.581798356359958"><ele>1454.0</ele><time>2026-04-18T09:01:18.999Z</time></trkpt><trkpt lat="43.71759810410532" lon="11.581713244303934"><ele>1454.0</ele><time>2026-04-18T09:01:19.999Z</time></trkpt><trkpt lat="43.71762949015738" lon="11.581631447731306"><ele>1454.0</ele><time>2026-04-18T09:01:20.999Z</time></trkpt><trkpt lat="43.71766159638005" lon="11.58154512174365"><ele>1453.6666666666667</ele><time>2026-04-18T09:01:21.999Z</time></trkpt><trkpt lat="43.71771391134923" lon="11.581442212515933"><ele>1453.3333333333335</ele><time>2026-04-18T09:01:23.999Z</time></trkpt><trkpt lat="43.717778578014794" lon="11.581428172902921"><ele>1453.0</ele><time>2026-04-18T09:01:27.999Z</time></trkpt><trkpt lat="43.71785309704738" lon="11.581556028908999"><ele>1452.6666666666667</ele><time>2026-04-18T09:01:36.998Z</time></trkpt><trkpt lat="43.717897660355995" lon="11.581618845840637"><ele>1452.3333333333333</ele><time>2026-04-18T09:01:38.998Z</time></trkpt><trkpt lat="43.717947175711" lon="11.581711103592413"><ele>1452.0</ele><time>2026-04-18T09:01:41.998Z</time></trkpt><trkpt lat="43.717976072690995" lon="11.58178897912785"><ele>1451.5</ele><time>2026-04-18T09:01:44.999Z</time></trkpt><trkpt lat="43.718022439680325" lon="11.581858318319215"><ele>1451.0</ele><time>2026-04-18T09:01:48.999Z</time></trkpt><trkpt lat="43.718089891253555" lon="11.581849508652027"><ele>1450.5</ele><time>2026-04-18T09:01:51Z</time></trkpt><trkpt lat="43.71816458045732" lon="11.581878696785589"><ele>1450.0</ele><time>2026-04-18T09:01:54Z</time></trkpt><trkpt lat="43.71817791593026" lon="11.581985360065604"><ele>1449.5</ele><time>2026-04-18T09:01:57Z</time></trkpt><trkpt lat="43.71823167593148" lon="11.582135812842361"><ele>1449.0</ele><time>2026-04-18T09:02:11.999Z</time></trkpt><trkpt lat="43.71829843412939" lon="11.582213213470048"><ele>1449.0</ele><time>2026-04-18T09:02:12.999Z</time></trkpt><trkpt lat="43.71840047553688" lon="11.582284286147251"><ele>1449.0</ele><time>2026-04-18T09:02:13.999Z</time></trkpt><trkpt lat="43.71850289313712" lon="11.58235074575685"><ele>1449.0</ele><time>2026-04-18T09:02:14.999Z</time></trkpt><trkpt lat="43.718611099367905" lon="11.58242747816148"><ele>1449.0</ele><time>2026-04-18T09:02:15.999Z</time></trkpt><trkpt lat="43.71873395150996" lon="11.582510244987638"><ele>1446.75</ele><time>2026-04-18T09:02:16.999Z</time></trkpt><trkpt lat="43.71885953450978" lon="11.582598005618872"><ele>1444.5</ele><time>2026-04-18T09:02:17.999Z</time></trkpt><trkpt lat="43.71898414180524" lon="11.582691118470935"><ele>1442.25</ele><time>2026-04-18T09:02:18.999Z</time></trkpt><trkpt lat="43.719117598333675" lon="11.582779495478993"><ele>1440.0</ele><time>2026-04-18T09:02:19.999Z</time></trkpt><trkpt lat="43.71923929957237" lon="11.58284981816024"><ele>1444.0</ele><time>2026-04-18T09:02:20.999Z</time></trkpt><trkpt lat="43.719360133751536" lon="11.582901774775662"><ele>1448.0</ele><time>2026-04-18T09:02:21.999Z</time></trkpt><trkpt lat="43.719495177706044" lon="11.582926257910312"><ele>1452.0</ele><time>2026-04-18T09:02:22.999Z</time></trkpt><trkpt lat="43.71963983025188" lon="11.582941686156307"><ele>1456.0</ele><time>2026-04-18T09:02:23.999Z</time></trkpt><trkpt lat="43.71978405697805" lon="11.582946682262888"><ele>1456.0</ele><time>2026-04-18T09:02:24.999Z</time></trkpt><trkpt lat="43.71994833718154" lon="11.582968424902354"><ele>1456.0</ele><time>2026-04-18T09:02:25.999Z</time></trkpt><trkpt lat="43.72009329666936" lon="11.58299304709781"><ele>1456.0</ele><time>2026-04-18T09:02:26.999Z</time></trkpt><trkpt lat="43.72023099693146" lon="11.583018451871709"><ele>1454.0</ele><time>2026-04-18T09:02:27.999Z</time></trkpt><trkpt lat="43.720373266067156" lon="11.583040723870033"><ele>1452.0</ele><time>2026-04-18T09:02:28.999Z</time></trkpt><trkpt lat="43.720498784813316" lon="11.583073029132366"><ele>1450.0</ele><time>2026-04-18T09:02:29.999Z</time></trkpt><trkpt lat="43.72060155794723" lon="11.583107147662755"><ele>1448.0</ele><time>2026-04-18T09:02:30.999Z</time></trkpt><trkpt lat="43.72068866277053" lon="11.583154981910223"><ele>1448.0</ele><time>2026-04-18T09:02:31.999Z</time></trkpt><trkpt lat="43.72075361012332" lon="11.583211016092719"><ele>1448.0</ele><time>2026-04-18T09:02:32.999Z</time></trkpt><trkpt lat="43.72080122462749" lon="11.58329828035823"><ele>1448.0</ele><time>2026-04-18T09:02:33.999Z</time></trkpt><trkpt lat="43.72083700082129" lon="11.583405605819761"><ele>1448.0</ele><time>2026-04-18T09:02:34.999Z</time></trkpt><trkpt lat="43.720846507933494" lon="11.583528801471651"><ele>1448.0</ele><time>2026-04-18T09:02:35.999Z</time></trkpt><trkpt lat="43.72082738489191" lon="11.583657288870524"><ele>1448.0</ele><time>2026-04-18T09:02:36.999Z</time></trkpt><trkpt lat="43.72078507031251" lon="11.58378074795909"><ele>1447.75</ele><time>2026-04-18T09:02:37.999Z</time></trkpt><trkpt lat="43.720722288616685" lon="11.583892791054557"><ele>1447.5</ele><time>2026-04-18T09:02:38.999Z</time></trkpt><trkpt lat="43.72064350227333" lon="11.583979716270646"><ele>1447.25</ele><time>2026-04-18T09:02:39.999Z</time></trkpt><trkpt lat="43.720538594934425" lon="11.584079080284004"><ele>1447.0</ele><time>2026-04-18T09:02:40.999Z</time></trkpt><trkpt lat="43.72043649225161" lon="11.58419604401626"><ele>1447.0</ele><time>2026-04-18T09:02:41.999Z</time></trkpt><trkpt lat="43.720368480484304" lon="11.58431398723689"><ele>1447.0</ele><time>2026-04-18T09:02:42.999Z</time></trkpt><trkpt lat="43.72030111409531" lon="11.584438911945641"><ele>1447.0</ele><time>2026-04-18T09:02:43.999Z</time></trkpt><trkpt lat="43.72029425742216" lon="11.584597417990434"><ele>1447.0</ele><time>2026-04-18T09:02:44.999Z</time></trkpt><trkpt lat="43.72027759343905" lon="11.584760905706233"><ele>1445.6</ele><time>2026-04-18T09:02:45.999Z</time></trkpt><trkpt lat="43.72028630240457" lon="11.584916473307787"><ele>1444.1999999999998</ele><time>2026-04-18T09:02:46.999Z</time></trkpt><trkpt lat="43.72029519298304" lon="11.58507141338056"><ele>1442.8</ele><time>2026-04-18T09:02:47.999Z</time></trkpt><trkpt lat="43.72029127258775" lon="11.585208937609185"><ele>1441.4</ele><time>2026-04-18T09:02:48.999Z</time></trkpt><trkpt lat="43.7202719059497" lon="11.58533287967051"><ele>1440.0</ele><time>2026-04-18T09:02:49.999Z</time></trkpt><trkpt lat="43.72022987331682" lon="11.585428503576239"><ele>1440.0</ele><time>2026-04-18T09:02:50.999Z</time></trkpt><trkpt lat="43.720178137193734" lon="11.585514142740776"><ele>1440.0</ele><time>2026-04-18T09:02:51.999Z</time></trkpt><trkpt lat="43.72011722715824" lon="11.585572028373099"><ele>1440.0</ele><time>2026-04-18T09:02:52.999Z</time></trkpt><trkpt lat="43.720030230278354" lon="11.585614144560529"><ele>1440.0</ele><time>2026-04-18T09:02:53.999Z</time></trkpt><trkpt lat="43.71993397054549" lon="11.585614687821513"><ele>1440.0</ele><time>2026-04-18T09:02:54.999Z</time></trkpt><trkpt lat="43.71982159079452" lon="11.58563453931341"><ele>1440.0</ele><time>2026-04-18T09:02:55.999Z</time></trkpt><trkpt lat="43.71970416032718" lon="11.585668984698803"><ele>1440.0</ele><time>2026-04-18T09:02:56.999Z</time></trkpt><trkpt lat="43.71960591115925" lon="11.585728022775813"><ele>1440.0</ele><time>2026-04-18T09:02:57.999Z</time></trkpt><trkpt lat="43.71950006374785" lon="11.585757847980211"><ele>1440.0</ele><time>2026-04-18T09:02:58.999Z</time></trkpt><trkpt lat="43.719389622658944" lon="11.585826292906487"><ele>1440.6</ele><time>2026-04-18T09:02:59.999Z</time></trkpt><trkpt lat="43.719289614531775" lon="11.585875816179232"><ele>1441.2</ele><time>2026-04-18T09:03:00.999Z</time></trkpt><trkpt lat="43.71918975874438" lon="11.585941225451768"><ele>1441.8000000000002</ele><time>2026-04-18T09:03:01.999Z</time></trkpt><trkpt lat="43.71910304310944" lon="11.586000497914544"><ele>1442.4</ele><time>2026-04-18T09:03:02.999Z</time></trkpt><trkpt lat="43.71902242855964" lon="11.586059900205745"><ele>1443.0</ele><time>2026-04-18T09:03:03.999Z</time></trkpt><trkpt lat="43.71894256112186" lon="11.586124283930914"><ele>1440.0</ele><time>2026-04-18T09:03:04.999Z</time></trkpt><trkpt lat="43.71887281677844" lon="11.586196781646896"><ele>1437.0</ele><time>2026-04-18T09:03:05.999Z</time></trkpt><trkpt lat="43.71881467739465" lon="11.586286024673102"><ele>1434.0</ele><time>2026-04-18T09:03:06.999Z</time></trkpt><trkpt lat="43.71876107849215" lon="11.586404279999078"><ele>1431.0</ele><time>2026-04-18T09:03:07.999Z</time></trkpt><trkpt lat="43.718726686014115" lon="11.586545715041337"><ele>1428.0</ele><time>2026-04-18T09:03:08.999Z</time></trkpt><trkpt lat="43.718727028769734" lon="11.586707747045141"><ele>1428.0</ele><time>2026-04-18T09:03:09.999Z</time></trkpt><trkpt lat="43.71875971707675" lon="11.586870383962292"><ele>1428.0</ele><time>2026-04-18T09:03:10.999Z</time></trkpt><trkpt lat="43.718798558499415" lon="11.58700502952911"><ele>1428.0</ele><time>2026-04-18T09:03:11.999Z</time></trkpt><trkpt lat="43.71886740869975" lon="11.587139951544374"><ele>1428.0</ele><time>2026-04-18T09:03:12.999Z</time></trkpt><trkpt lat="43.71889686643314" lon="11.587271051993307"><ele>1428.0</ele><time>2026-04-18T09:03:13.999Z</time></trkpt><trkpt lat="43.71893390082792" lon="11.587415845242193"><ele>1426.6000000000001</ele><time>2026-04-18T09:03:14.999Z</time></trkpt><trkpt lat="43.71897101289259" lon="11.58756204800955"><ele>1425.2</ele><time>2026-04-18T09:03:15.999Z</time></trkpt><trkpt lat="43.71899853191182" lon="11.587690872838293"><ele>1423.8</ele><time>2026-04-18T09:03:16.999Z</time></trkpt><trkpt lat="43.71901104940015" lon="11.58780565911111"><ele>1422.4</ele><time>2026-04-18T09:03:17.999Z</time></trkpt><trkpt lat="43.7189890525581" lon="11.587943001058788"><ele>1421.0</ele><time>2026-04-18T09:03:18.999Z</time></trkpt><trkpt lat="43.71895633156028" lon="11.588071120020459"><ele>1420.1666666666667</ele><time>2026-04-18T09:03:19.999Z</time></trkpt><trkpt lat="43.71892458803133" lon="11.588208254539015"><ele>1419.3333333333335</ele><time>2026-04-18T09:03:20.999Z</time></trkpt><trkpt lat="43.71888087803744" lon="11.588308323507418"><ele>1418.5</ele><time>2026-04-18T09:03:21.999Z</time></trkpt><trkpt lat="43.71884582709524" lon="11.588411502170263"><ele>1417.6666666666667</ele><time>2026-04-18T09:03:22.999Z</time></trkpt><trkpt lat="43.718832449325056" lon="11.58852321245403"><ele>1416.8333333333333</ele><time>2026-04-18T09:03:23.999Z</time></trkpt><trkpt lat="43.71878784476189" lon="11.588621400829524"><ele>1416.0</ele><time>2026-04-18T09:03:24.999Z</time></trkpt><trkpt lat="43.718764819569806" lon="11.58872660819241"><ele>1414.5</ele><time>2026-04-18T09:03:25.999Z</time></trkpt><trkpt lat="43.71877356059835" lon="11.588837419683985"><ele>1413.0</ele><time>2026-04-18T09:03:26.999Z</time></trkpt><trkpt lat="43.71880657894299" lon="11.58898382760563"><ele>1411.5</ele><time>2026-04-18T09:03:27.999Z</time></trkpt><trkpt lat="43.71887164740826" lon="11.589130490961791"><ele>1410.0</ele><time>2026-04-18T09:03:28.999Z</time></trkpt><trkpt lat="43.718949193615586" lon="11.589298364285552"><ele>1410.0</ele><time>2026-04-18T09:03:29.999Z</time></trkpt><trkpt lat="43.719021567101976" lon="11.589438001997635"><ele>1410.0</ele><time>2026-04-18T09:03:30.999Z</time></trkpt><trkpt lat="43.719083280199776" lon="11.589581918510142"><ele>1410.0</ele><time>2026-04-18T09:03:31.999Z</time></trkpt><trkpt lat="43.71913363729285" lon="11.589714293869271"><ele>1410.0</ele><time>2026-04-18T09:03:32.999Z</time></trkpt><trkpt lat="43.719181897363285" lon="11.589830636397433"><ele>1410.4</ele><time>2026-04-18T09:03:33.999Z</time></trkpt><trkpt lat="43.71920471015705" lon="11.589947182654203"><ele>1410.8</ele><time>2026-04-18T09:03:34.999Z</time></trkpt><trkpt lat="43.7192343239791" lon="11.590049865330132"><ele>1411.1999999999998</ele><time>2026-04-18T09:03:35.999Z</time></trkpt><trkpt lat="43.71927695302406" lon="11.590151843141818"><ele>1411.6</ele><time>2026-04-18T09:03:36.999Z</time></trkpt><trkpt lat="43.71929790191045" lon="11.59028635773849"><ele>1412.0</ele><time>2026-04-18T09:03:37.999Z</time></trkpt><trkpt lat="43.719338265798086" lon="11.590417310819895"><ele>1412.0</ele><time>2026-04-18T09:03:38.998Z</time></trkpt><trkpt lat="43.719372071394666" lon="11.59056075447228"><ele>1412.0</ele><time>2026-04-18T09:03:39.998Z</time></trkpt><trkpt lat="43.71939249130542" lon="11.590708641776779"><ele>1412.0</ele><time>2026-04-18T09:03:40.998Z</time></trkpt><trkpt lat="43.71941344585521" lon="11.590841748016363"><ele>1412.0</ele><time>2026-04-18T09:03:41.998Z</time></trkpt><trkpt lat="43.719447584071894" lon="11.590972676246798"><ele>1412.0</ele><time>2026-04-18T09:03:42.998Z</time></trkpt><trkpt lat="43.7194777344875" lon="11.59110872034873"><ele>1406.6</ele><time>2026-04-18T09:03:43.998Z</time></trkpt><trkpt lat="43.7195014477757" lon="11.591247085140848"><ele>1401.1999999999998</ele><time>2026-04-18T09:03:44.998Z</time></trkpt><trkpt lat="43.71952136778745" lon="11.591392688605653"><ele>1395.8</ele><time>2026-04-18T09:03:45.998Z</time></trkpt><trkpt lat="43.71953740966212" lon="11.59152624991615"><ele>1390.4</ele><time>2026-04-18T09:03:46.998Z</time></trkpt><trkpt lat="43.71954514242501" lon="11.591671137452858"><ele>1385.0</ele><time>2026-04-18T09:03:47.998Z</time></trkpt><trkpt lat="43.71956831588115" lon="11.591801153217522"><ele>1385.0</ele><time>2026-04-18T09:03:48.998Z</time></trkpt><trkpt lat="43.7195894157264" lon="11.59190855968257"><ele>1385.0</ele><time>2026-04-18T09:03:50Z</time></trkpt><trkpt lat="43.71960747419041" lon="11.592013230245763"><ele>1385.0</ele><time>2026-04-18T09:03:51Z</time></trkpt><trkpt lat="43.719622510717684" lon="11.592124440479578"><ele>1385.0</ele><time>2026-04-18T09:03:52Z</time></trkpt><trkpt lat="43.719621657165206" lon="11.592218553822066"><ele>1385.0</ele><time>2026-04-18T09:03:53Z</time></trkpt><trkpt lat="43.71956845120159" lon="11.5922903344514"><ele>1385.0</ele><time>2026-04-18T09:03:54Z</time></trkpt><trkpt lat="43.719519136313735" lon="11.592358590526405"><ele>1385.3333333333335</ele><time>2026-04-18T09:03:55Z</time></trkpt><trkpt lat="43.71944640558908" lon="11.592414459038228"><ele>1385.6666666666667</ele><time>2026-04-18T09:03:57Z</time></trkpt><trkpt lat="43.71937230202107" lon="11.59244863553203"><ele>1386.0</ele><time>2026-04-18T09:04:30Z</time></trkpt><trkpt lat="43.71924325026289" lon="11.592476997908092"><ele>1386.3333333333333</ele><time>2026-04-18T09:04:32Z</time></trkpt><trkpt lat="43.7191749829191" lon="11.59248502245512"><ele>1386.6666666666665</ele><time>2026-04-18T09:04:33Z</time></trkpt><trkpt lat="43.71910248041239" lon="11.592492098898827"><ele>1387.0</ele><time>2026-04-18T09:04:33.999Z</time></trkpt><trkpt lat="43.719017495345476" lon="11.592500393687418"><ele>1387.6</ele><time>2026-04-18T09:04:34.999Z</time></trkpt><trkpt lat="43.718917840885055" lon="11.592508825203934"><ele>1388.1999999999998</ele><time>2026-04-18T09:04:35.999Z</time></trkpt><trkpt lat="43.718815232082065" lon="11.592516883042864"><ele>1388.8</ele><time>2026-04-18T09:04:36.999Z</time></trkpt><trkpt lat="43.718726376540054" lon="11.592524350181902"><ele>1389.4</ele><time>2026-04-18T09:04:37.999Z</time></trkpt><trkpt lat="43.718645102094364" lon="11.592532680983181"><ele>1390.0</ele><time>2026-04-18T09:04:38.999Z</time></trkpt><trkpt lat="43.71856288671679" lon="11.592542519703741"><ele>1390.1666666666665</ele><time>2026-04-18T09:04:39.999Z</time></trkpt><trkpt lat="43.71846781851545" lon="11.5925549080602"><ele>1390.3333333333333</ele><time>2026-04-18T09:04:40.999Z</time></trkpt><trkpt lat="43.718378818235244" lon="11.592572954694905"><ele>1390.5</ele><time>2026-04-18T09:04:41.999Z</time></trkpt><trkpt lat="43.71831864895508" lon="11.592598824781499"><ele>1390.6666666666667</ele><time>2026-04-18T09:04:42.999Z</time></trkpt><trkpt lat="43.71823192108129" lon="11.592634264812059"><ele>1390.8333333333335</ele><time>2026-04-18T09:04:44.999Z</time></trkpt><trkpt lat="43.71814679396279" lon="11.592718689752074"><ele>1391.0</ele><time>2026-04-18T09:04:46.999Z</time></trkpt><trkpt lat="43.718089608459394" lon="11.592756098654693"><ele>1386.8</ele><time>2026-04-18T09:04:47.999Z</time></trkpt><trkpt lat="43.71799836065605" lon="11.592867579995005"><ele>1382.6</ele><time>2026-04-18T09:04:49.999Z</time></trkpt><trkpt lat="43.717947978110864" lon="11.592928903826342"><ele>1378.4</ele><time>2026-04-18T09:04:50.999Z</time></trkpt><trkpt lat="43.71786260403947" lon="11.593056218808321"><ele>1374.2</ele><time>2026-04-18T09:04:52.999Z</time></trkpt><trkpt lat="43.717817561962214" lon="11.593131668021059"><ele>1370.0</ele><time>2026-04-18T09:04:53.999Z</time></trkpt><trkpt lat="43.717755114485435" lon="11.59319660169847"><ele>1371.1666666666667</ele><time>2026-04-18T09:04:54.999Z</time></trkpt><trkpt lat="43.71769152453762" lon="11.593281154232816"><ele>1372.3333333333335</ele><time>2026-04-18T09:04:55.999Z</time></trkpt><trkpt lat="43.717613519474654" lon="11.593365818802392"><ele>1373.5</ele><time>2026-04-18T09:04:56.999Z</time></trkpt><trkpt lat="43.71754984940993" lon="11.59342576591539"><ele>1374.6666666666667</ele><time>2026-04-18T09:04:57.999Z</time></trkpt><trkpt lat="43.717477018069864" lon="11.59348616061175"><ele>1375.8333333333333</ele><time>2026-04-18T09:04:58.999Z</time></trkpt><trkpt lat="43.71741291134479" lon="11.593534905155833"><ele>1377.0</ele><time>2026-04-18T09:04:59.999Z</time></trkpt><trkpt lat="43.71733819586097" lon="11.59358060128975"><ele>1377.0</ele><time>2026-04-18T09:05:00.999Z</time></trkpt><trkpt lat="43.71726448274911" lon="11.593612024927465"><ele>1377.0</ele><time>2026-04-18T09:05:01.999Z</time></trkpt><trkpt lat="43.71718298621866" lon="11.593642086900985"><ele>1377.0</ele><time>2026-04-18T09:05:02.999Z</time></trkpt><trkpt lat="43.71708886200892" lon="11.593669204480552"><ele>1377.0</ele><time>2026-04-18T09:05:03.999Z</time></trkpt><trkpt lat="43.716981548591484" lon="11.593714505426636"><ele>1377.0</ele><time>2026-04-18T09:05:04.999Z</time></trkpt><trkpt lat="43.71689398124877" lon="11.593753449521575"><ele>1374.0</ele><time>2026-04-18T09:05:05.999Z</time></trkpt><trkpt lat="43.71681285246876" lon="11.593783424684405"><ele>1371.0</ele><time>2026-04-18T09:05:06.999Z</time></trkpt><trkpt lat="43.716730815037124" lon="11.593811480030952"><ele>1368.0</ele><time>2026-04-18T09:05:07.999Z</time></trkpt><trkpt lat="43.71665052202062" lon="11.593854428413257"><ele>1365.0</ele><time>2026-04-18T09:05:08.999Z</time></trkpt><trkpt lat="43.71656745033756" lon="11.593899876333467"><ele>1362.0</ele><time>2026-04-18T09:05:09.999Z</time></trkpt><trkpt lat="43.71647033158536" lon="11.593955678742347"><ele>1359.0</ele><time>2026-04-18T09:05:10.999Z</time></trkpt><trkpt lat="43.71637628685027" lon="11.594012456428587"><ele>1359.0</ele><time>2026-04-18T09:05:11.999Z</time></trkpt><trkpt lat="43.71628332500376" lon="11.594095816693857"><ele>1359.0</ele><time>2026-04-18T09:05:12.999Z</time></trkpt><trkpt lat="43.71620289031689" lon="11.594152725228767"><ele>1359.0</ele><time>2026-04-18T09:05:13.999Z</time></trkpt><trkpt lat="43.7161315042668" lon="11.594204601508997"><ele>1359.0</ele><time>2026-04-18T09:05:14.999Z</time></trkpt><trkpt lat="43.716050133502335" lon="11.594239460172211"><ele>1359.0</ele><time>2026-04-18T09:05:15.999Z</time></trkpt><trkpt lat="43.715971331571524" lon="11.59428028197689"><ele>1359.0</ele><time>2026-04-18T09:05:16.999Z</time></trkpt><trkpt lat="43.71590484092007" lon="11.594303417044548"><ele>1359.0</ele><time>2026-04-18T09:05:17.999Z</time></trkpt><trkpt lat="43.715834111801385" lon="11.59431805794514"><ele>1359.0</ele><time>2026-04-18T09:05:18.999Z</time></trkpt><trkpt lat="43.715758372383306" lon="11.594325543756545"><ele>1359.0</ele><time>2026-04-18T09:05:19.999Z</time></trkpt><trkpt lat="43.71567348086318" lon="11.594350990551034"><ele>1359.0</ele><time>2026-04-18T09:05:20.999Z</time></trkpt><trkpt lat="43.71558240362171" lon="11.59432668496397"><ele>1359.0</ele><time>2026-04-18T09:05:21.999Z</time></trkpt><trkpt lat="43.71549310601803" lon="11.594320087475522"><ele>1359.0</ele><time>2026-04-18T09:05:22.999Z</time></trkpt><trkpt lat="43.71540182979585" lon="11.594309432770755"><ele>1359.0</ele><time>2026-04-18T09:05:23.999Z</time></trkpt><trkpt lat="43.715306615887215" lon="11.59429780196758"><ele>1359.0</ele><time>2026-04-18T09:05:24.999Z</time></trkpt><trkpt lat="43.7152104526329" lon="11.594286843784944"><ele>1359.0</ele><time>2026-04-18T09:05:25.999Z</time></trkpt><trkpt lat="43.71512044876177" lon="11.594272791638062"><ele>1359.0</ele><time>2026-04-18T09:05:26.999Z</time></trkpt><trkpt lat="43.71503586599125" lon="11.594259585848672"><ele>1357.5</ele><time>2026-04-18T09:05:27.999Z</time></trkpt><trkpt lat="43.7149468028414" lon="11.594244535170972"><ele>1356.0</ele><time>2026-04-18T09:05:28.999Z</time></trkpt><trkpt lat="43.714857431820796" lon="11.594242395376115"><ele>1354.5</ele><time>2026-04-18T09:05:29.999Z</time></trkpt><trkpt lat="43.71477306444416" lon="11.594226957732367"><ele>1353.0</ele><time>2026-04-18T09:05:30.999Z</time></trkpt><trkpt lat="43.714691677346096" lon="11.594221662056347"><ele>1351.5</ele><time>2026-04-18T09:05:31.999Z</time></trkpt><trkpt lat="43.714611141197906" lon="11.594228265328987"><ele>1350.0</ele><time>2026-04-18T09:05:32.999Z</time></trkpt><trkpt lat="43.71454416279846" lon="11.59425227201712"><ele>1350.0</ele><time>2026-04-18T09:05:33.999Z</time></trkpt><trkpt lat="43.71448175688883" lon="11.594309075847503"><ele>1350.0</ele><time>2026-04-18T09:05:35.999Z</time></trkpt><trkpt lat="43.71440634980943" lon="11.594363644587936"><ele>1350.0</ele><time>2026-04-18T09:05:40.999Z</time></trkpt><trkpt lat="43.71432602685988" lon="11.594419604765301"><ele>1350.0</ele><time>2026-04-18T09:05:42.999Z</time></trkpt><trkpt lat="43.71430071128356" lon="11.594291399968874"><ele>1350.0</ele><time>2026-04-18T09:05:46.999Z</time></trkpt><trkpt lat="43.71424646748123" lon="11.594172573791324"><ele>1350.0</ele><time>2026-04-18T09:05:48.999Z</time></trkpt><trkpt lat="43.71416687916092" lon="11.594184187933301"><ele>1349.1666666666667</ele><time>2026-04-18T09:05:50.999Z</time></trkpt><trkpt lat="43.71407210525902" lon="11.594234303072716"><ele>1348.3333333333333</ele><time>2026-04-18T09:05:52.999Z</time></trkpt><trkpt lat="43.714022333148755" lon="11.594298014748565"><ele>1347.5</ele><time>2026-04-18T09:05:53.999Z</time></trkpt><trkpt lat="43.71397461547109" lon="11.594376504094875"><ele>1346.6666666666665</ele><time>2026-04-18T09:05:54.999Z</time></trkpt><trkpt lat="43.71392018177995" lon="11.594452571233193"><ele>1345.8333333333333</ele><time>2026-04-18T09:05:56Z</time></trkpt><trkpt lat="43.7138449611837" lon="11.59457255276398"><ele>1345.0</ele><time>2026-04-18T09:05:58Z</time></trkpt><trkpt lat="43.713767765839684" lon="11.594685538490872"><ele>1345.0</ele><time>2026-04-18T09:06:00Z</time></trkpt><trkpt lat="43.71372633010576" lon="11.594751585633999"><ele>1345.0</ele><time>2026-04-18T09:06:01Z</time></trkpt><trkpt lat="43.71368094081413" lon="11.59482198998887"><ele>1345.0</ele><time>2026-04-18T09:06:02Z</time></trkpt><trkpt lat="43.71360719203182" lon="11.594913292495066"><ele>1345.0</ele><time>2026-04-18T09:06:04Z</time></trkpt><trkpt lat="43.71351872051898" lon="11.59498740999634"><ele>1345.0</ele><time>2026-04-18T09:06:06Z</time></trkpt><trkpt lat="43.713458926914136" lon="11.59504006301919"><ele>1345.0</ele><time>2026-04-18T09:06:07Z</time></trkpt><trkpt lat="43.71340687808996" lon="11.595103736018803"><ele>1346.6666666666665</ele><time>2026-04-18T09:06:08Z</time></trkpt><trkpt lat="43.71335498114191" lon="11.595221334449729"><ele>1348.3333333333333</ele><time>2026-04-18T09:06:10Z</time></trkpt><trkpt lat="43.713276677017944" lon="11.595273660271657"><ele>1350.0</ele><time>2026-04-18T09:06:12Z</time></trkpt><trkpt lat="43.713203153465166" lon="11.59535239642063"><ele>1351.6666666666667</ele><time>2026-04-18T09:06:14Z</time></trkpt><trkpt lat="43.71314278479149" lon="11.595393857292464"><ele>1353.3333333333335</ele><time>2026-04-18T09:06:15Z</time></trkpt><trkpt lat="43.7130854771421" lon="11.595451125706063"><ele>1355.0</ele><time>2026-04-18T09:06:16Z</time></trkpt><trkpt lat="43.713002334991344" lon="11.595526127937864"><ele>1356.8</ele><time>2026-04-18T09:06:18Z</time></trkpt><trkpt lat="43.71288392599966" lon="11.595593342114329"><ele>1358.6</ele><time>2026-04-18T09:06:20Z</time></trkpt><trkpt lat="43.71281341328977" lon="11.595635532963763"><ele>1360.4</ele><time>2026-04-18T09:06:21Z</time></trkpt><trkpt lat="43.712739889468985" lon="11.595685507524228"><ele>1362.2</ele><time>2026-04-18T09:06:22Z</time></trkpt><trkpt lat="43.71265871669209" lon="11.595734008428566"><ele>1364.0</ele><time>2026-04-18T09:06:23Z</time></trkpt><trkpt lat="43.71257528578658" lon="11.595778969092313"><ele>1366.6666666666667</ele><time>2026-04-18T09:06:24Z</time></trkpt><trkpt lat="43.71250425196159" lon="11.595847137524977"><ele>1369.3333333333335</ele><time>2026-04-18T09:06:25Z</time></trkpt><trkpt lat="43.71245576580348" lon="11.595907963682484"><ele>1372.0</ele><time>2026-04-18T09:06:26Z</time></trkpt><trkpt lat="43.71240626184723" lon="11.595972247722843"><ele>1374.6666666666667</ele><time>2026-04-18T09:06:27Z</time></trkpt><trkpt lat="43.71235899105582" lon="11.596099673771477"><ele>1377.3333333333333</ele><time>2026-04-18T09:06:29Z</time></trkpt><trkpt lat="43.71233472125412" lon="11.59621716393289"><ele>1380.0</ele><time>2026-04-18T09:06:31Z</time></trkpt><trkpt lat="43.71226021511825" lon="11.596243774807501"><ele>1380.8333333333333</ele><time>2026-04-18T09:06:33Z</time></trkpt><trkpt lat="43.71218486802505" lon="11.59626061328305"><ele>1381.6666666666667</ele><time>2026-04-18T09:06:34Z</time></trkpt><trkpt lat="43.712111572112" lon="11.596278516053083"><ele>1382.5</ele><time>2026-04-18T09:06:35Z</time></trkpt><trkpt lat="43.712042991441926" lon="11.59629888119666"><ele>1383.3333333333335</ele><time>2026-04-18T09:06:36Z</time></trkpt><trkpt lat="43.711933525359555" lon="11.596324106047692"><ele>1384.1666666666667</ele><time>2026-04-18T09:06:38Z</time></trkpt><trkpt lat="43.71182684467871" lon="11.596379495222223"><ele>1385.0</ele><time>2026-04-18T09:06:40Z</time></trkpt><trkpt lat="43.71172897531788" lon="11.596426593837789"><ele>1388.5</ele><time>2026-04-18T09:06:42Z</time></trkpt><trkpt lat="43.71160438423045" lon="11.596478310263334"><ele>1392.0</ele><time>2026-04-18T09:07:11.999Z</time></trkpt><trkpt lat="43.71146791927094" lon="11.596554894253014"><ele>1395.5</ele><time>2026-04-18T09:07:13.999Z</time></trkpt><trkpt lat="43.71139832963996" lon="11.596601505198782"><ele>1399.0</ele><time>2026-04-18T09:07:14.999Z</time></trkpt><trkpt lat="43.71129483006669" lon="11.596685232452177"><ele>1399.0</ele><time>2026-04-18T09:07:16.999Z</time></trkpt><trkpt lat="43.7112234845187" lon="11.596716110906277"><ele>1399.0</ele><time>2026-04-18T09:07:17.999Z</time></trkpt><trkpt lat="43.71114558480292" lon="11.596735322148085"><ele>1399.0</ele><time>2026-04-18T09:07:18.999Z</time></trkpt><trkpt lat="43.71104704745348" lon="11.596764862731241"><ele>1399.0</ele><time>2026-04-18T09:07:19.999Z</time></trkpt><trkpt lat="43.710945183689425" lon="11.596788279457469"><ele>1399.0</ele><time>2026-04-18T09:07:20.999Z</time></trkpt><trkpt lat="43.71086236246256" lon="11.59680473623812"><ele>1399.0</ele><time>2026-04-18T09:07:21.999Z</time></trkpt><trkpt lat="43.71077905005695" lon="11.596822033359683"><ele>1399.8000000000002</ele><time>2026-04-18T09:07:22.999Z</time></trkpt><trkpt lat="43.71068757633655" lon="11.59684298548215"><ele>1400.6000000000001</ele><time>2026-04-18T09:07:23.999Z</time></trkpt><trkpt lat="43.71059797884581" lon="11.596855766643825"><ele>1401.4</ele><time>2026-04-18T09:07:24.999Z</time></trkpt><trkpt lat="43.710526107245734" lon="11.596865821800138"><ele>1402.2</ele><time>2026-04-18T09:07:25.999Z</time></trkpt><trkpt lat="43.71040853956316" lon="11.596849257384944"><ele>1403.0</ele><time>2026-04-18T09:07:27.999Z</time></trkpt><trkpt lat="43.710310615596" lon="11.596807360876417"><ele>1405.4</ele><time>2026-04-18T09:07:29.999Z</time></trkpt><trkpt lat="43.71022935938152" lon="11.596789105340285"><ele>1407.8000000000002</ele><time>2026-04-18T09:07:32.999Z</time></trkpt><trkpt lat="43.710148378715424" lon="11.59675327632852"><ele>1410.2</ele><time>2026-04-18T09:07:33.999Z</time></trkpt><trkpt lat="43.710062106515224" lon="11.596694579828393"><ele>1412.6</ele><time>2026-04-18T09:07:34.999Z</time></trkpt><trkpt lat="43.70996660389413" lon="11.596618074794138"><ele>1415.0</ele><time>2026-04-18T09:07:35.999Z</time></trkpt><trkpt lat="43.709880491153186" lon="11.59657000849521"><ele>1415.0</ele><time>2026-04-18T09:07:36.999Z</time></trkpt><trkpt lat="43.70980266079195" lon="11.596535113673989"><ele>1415.0</ele><time>2026-04-18T09:07:37.999Z</time></trkpt><trkpt lat="43.709733324627955" lon="11.596488869905288"><ele>1415.0</ele><time>2026-04-18T09:07:38.999Z</time></trkpt><trkpt lat="43.70963051407243" lon="11.596436191576066"><ele>1415.0</ele><time>2026-04-18T09:07:40.999Z</time></trkpt><trkpt lat="43.70954857878806" lon="11.596451752912067"><ele>1415.0</ele><time>2026-04-18T09:07:43.999Z</time></trkpt><trkpt lat="43.70947875413381" lon="11.596459944053155"><ele>1415.0</ele><time>2026-04-18T09:07:45.999Z</time></trkpt><trkpt lat="43.70943562138483" lon="11.596533309510074"><ele>1415.0</ele><time>2026-04-18T09:08:05Z</time></trkpt><trkpt lat="43.70950140759949" lon="11.596490122944854"><ele>1415.0</ele><time>2026-04-18T09:11:35.999Z</time></trkpt><trkpt lat="43.709435094627544" lon="11.596511065264007"><ele>1415.0</ele><time>2026-04-18T09:13:10.999Z</time></trkpt><trkpt lat="43.709395305306685" lon="11.596588021866502"><ele>1415.0</ele><time>2026-04-18T09:14:04.999Z</time></trkpt><trkpt lat="43.70933245094432" lon="11.596652642066745"><ele>1415.0</ele><time>2026-04-18T09:14:06.999Z</time></trkpt><trkpt lat="43.70928325794449" lon="11.596710651582338"><ele>1415.0</ele><time>2026-04-18T09:14:08.998Z</time></trkpt><trkpt lat="43.70922656086422" lon="11.596766096084021"><ele>1415.0</ele><time>2026-04-18T09:14:10.998Z</time></trkpt><trkpt lat="43.709167156265885" lon="11.59681118150625"><ele>1415.8</ele><time>2026-04-18T09:14:12.998Z</time></trkpt><trkpt lat="43.70911153057066" lon="11.596861080017298"><ele>1416.6</ele><time>2026-04-18T09:14:14.998Z</time></trkpt><trkpt lat="43.70903010176185" lon="11.596908341611321"><ele>1417.4</ele><time>2026-04-18T09:14:16.998Z</time></trkpt><trkpt lat="43.708956980116426" lon="11.596961220198722"><ele>1418.2</ele><time>2026-04-18T09:14:18.998Z</time></trkpt><trkpt lat="43.70885872989564" lon="11.597001572855927"><ele>1419.0</ele><time>2026-04-18T09:14:20.998Z</time></trkpt><trkpt lat="43.708700677236656" lon="11.597016849600033"><ele>1419.0</ele><time>2026-04-18T09:14:23.998Z</time></trkpt><trkpt lat="43.70858319085196" lon="11.597027949640921"><ele>1419.0</ele><time>2026-04-18T09:14:25.998Z</time></trkpt><trkpt lat="43.708477293154736" lon="11.597069092618788"><ele>1419.0</ele><time>2026-04-18T09:14:27.999Z</time></trkpt><trkpt lat="43.708388007423586" lon="11.59709222674937"><ele>1419.0</ele><time>2026-04-18T09:14:29.999Z</time></trkpt><trkpt lat="43.70829987088204" lon="11.597123706824185"><ele>1419.0</ele><time>2026-04-18T09:14:31.999Z</time></trkpt><trkpt lat="43.70822864868456" lon="11.597175460074482"><ele>1419.4</ele><time>2026-04-18T09:14:33.999Z</time></trkpt><trkpt lat="43.708209268213196" lon="11.597268720161733"><ele>1419.8000000000002</ele><time>2026-04-18T09:14:35.999Z</time></trkpt><trkpt lat="43.708138124145435" lon="11.59736480115507"><ele>1420.1999999999998</ele><time>2026-04-18T09:14:37.999Z</time></trkpt><trkpt lat="43.708044872753824" lon="11.597504267270075"><ele>1420.6</ele><time>2026-04-18T09:14:39.999Z</time></trkpt><trkpt lat="43.70793591625825" lon="11.597595103398978"><ele>1421.0</ele><time>2026-04-18T09:14:41.999Z</time></trkpt><trkpt lat="43.707878484921245" lon="11.59764322689797"><ele>1421.0</ele><time>2026-04-18T09:14:42.999Z</time></trkpt><trkpt lat="43.70781264424219" lon="11.597683277342503"><ele>1421.0</ele><time>2026-04-18T09:14:44.999Z</time></trkpt><trkpt lat="43.70775178595532" lon="11.597714803203349"><ele>1421.0</ele><time>2026-04-18T09:15:00.999Z</time></trkpt><trkpt lat="43.70770005744753" lon="11.597792099758992"><ele>1421.0</ele><time>2026-04-18T09:16:09.999Z</time></trkpt><trkpt lat="43.70765517577704" lon="11.597861608565326"><ele>1421.0</ele><time>2026-04-18T09:16:12.999Z</time></trkpt><trkpt lat="43.70761120267319" lon="11.597930889752728"><ele>1421.0</ele><time>2026-04-18T09:16:15.999Z</time></trkpt><trkpt lat="43.70756557397272" lon="11.598010353815127"><ele>1421.0</ele><time>2026-04-18T09:16:18.999Z</time></trkpt><trkpt lat="43.707514949943906" lon="11.598079816027091"><ele>1418.142857142857</ele><time>2026-04-18T09:16:20.999Z</time></trkpt><trkpt lat="43.707494968014394" lon="11.59816488759605"><ele>1415.2857142857142</ele><time>2026-04-18T09:16:22.999Z</time></trkpt><trkpt lat="43.707482238493625" lon="11.59825515919135"><ele>1412.4285714285716</ele><time>2026-04-18T09:16:24.999Z</time></trkpt><trkpt lat="43.7074409597334" lon="11.598327820764966"><ele>1409.5714285714284</ele><time>2026-04-18T09:16:27Z</time></trkpt><trkpt lat="43.70739874358386" lon="11.59840047424325"><ele>1406.7142857142858</ele><time>2026-04-18T09:16:29Z</time></trkpt><trkpt lat="43.707347080699364" lon="11.598481380677887"><ele>1403.857142857143</ele><time>2026-04-18T09:16:31Z</time></trkpt><trkpt lat="43.70729649752176" lon="11.598551270069521"><ele>1401.0</ele><time>2026-04-18T09:16:34Z</time></trkpt><trkpt lat="43.70721906965879" lon="11.598651594302343"><ele>1399.1666666666667</ele><time>2026-04-18T09:16:36Z</time></trkpt><trkpt lat="43.707204952879934" lon="11.598764704708135"><ele>1397.3333333333333</ele><time>2026-04-18T09:16:38Z</time></trkpt><trkpt lat="43.707133374654255" lon="11.598800837147792"><ele>1395.5</ele><time>2026-04-18T09:16:40Z</time></trkpt><trkpt lat="43.70708468538755" lon="11.598877456966939"><ele>1393.6666666666665</ele><time>2026-04-18T09:16:42Z</time></trkpt><trkpt lat="43.70702292329001" lon="11.598957178312084"><ele>1391.8333333333333</ele><time>2026-04-18T09:16:44Z</time></trkpt><trkpt lat="43.70694446128867" lon="11.598991709597863"><ele>1390.0</ele><time>2026-04-18T09:16:46Z</time></trkpt><trkpt lat="43.706867917384606" lon="11.599010799608859"><ele>1390.0</ele><time>2026-04-18T09:16:48Z</time></trkpt><trkpt lat="43.706805780071" lon="11.599087472698663"><ele>1390.0</ele><time>2026-04-18T09:16:50Z</time></trkpt><trkpt lat="43.70677000960358" lon="11.599185575667038"><ele>1390.0</ele><time>2026-04-18T09:16:52Z</time></trkpt><trkpt lat="43.70672223822936" lon="11.599267041451657"><ele>1390.0</ele><time>2026-04-18T09:16:54Z</time></trkpt><trkpt lat="43.70665396485035" lon="11.599351703078108"><ele>1390.0</ele><time>2026-04-18T09:16:57Z</time></trkpt><trkpt lat="43.706604092289496" lon="11.599419907027304"><ele>1390.0</ele><time>2026-04-18T09:16:59Z</time></trkpt><trkpt lat="43.706573542011355" lon="11.599515708021583"><ele>1388.4</ele><time>2026-04-18T09:17:01Z</time></trkpt><trkpt lat="43.70650429135311" lon="11.599589211773242"><ele>1386.8</ele><time>2026-04-18T09:17:04Z</time></trkpt><trkpt lat="43.70644995791985" lon="11.599695190577629"><ele>1385.1999999999998</ele><time>2026-04-18T09:17:07Z</time></trkpt><trkpt lat="43.7063980883362" lon="11.599788815306683"><ele>1383.6</ele><time>2026-04-18T09:17:09Z</time></trkpt><trkpt lat="43.706342623619264" lon="11.599942150480251"><ele>1382.0</ele><time>2026-04-18T09:17:11Z</time></trkpt><trkpt lat="43.706312794592286" lon="11.60003764958286"><ele>1382.0</ele><time>2026-04-18T09:17:12Z</time></trkpt><trkpt lat="43.70628445062459" lon="11.600115534909774"><ele>1382.0</ele><time>2026-04-18T09:17:13Z</time></trkpt><trkpt lat="43.70624133357216" lon="11.600181478565737"><ele>1382.0</ele><time>2026-04-18T09:17:14Z</time></trkpt><trkpt lat="43.706175827503515" lon="11.60025111282792"><ele>1382.0</ele><time>2026-04-18T09:17:15Z</time></trkpt><trkpt lat="43.70610579848871" lon="11.600323627377104"><ele>1382.0</ele><time>2026-04-18T09:17:16Z</time></trkpt><trkpt lat="43.70604031581294" lon="11.600397453212222"><ele>1382.0</ele><time>2026-04-18T09:17:17Z</time></trkpt><trkpt lat="43.705955382695656" lon="11.60049272153102"><ele>1382.1666666666667</ele><time>2026-04-18T09:17:18Z</time></trkpt><trkpt lat="43.7058752505724" lon="11.600589422031398"><ele>1382.3333333333335</ele><time>2026-04-18T09:17:19Z</time></trkpt><trkpt lat="43.70581052052582" lon="11.600663136809743"><ele>1382.5</ele><time>2026-04-18T09:17:20Z</time></trkpt><trkpt lat="43.70575126415215" lon="11.600706794601786"><ele>1382.6666666666667</ele><time>2026-04-18T09:17:21Z</time></trkpt><trkpt lat="43.70567855811251" lon="11.600739731052126"><ele>1382.8333333333333</ele><time>2026-04-18T09:17:23Z</time></trkpt><trkpt lat="43.705578227933344" lon="11.60074113872314"><ele>1383.0</ele><time>2026-04-18T09:17:25Z</time></trkpt><trkpt lat="43.70546144287226" lon="11.600695680207894"><ele>1383.0</ele><time>2026-04-18T09:17:27Z</time></trkpt><trkpt lat="43.70539431667239" lon="11.60066610086474"><ele>1383.0</ele><time>2026-04-18T09:17:28Z</time></trkpt><trkpt lat="43.70531984288578" lon="11.600649029699813"><ele>1383.0</ele><time>2026-04-18T09:17:29Z</time></trkpt><trkpt lat="43.705245012118816" lon="11.600655304433813"><ele>1383.0</ele><time>2026-04-18T09:17:30Z</time></trkpt><trkpt lat="43.70516850540814" lon="11.60066971101571"><ele>1383.0</ele><time>2026-04-18T09:17:31Z</time></trkpt><trkpt lat="43.7050366193687" lon="11.60067360791379"><ele>1383.0</ele><time>2026-04-18T09:17:33Z</time></trkpt><trkpt lat="43.704965678466415" lon="11.600693931326676"><ele>1383.2857142857144</ele><time>2026-04-18T09:17:34Z</time></trkpt><trkpt lat="43.70489804125381" lon="11.60073566294656"><ele>1383.5714285714287</ele><time>2026-04-18T09:17:35Z</time></trkpt><trkpt lat="43.704826346649675" lon="11.600791958867328"><ele>1383.857142857143</ele><time>2026-04-18T09:17:36Z</time></trkpt><trkpt lat="43.70476559162384" lon="11.600843204586335"><ele>1384.1428571428573</ele><time>2026-04-18T09:17:37Z</time></trkpt><trkpt lat="43.70469551656959" lon="11.600875643987697"><ele>1384.4285714285716</ele><time>2026-04-18T09:17:38Z</time></trkpt><trkpt lat="43.70463086522359" lon="11.600876717770639"><ele>1384.7142857142858</ele><time>2026-04-18T09:17:39Z</time></trkpt><trkpt lat="43.704566252089705" lon="11.600857791374079"><ele>1385.0</ele><time>2026-04-18T09:17:40Z</time></trkpt><trkpt lat="43.70449735496664" lon="11.600821324701286"><ele>1385.0</ele><time>2026-04-18T09:17:41Z</time></trkpt><trkpt lat="43.70442851754532" lon="11.600776710542661"><ele>1385.0</ele><time>2026-04-18T09:17:42Z</time></trkpt><trkpt lat="43.70436132486214" lon="11.600730488641247"><ele>1385.0</ele><time>2026-04-18T09:17:43Z</time></trkpt><trkpt lat="43.70428810310066" lon="11.60068373332693"><ele>1385.0</ele><time>2026-04-18T09:17:44Z</time></trkpt><trkpt lat="43.70421355394056" lon="11.600650400630485"><ele>1385.0</ele><time>2026-04-18T09:17:45Z</time></trkpt><trkpt lat="43.704131365111515" lon="11.600628184689203"><ele>1385.0</ele><time>2026-04-18T09:17:46Z</time></trkpt><trkpt lat="43.70405094620929" lon="11.600611571980862"><ele>1385.2</ele><time>2026-04-18T09:17:47Z</time></trkpt><trkpt lat="43.70396914059307" lon="11.600594380959866"><ele>1385.4</ele><time>2026-04-18T09:17:48Z</time></trkpt><trkpt lat="43.70383464445706" lon="11.600566731515947"><ele>1385.6</ele><time>2026-04-18T09:17:50Z</time></trkpt><trkpt lat="43.70376408146185" lon="11.600561229453966"><ele>1385.8</ele><time>2026-04-18T09:17:51Z</time></trkpt><trkpt lat="43.703688028767814" lon="11.600552847390375"><ele>1386.0</ele><time>2026-04-18T09:17:52Z</time></trkpt><trkpt lat="43.70357240083006" lon="11.600576570946806"><ele>1385.6</ele><time>2026-04-18T09:17:54Z</time></trkpt><trkpt lat="43.70348519577165" lon="11.600635064541743"><ele>1385.1999999999998</ele><time>2026-04-18T09:17:56Z</time></trkpt><trkpt lat="43.70340122861577" lon="11.600702972317174"><ele>1384.8000000000002</ele><time>2026-04-18T09:17:58Z</time></trkpt><trkpt lat="43.7033478422162" lon="11.600802490785272"><ele>1384.4</ele><time>2026-04-18T09:18:00Z</time></trkpt><trkpt lat="43.70329904166339" lon="11.600891073581037"><ele>1384.0</ele><time>2026-04-18T09:18:02Z</time></trkpt><trkpt lat="43.70321554590853" lon="11.60098620765818"><ele>1384.0</ele><time>2026-04-18T09:18:04Z</time></trkpt><trkpt lat="43.70314076999387" lon="11.601083751890236"><ele>1384.0</ele><time>2026-04-18T09:18:06Z</time></trkpt><trkpt lat="43.70306285495104" lon="11.601207384982782"><ele>1384.0</ele><time>2026-04-18T09:18:08Z</time></trkpt><trkpt lat="43.70299289472656" lon="11.601288357253882"><ele>1384.0</ele><time>2026-04-18T09:18:10Z</time></trkpt><trkpt lat="43.70291078808544" lon="11.60136794756528"><ele>1384.0</ele><time>2026-04-18T09:18:12Z</time></trkpt><trkpt lat="43.702856387999056" lon="11.60144023032897"><ele>1382.6666666666665</ele><time>2026-04-18T09:18:14Z</time></trkpt><trkpt lat="43.702802852170954" lon="11.60151706779549"><ele>1381.3333333333333</ele><time>2026-04-18T09:18:16Z</time></trkpt><trkpt lat="43.70275075951937" lon="11.601572367956711"><ele>1380.0</ele><time>2026-04-18T09:18:18Z</time></trkpt><trkpt lat="43.70269441586084" lon="11.601627613421083"><ele>1378.6666666666667</ele><time>2026-04-18T09:18:20Z</time></trkpt><trkpt lat="43.70263202622052" lon="11.601649324613076"><ele>1377.3333333333335</ele><time>2026-04-18T09:18:52.001Z</time></trkpt><trkpt lat="43.70257463694673" lon="11.601751448439275"><ele>1376.0</ele><time>2026-04-18T09:20:43.001Z</time></trkpt><trkpt lat="43.702501476148306" lon="11.601810313380234"><ele>1375.8</ele><time>2026-04-18T09:20:47.001Z</time></trkpt><trkpt lat="43.70244158662209" lon="11.601896346499219"><ele>1375.6</ele><time>2026-04-18T09:20:50.001Z</time></trkpt><trkpt lat="43.70235497186139" lon="11.60196112793164"><ele>1375.4</ele><time>2026-04-18T09:20:53.001Z</time></trkpt><trkpt lat="43.702302353621114" lon="11.602035096212118"><ele>1375.2</ele><time>2026-04-18T09:20:55.001Z</time></trkpt><trkpt lat="43.70223624414671" lon="11.60212428381949"><ele>1375.0</ele><time>2026-04-18T09:20:57.001Z</time></trkpt><trkpt lat="43.702190842661516" lon="11.602264787332233"><ele>1372.4</ele><time>2026-04-18T09:20:59.001Z</time></trkpt><trkpt lat="43.70215612511329" lon="11.602353307351457"><ele>1369.8</ele><time>2026-04-18T09:21:00.001Z</time></trkpt><trkpt lat="43.70214757025297" lon="11.602441384585042"><ele>1367.1999999999998</ele><time>2026-04-18T09:21:01.001Z</time></trkpt><trkpt lat="43.702102374430986" lon="11.602617532026116"><ele>1364.6</ele><time>2026-04-18T09:21:03.001Z</time></trkpt><trkpt lat="43.70206903180351" lon="11.602701916779964"><ele>1362.0</ele><time>2026-04-18T09:21:04.001Z</time></trkpt><trkpt lat="43.70201861425223" lon="11.602846400180473"><ele>1358.8</ele><time>2026-04-18T09:21:06.001Z</time></trkpt><trkpt lat="43.701956285009736" lon="11.602976676361353"><ele>1355.6</ele><time>2026-04-18T09:21:08.001Z</time></trkpt><trkpt lat="43.701899668453045" lon="11.603084636639387"><ele>1352.3999999999999</ele><time>2026-04-18T09:21:10Z</time></trkpt><trkpt lat="43.701825504138654" lon="11.603205788643473"><ele>1349.1999999999998</ele><time>2026-04-18T09:21:12Z</time></trkpt><trkpt lat="43.701759794516434" lon="11.603298061128099"><ele>1346.0</ele><time>2026-04-18T09:21:14Z</time></trkpt><trkpt lat="43.701694729120305" lon="11.603369786860457"><ele>1345.5</ele><time>2026-04-18T09:21:16Z</time></trkpt><trkpt lat="43.701644781785" lon="11.60343821783128"><ele>1345.0</ele><time>2026-04-18T09:21:18Z</time></trkpt><trkpt lat="43.70158584218818" lon="11.603546973892426"><ele>1344.5</ele><time>2026-04-18T09:21:21Z</time></trkpt><trkpt lat="43.7015381006113" lon="11.603668792776645"><ele>1344.0</ele><time>2026-04-18T09:21:23Z</time></trkpt><trkpt lat="43.70148804045234" lon="11.60377280126762"><ele>1343.5</ele><time>2026-04-18T09:21:25Z</time></trkpt><trkpt lat="43.70149217857328" lon="11.603875819883173"><ele>1343.0</ele><time>2026-04-18T09:21:29Z</time></trkpt><trkpt lat="43.70143513404203" lon="11.603960147613778"><ele>1342.6666666666667</ele><time>2026-04-18T09:21:36Z</time></trkpt><trkpt lat="43.7013402692783" lon="11.604005097424292"><ele>1342.3333333333335</ele><time>2026-04-18T09:21:38Z</time></trkpt><trkpt lat="43.70129879580223" lon="11.604082387877703"><ele>1342.0</ele><time>2026-04-18T09:21:40Z</time></trkpt><trkpt lat="43.701222864271806" lon="11.604154772755628"><ele>1341.6666666666667</ele><time>2026-04-18T09:21:42Z</time></trkpt><trkpt lat="43.701188661198984" lon="11.604241960062211"><ele>1341.3333333333333</ele><time>2026-04-18T09:21:43Z</time></trkpt><trkpt lat="43.70113211619133" lon="11.6043039565103"><ele>1341.0</ele><time>2026-04-18T09:21:44Z</time></trkpt><trkpt lat="43.70107044067605" lon="11.604419183849666"><ele>1341.1999999999998</ele><time>2026-04-18T09:21:46Z</time></trkpt><trkpt lat="43.70102611928144" lon="11.604484891645944"><ele>1341.3999999999999</ele><time>2026-04-18T09:21:47Z</time></trkpt><trkpt lat="43.700942162297416" lon="11.604625998754825"><ele>1341.6</ele><time>2026-04-18T09:21:49Z</time></trkpt><trkpt lat="43.700882022341936" lon="11.604730585987687"><ele>1341.8</ele><time>2026-04-18T09:21:50Z</time></trkpt><trkpt lat="43.700831853269776" lon="11.604822310911137"><ele>1342.0</ele><time>2026-04-18T09:21:51Z</time></trkpt><trkpt lat="43.70079392735147" lon="11.604917287802314"><ele>1342.0</ele><time>2026-04-18T09:21:52Z</time></trkpt><trkpt lat="43.700756260331474" lon="11.60499967075104"><ele>1342.0</ele><time>2026-04-18T09:21:53Z</time></trkpt><trkpt lat="43.70072153435513" lon="11.605082204804393"><ele>1342.0</ele><time>2026-04-18T09:21:54Z</time></trkpt><trkpt lat="43.700663765712584" lon="11.605208977587315"><ele>1342.0</ele><time>2026-04-18T09:21:56Z</time></trkpt><trkpt lat="43.700601383463095" lon="11.605311923076004"><ele>1342.0</ele><time>2026-04-18T09:21:58Z</time></trkpt><trkpt lat="43.70055909546834" lon="11.605429316218606"><ele>1342.0</ele><time>2026-04-18T09:22:00Z</time></trkpt><trkpt lat="43.70051509946496" lon="11.605514595592764"><ele>1341.5</ele><time>2026-04-18T09:22:02Z</time></trkpt><trkpt lat="43.70046149058889" lon="11.605610594084796"><ele>1341.0</ele><time>2026-04-18T09:22:04Z</time></trkpt><trkpt lat="43.700415788835926" lon="11.60569984828259"><ele>1340.5</ele><time>2026-04-18T09:22:06Z</time></trkpt><trkpt lat="43.700353059523124" lon="11.605794781679"><ele>1340.0</ele><time>2026-04-18T09:22:08Z</time></trkpt><trkpt lat="43.70029901845905" lon="11.605859021740999"><ele>1339.5</ele><time>2026-04-18T09:22:11Z</time></trkpt><trkpt lat="43.70024581019182" lon="11.605952482100365"><ele>1339.0</ele><time>2026-04-18T09:22:12Z</time></trkpt><trkpt lat="43.700182998869046" lon="11.606053217287265"><ele>1339.1666666666665</ele><time>2026-04-18T09:22:13Z</time></trkpt><trkpt lat="43.70013362339693" lon="11.606157104457928"><ele>1339.3333333333333</ele><time>2026-04-18T09:22:14Z</time></trkpt><trkpt lat="43.70008282058073" lon="11.6062695116954"><ele>1339.5</ele><time>2026-04-18T09:22:15Z</time></trkpt><trkpt lat="43.70003575003805" lon="11.606386758332997"><ele>1339.6666666666667</ele><time>2026-04-18T09:22:16Z</time></trkpt><trkpt lat="43.69998508750657" lon="11.606484316332537"><ele>1339.8333333333335</ele><time>2026-04-18T09:22:17Z</time></trkpt><trkpt lat="43.699936463367905" lon="11.606561378592962"><ele>1340.0</ele><time>2026-04-18T09:22:18Z</time></trkpt><trkpt lat="43.69986478337697" lon="11.606694079804043"><ele>1340.0</ele><time>2026-04-18T09:22:20Z</time></trkpt><trkpt lat="43.69977140942502" lon="11.606785087458107"><ele>1340.0</ele><time>2026-04-18T09:22:22Z</time></trkpt><trkpt lat="43.69973085210952" lon="11.60687003841236"><ele>1340.0</ele><time>2026-04-18T09:22:24Z</time></trkpt><trkpt lat="43.69973608674302" lon="11.606960258526888"><ele>1340.0</ele><time>2026-04-18T09:22:27Z</time></trkpt><trkpt lat="43.69982530991116" lon="11.607054313419429"><ele>1340.0</ele><time>2026-04-18T09:23:17Z</time></trkpt><trkpt lat="43.699838820986706" lon="11.607140048068105"><ele>1340.0</ele><time>2026-04-18T09:23:18Z</time></trkpt><trkpt lat="43.699816351912354" lon="11.607299621367362"><ele>1340.6666666666667</ele><time>2026-04-18T09:23:20Z</time></trkpt><trkpt lat="43.69979422499131" lon="11.607442773141537"><ele>1341.3333333333335</ele><time>2026-04-18T09:23:22Z</time></trkpt><trkpt lat="43.69982557052162" lon="11.60754177713941"><ele>1342.0</ele><time>2026-04-18T09:23:24Z</time></trkpt><trkpt lat="43.69991420899098" lon="11.607513884653113"><ele>1342.6666666666667</ele><time>2026-04-18T09:23:26Z</time></trkpt><trkpt lat="43.699959001672376" lon="11.607435356273378"><ele>1343.3333333333333</ele><time>2026-04-18T09:23:27Z</time></trkpt><trkpt lat="43.70000988798338" lon="11.607317140529565"><ele>1344.0</ele><time>2026-04-18T09:23:28Z</time></trkpt><trkpt lat="43.70004499245926" lon="11.607188495389664"><ele>1344.0</ele><time>2026-04-18T09:23:29Z</time></trkpt><trkpt lat="43.700073601481215" lon="11.60704466328568"><ele>1344.0</ele><time>2026-04-18T09:23:30Z</time></trkpt><trkpt lat="43.70010183037837" lon="11.606912330471262"><ele>1344.0</ele><time>2026-04-18T09:23:31Z</time></trkpt><trkpt lat="43.70012669750183" lon="11.606820631748926"><ele>1344.0</ele><time>2026-04-18T09:23:32Z</time></trkpt><trkpt lat="43.70016737308145" lon="11.606751800864902"><ele>1344.0</ele><time>2026-04-18T09:23:33Z</time></trkpt><trkpt lat="43.700264634869725" lon="11.606680742458721"><ele>1341.5</ele><time>2026-04-18T09:23:35Z</time></trkpt><trkpt lat="43.700344913410035" lon="11.6066395687784"><ele>1339.0</ele><time>2026-04-18T09:23:36Z</time></trkpt><trkpt lat="43.70040460960334" lon="11.606599876455418"><ele>1336.5</ele><time>2026-04-18T09:23:37Z</time></trkpt><trkpt lat="43.7004657945497" lon="11.60655784166918"><ele>1334.0</ele><time>2026-04-18T09:23:38Z</time></trkpt><trkpt lat="43.70057491029775" lon="11.6064953619274"><ele>1331.5</ele><time>2026-04-18T09:23:40Z</time></trkpt><trkpt lat="43.70063490347641" lon="11.606433981892295"><ele>1329.0</ele><time>2026-04-18T09:23:51Z</time></trkpt><trkpt lat="43.700673670939224" lon="11.606512659379224"><ele>1329.0</ele><time>2026-04-18T09:24:29.999Z</time></trkpt><trkpt lat="43.70072951802025" lon="11.60658511975431"><ele>1329.0</ele><time>2026-04-18T09:24:33.999Z</time></trkpt><trkpt lat="43.70074881413727" lon="11.606671669351817"><ele>1329.0</ele><time>2026-04-18T09:24:36.999Z</time></trkpt><trkpt lat="43.700659263693076" lon="11.606772420818219"><ele>1329.0</ele><time>2026-04-18T09:27:03Z</time></trkpt><trkpt lat="43.700623555561194" lon="11.606844543724526"><ele>1329.0</ele><time>2026-04-18T09:27:04Z</time></trkpt><trkpt lat="43.70058618224907" lon="11.606943059384458"><ele>1329.0</ele><time>2026-04-18T09:27:05Z</time></trkpt><trkpt lat="43.70052689015288" lon="11.60709519394025"><ele>1328.0</ele><time>2026-04-18T09:27:06Z</time></trkpt><trkpt lat="43.70044339077749" lon="11.607263061315454"><ele>1327.0</ele><time>2026-04-18T09:27:07Z</time></trkpt><trkpt lat="43.700385216080974" lon="11.607388925724727"><ele>1326.0</ele><time>2026-04-18T09:27:08Z</time></trkpt><trkpt lat="43.700363510341326" lon="11.607517534311802"><ele>1325.0</ele><time>2026-04-18T09:27:09Z</time></trkpt><trkpt lat="43.700276235149445" lon="11.607714250553899"><ele>1328.0</ele><time>2026-04-18T09:27:10Z</time></trkpt><trkpt lat="43.70019035200801" lon="11.60790832375955"><ele>1331.0</ele><time>2026-04-18T09:27:11Z</time></trkpt><trkpt lat="43.70011153268226" lon="11.608089775445404"><ele>1334.0</ele><time>2026-04-18T09:27:12Z</time></trkpt><trkpt lat="43.700046792008195" lon="11.608242673549814"><ele>1337.0</ele><time>2026-04-18T09:27:13Z</time></trkpt><trkpt lat="43.69998540158152" lon="11.608385809257406"><ele>1337.0</ele><time>2026-04-18T09:27:14Z</time></trkpt><trkpt lat="43.69992463145555" lon="11.608526442915638"><ele>1337.0</ele><time>2026-04-18T09:27:15Z</time></trkpt><trkpt lat="43.69986107488819" lon="11.608684402495625"><ele>1337.0</ele><time>2026-04-18T09:27:16Z</time></trkpt><trkpt lat="43.69979622524899" lon="11.60884161135906"><ele>1337.0</ele><time>2026-04-18T09:27:17Z</time></trkpt><trkpt lat="43.69973510171565" lon="11.608983710095616"><ele>1336.8</ele><time>2026-04-18T09:27:18Z</time></trkpt><trkpt lat="43.69967600335653" lon="11.609124957328994"><ele>1336.6</ele><time>2026-04-18T09:27:19Z</time></trkpt><trkpt lat="43.69962402887416" lon="11.609266696295677"><ele>1336.3999999999999</ele><time>2026-04-18T09:27:20Z</time></trkpt><trkpt lat="43.69958019114109" lon="11.609384046743093"><ele>1336.1999999999998</ele><time>2026-04-18T09:27:21Z</time></trkpt><trkpt lat="43.699523939150815" lon="11.609468649750468"><ele>1336.0</ele><time>2026-04-18T09:27:22Z</time></trkpt><trkpt lat="43.69948164216154" lon="11.609548737275459"><ele>1336.1999999999998</ele><time>2026-04-18T09:27:23Z</time></trkpt><trkpt lat="43.69943093757668" lon="11.609632913815522"><ele>1336.3999999999999</ele><time>2026-04-18T09:27:24Z</time></trkpt><trkpt lat="43.699367131710154" lon="11.609717503573426"><ele>1336.6</ele><time>2026-04-18T09:27:25Z</time></trkpt><trkpt lat="43.69928067347847" lon="11.609802943759215"><ele>1336.8</ele><time>2026-04-18T09:27:26Z</time></trkpt><trkpt lat="43.6991881531965" lon="11.60983060632654"><ele>1337.0</ele><time>2026-04-18T09:27:27Z</time></trkpt><trkpt lat="43.6990732405917" lon="11.609846877490481"><ele>1337.0</ele><time>2026-04-18T09:27:28Z</time></trkpt><trkpt lat="43.698930433628064" lon="11.609873954238035"><ele>1337.0</ele><time>2026-04-18T09:27:29Z</time></trkpt><trkpt lat="43.69881359743661" lon="11.609913966674288"><ele>1337.0</ele><time>2026-04-18T09:27:30Z</time></trkpt><trkpt lat="43.69871317111689" lon="11.609964809487241"><ele>1337.0</ele><time>2026-04-18T09:27:31Z</time></trkpt><trkpt lat="43.698640740218416" lon="11.610025414815853"><ele>1339.0</ele><time>2026-04-18T09:27:32Z</time></trkpt><trkpt lat="43.698566542091484" lon="11.610129664057782"><ele>1341.0</ele><time>2026-04-18T09:27:33Z</time></trkpt><trkpt lat="43.69850112424095" lon="11.61024109213122"><ele>1343.0</ele><time>2026-04-18T09:27:34Z</time></trkpt><trkpt lat="43.69843960112662" lon="11.610372244293984"><ele>1345.0</ele><time>2026-04-18T09:27:35Z</time></trkpt><trkpt lat="43.69839414723821" lon="11.610494280802728"><ele>1347.0</ele><time>2026-04-18T09:27:36Z</time></trkpt><trkpt lat="43.69838017590354" lon="11.61062404285213"><ele>1347.0</ele><time>2026-04-18T09:27:37Z</time></trkpt><trkpt lat="43.698383681163" lon="11.610775300145708"><ele>1347.0</ele><time>2026-04-18T09:27:38Z</time></trkpt><trkpt lat="43.69843781726613" lon="11.610939773946257"><ele>1347.0</ele><time>2026-04-18T09:27:39Z</time></trkpt><trkpt lat="43.69850841943315" lon="11.611144532539146"><ele>1347.0</ele><time>2026-04-18T09:27:40Z</time></trkpt><trkpt lat="43.69853698660507" lon="11.611321764357784"><ele>1347.3999999999999</ele><time>2026-04-18T09:27:41Z</time></trkpt><trkpt lat="43.69854474324692" lon="11.61148279803372"><ele>1347.8</ele><time>2026-04-18T09:27:42Z</time></trkpt><trkpt lat="43.698561266695094" lon="11.611653038248624"><ele>1348.2</ele><time>2026-04-18T09:27:43Z</time></trkpt><trkpt lat="43.69855782415274" lon="11.611769644338"><ele>1348.6</ele><time>2026-04-18T09:27:44Z</time></trkpt><trkpt lat="43.69854402637383" lon="11.611920503820627"><ele>1349.0</ele><time>2026-04-18T09:27:45Z</time></trkpt><trkpt lat="43.69857230953116" lon="11.612043037524607"><ele>1340.0</ele><time>2026-04-18T09:27:46Z</time></trkpt><trkpt lat="43.6986183759825" lon="11.612168361174032"><ele>1331.0</ele><time>2026-04-18T09:27:47Z</time></trkpt><trkpt lat="43.69874878078224" lon="11.612277386408916"><ele>1322.0</ele><time>2026-04-18T09:27:48Z</time></trkpt><trkpt lat="43.698847817248144" lon="11.61240788400887"><ele>1313.0</ele><time>2026-04-18T09:27:49Z</time></trkpt><trkpt lat="43.69892584838331" lon="11.612547545190328"><ele>1313.0</ele><time>2026-04-18T09:27:50Z</time></trkpt><trkpt lat="43.699002795938405" lon="11.61266173441864"><ele>1313.0</ele><time>2026-04-18T09:27:51Z</time></trkpt><trkpt lat="43.69903648160455" lon="11.61277303680496"><ele>1313.0</ele><time>2026-04-18T09:27:52Z</time></trkpt><trkpt lat="43.69903644442975" lon="11.612872582817037"><ele>1313.0</ele><time>2026-04-18T09:27:53Z</time></trkpt><trkpt lat="43.698996011406855" lon="11.612999815636789"><ele>1313.0</ele><time>2026-04-18T09:27:54Z</time></trkpt><trkpt lat="43.69894986849276" lon="11.613128641115392"><ele>1313.6000000000001</ele><time>2026-04-18T09:27:55Z</time></trkpt><trkpt lat="43.69888434440806" lon="11.613230193287738"><ele>1314.2</ele><time>2026-04-18T09:27:56Z</time></trkpt><trkpt lat="43.69880185998874" lon="11.613373985920635"><ele>1314.8</ele><time>2026-04-18T09:27:57Z</time></trkpt><trkpt lat="43.69875335410785" lon="11.613531533410868"><ele>1315.4</ele><time>2026-04-18T09:27:58Z</time></trkpt><trkpt lat="43.69874100090375" lon="11.613642370882053"><ele>1316.0</ele><time>2026-04-18T09:27:59Z</time></trkpt><trkpt lat="43.69874770669875" lon="11.613797975488872"><ele>1317.25</ele><time>2026-04-18T09:28:00Z</time></trkpt><trkpt lat="43.69879225667227" lon="11.613951957561644"><ele>1318.5</ele><time>2026-04-18T09:28:01Z</time></trkpt><trkpt lat="43.698890081512296" lon="11.614070260479648"><ele>1319.75</ele><time>2026-04-18T09:28:02Z</time></trkpt><trkpt lat="43.698993963534214" lon="11.614188248867107"><ele>1321.0</ele><time>2026-04-18T09:28:02.999Z</time></trkpt><trkpt lat="43.69912056879602" lon="11.614286256442082"><ele>1321.0</ele><time>2026-04-18T09:28:03.999Z</time></trkpt><trkpt lat="43.69927251894128" lon="11.614373357648844"><ele>1321.0</ele><time>2026-04-18T09:28:04.999Z</time></trkpt><trkpt lat="43.69940306130162" lon="11.614471574222053"><ele>1321.0</ele><time>2026-04-18T09:28:05.999Z</time></trkpt><trkpt lat="43.69950801544617" lon="11.61455101567312"><ele>1321.0</ele><time>2026-04-18T09:28:06.999Z</time></trkpt><trkpt lat="43.69960159932934" lon="11.614639396535196"><ele>1317.6666666666665</ele><time>2026-04-18T09:28:07.999Z</time></trkpt><trkpt lat="43.69967490327846" lon="11.614726581365913"><ele>1314.3333333333333</ele><time>2026-04-18T09:28:08.999Z</time></trkpt><trkpt lat="43.69973803029555" lon="11.614829644240542"><ele>1311.0</ele><time>2026-04-18T09:28:09.999Z</time></trkpt><trkpt lat="43.69978040409757" lon="11.61492356988583"><ele>1307.6666666666667</ele><time>2026-04-18T09:28:10.999Z</time></trkpt><trkpt lat="43.69981037660532" lon="11.615045779349035"><ele>1304.3333333333335</ele><time>2026-04-18T09:28:11.999Z</time></trkpt><trkpt lat="43.69982346023058" lon="11.615145240646719"><ele>1301.0</ele><time>2026-04-18T09:28:12.999Z</time></trkpt><trkpt lat="43.699826273578786" lon="11.615257329506308"><ele>1302.5714285714284</ele><time>2026-04-18T09:28:13.999Z</time></trkpt><trkpt lat="43.69983372239997" lon="11.615363860405651"><ele>1304.142857142857</ele><time>2026-04-18T09:28:14.999Z</time></trkpt><trkpt lat="43.69984557657079" lon="11.615461208258214"><ele>1305.7142857142858</ele><time>2026-04-18T09:28:15.999Z</time></trkpt><trkpt lat="43.69987381890152" lon="11.615570180975826"><ele>1307.2857142857142</ele><time>2026-04-18T09:28:16.999Z</time></trkpt><trkpt lat="43.69989203708319" lon="11.61567448264203"><ele>1308.857142857143</ele><time>2026-04-18T09:28:17.999Z</time></trkpt><trkpt lat="43.699911787274004" lon="11.615757360053903"><ele>1310.4285714285713</ele><time>2026-04-18T09:28:18.999Z</time></trkpt><trkpt lat="43.69993352905847" lon="11.615849184431438"><ele>1312.0</ele><time>2026-04-18T09:28:19.999Z</time></trkpt><trkpt lat="43.70003395265647" lon="11.615966621533278"><ele>1312.0</ele><time>2026-04-18T09:28:21.999Z</time></trkpt><trkpt lat="43.70012193128831" lon="11.616050419048902"><ele>1312.0</ele><time>2026-04-18T09:28:23.999Z</time></trkpt><trkpt lat="43.700202478830604" lon="11.616123008469021"><ele>1312.0</ele><time>2026-04-18T09:28:25.999Z</time></trkpt><trkpt lat="43.70027561431624" lon="11.616211744018063"><ele>1312.0</ele><time>2026-04-18T09:28:27.999Z</time></trkpt><trkpt lat="43.700345321847315" lon="11.616268910312064"><ele>1312.0</ele><time>2026-04-18T09:28:29.999Z</time></trkpt><trkpt lat="43.70039474380272" lon="11.616333913454158"><ele>1312.0</ele><time>2026-04-18T09:28:30.999Z</time></trkpt><trkpt lat="43.70046348949754" lon="11.616403208821481"><ele>1309.25</ele><time>2026-04-18T09:28:31.999Z</time></trkpt><trkpt lat="43.700552479996155" lon="11.61650350078916"><ele>1306.5</ele><time>2026-04-18T09:28:32.999Z</time></trkpt><trkpt lat="43.70066699292314" lon="11.616614971194824"><ele>1303.75</ele><time>2026-04-18T09:28:33.999Z</time></trkpt><trkpt lat="43.700779569702206" lon="11.616713353189976"><ele>1301.0</ele><time>2026-04-18T09:28:34.999Z</time></trkpt><trkpt lat="43.70088649392674" lon="11.616782338183256"><ele>1301.0</ele><time>2026-04-18T09:28:35.999Z</time></trkpt><trkpt lat="43.70098307738548" lon="11.616841234125532"><ele>1301.0</ele><time>2026-04-18T09:28:36.999Z</time></trkpt><trkpt lat="43.701064222155026" lon="11.616925271591814"><ele>1301.0</ele><time>2026-04-18T09:28:37.999Z</time></trkpt><trkpt lat="43.701141190096294" lon="11.616997636769659"><ele>1301.0</ele><time>2026-04-18T09:28:38.999Z</time></trkpt><trkpt lat="43.701191499844064" lon="11.617087730273896"><ele>1301.0</ele><time>2026-04-18T09:28:39.999Z</time></trkpt><trkpt lat="43.70123032352779" lon="11.617197917922512"><ele>1298.0</ele><time>2026-04-18T09:28:40.999Z</time></trkpt><trkpt lat="43.701256923094334" lon="11.617294665631777"><ele>1295.0</ele><time>2026-04-18T09:28:41.999Z</time></trkpt><trkpt lat="43.70128644248334" lon="11.617392806085618"><ele>1292.0</ele><time>2026-04-18T09:28:42.999Z</time></trkpt><trkpt lat="43.70133557315026" lon="11.617499864293373"><ele>1289.0</ele><time>2026-04-18T09:28:43.999Z</time></trkpt><trkpt lat="43.701377376974705" lon="11.617636360511481"><ele>1286.0</ele><time>2026-04-18T09:28:44.999Z</time></trkpt><trkpt lat="43.70143717161447" lon="11.617773516344938"><ele>1287.8</ele><time>2026-04-18T09:28:45.999Z</time></trkpt><trkpt lat="43.70149806424748" lon="11.617905589601353"><ele>1289.6</ele><time>2026-04-18T09:28:46.999Z</time></trkpt><trkpt lat="43.701566036290615" lon="11.618015613781175"><ele>1291.4</ele><time>2026-04-18T09:28:47.999Z</time></trkpt><trkpt lat="43.70160376772184" lon="11.61811772791642"><ele>1293.2</ele><time>2026-04-18T09:28:48.999Z</time></trkpt><trkpt lat="43.7016535491136" lon="11.618211972037622"><ele>1295.0</ele><time>2026-04-18T09:28:49.999Z</time></trkpt><trkpt lat="43.70168261143522" lon="11.618306102010557"><ele>1295.0</ele><time>2026-04-18T09:28:50.999Z</time></trkpt><trkpt lat="43.701706495974534" lon="11.618416745848622"><ele>1295.0</ele><time>2026-04-18T09:28:51.999Z</time></trkpt><trkpt lat="43.701685642378564" lon="11.618555659147608"><ele>1295.0</ele><time>2026-04-18T09:28:52.999Z</time></trkpt><trkpt lat="43.701609810278185" lon="11.618671226895563"><ele>1295.0</ele><time>2026-04-18T09:28:53.999Z</time></trkpt><trkpt lat="43.70154483741024" lon="11.618788474169099"><ele>1295.0</ele><time>2026-04-18T09:28:54.999Z</time></trkpt><trkpt lat="43.70148431332608" lon="11.618869595316898"><ele>1295.6</ele><time>2026-04-18T09:28:55.999Z</time></trkpt><trkpt lat="43.70142775692469" lon="11.61893794098298"><ele>1296.2</ele><time>2026-04-18T09:28:56.999Z</time></trkpt><trkpt lat="43.70134777524026" lon="11.618990568034897"><ele>1296.8000000000002</ele><time>2026-04-18T09:28:57.999Z</time></trkpt><trkpt lat="43.701252636990795" lon="11.618998001538891"><ele>1297.4</ele><time>2026-04-18T09:28:58.999Z</time></trkpt><trkpt lat="43.701157926284644" lon="11.618975062341613"><ele>1298.0</ele><time>2026-04-18T09:28:59.999Z</time></trkpt><trkpt lat="43.70104067551624" lon="11.618903588171259"><ele>1298.0</ele><time>2026-04-18T09:29:00.999Z</time></trkpt><trkpt lat="43.700919728233615" lon="11.61882918948948"><ele>1298.0</ele><time>2026-04-18T09:29:02Z</time></trkpt><trkpt lat="43.70079454830047" lon="11.618772213778291"><ele>1298.0</ele><time>2026-04-18T09:29:03Z</time></trkpt><trkpt lat="43.70067528704173" lon="11.618780717538572"><ele>1298.0</ele><time>2026-04-18T09:29:04Z</time></trkpt><trkpt lat="43.70055852879975" lon="11.618793184459893"><ele>1298.0</ele><time>2026-04-18T09:29:05Z</time></trkpt><trkpt lat="43.70043549671615" lon="11.618841161646557"><ele>1298.0</ele><time>2026-04-18T09:29:06Z</time></trkpt><trkpt lat="43.700323694656355" lon="11.61890747204863"><ele>1298.0</ele><time>2026-04-18T09:29:07Z</time></trkpt><trkpt lat="43.70021196162527" lon="11.618958355463121"><ele>1298.0</ele><time>2026-04-18T09:29:08Z</time></trkpt><trkpt lat="43.70009900284472" lon="11.618994311266496"><ele>1299.6000000000001</ele><time>2026-04-18T09:29:09Z</time></trkpt><trkpt lat="43.70000333337991" lon="11.619044379426537"><ele>1301.2</ele><time>2026-04-18T09:29:10Z</time></trkpt><trkpt lat="43.699930078312896" lon="11.619106772690095"><ele>1302.8</ele><time>2026-04-18T09:29:11Z</time></trkpt><trkpt lat="43.69978997512073" lon="11.619171017580685"><ele>1304.4</ele><time>2026-04-18T09:29:13Z</time></trkpt><trkpt lat="43.69970293134568" lon="11.619209704897125"><ele>1306.0</ele><time>2026-04-18T09:29:14Z</time></trkpt><trkpt lat="43.69963629899031" lon="11.619246821269574"><ele>1306.0</ele><time>2026-04-18T09:29:15Z</time></trkpt><trkpt lat="43.69954494710255" lon="11.619276439578325"><ele>1306.0</ele><time>2026-04-18T09:29:17Z</time></trkpt><trkpt lat="43.69944679208489" lon="11.619322812953476"><ele>1306.0</ele><time>2026-04-18T09:29:20Z</time></trkpt><trkpt lat="43.699375961787375" lon="11.619356107870116"><ele>1306.0</ele><time>2026-04-18T09:29:22Z</time></trkpt><trkpt lat="43.699293791875334" lon="11.619408636761051"><ele>1306.0</ele><time>2026-04-18T09:29:31Z</time></trkpt><trkpt lat="43.69917412056121" lon="11.619426473179514"><ele>1304.0</ele><time>2026-04-18T09:29:32Z</time></trkpt><trkpt lat="43.69908280621046" lon="11.619506856796507"><ele>1302.0</ele><time>2026-04-18T09:29:33Z</time></trkpt><trkpt lat="43.69897643564754" lon="11.619543533134244"><ele>1300.0</ele><time>2026-04-18T09:29:34Z</time></trkpt><trkpt lat="43.69885624617146" lon="11.619606344256303"><ele>1298.0</ele><time>2026-04-18T09:29:35Z</time></trkpt><trkpt lat="43.69874331525635" lon="11.619664067476807"><ele>1298.0</ele><time>2026-04-18T09:29:36Z</time></trkpt><trkpt lat="43.69864292142418" lon="11.619716117282602"><ele>1298.0</ele><time>2026-04-18T09:29:37Z</time></trkpt><trkpt lat="43.69856290417068" lon="11.619757786306767"><ele>1298.0</ele><time>2026-04-18T09:29:38Z</time></trkpt><trkpt lat="43.69850342359972" lon="11.619808071513075"><ele>1298.0</ele><time>2026-04-18T09:29:39Z</time></trkpt><trkpt lat="43.69838144774016" lon="11.6198491962848"><ele>1298.0</ele><time>2026-04-18T09:29:40Z</time></trkpt><trkpt lat="43.69826882863881" lon="11.619940499008658"><ele>1296.6000000000001</ele><time>2026-04-18T09:29:41Z</time></trkpt><trkpt lat="43.698161062171124" lon="11.620014701374823"><ele>1295.2</ele><time>2026-04-18T09:29:42Z</time></trkpt><trkpt lat="43.69807469981969" lon="11.620130324934465"><ele>1293.8</ele><time>2026-04-18T09:29:43Z</time></trkpt><trkpt lat="43.69800546510474" lon="11.620229205553699"><ele>1292.4</ele><time>2026-04-18T09:29:44Z</time></trkpt><trkpt lat="43.6979634912392" lon="11.620340610424073"><ele>1291.0</ele><time>2026-04-18T09:29:45Z</time></trkpt><trkpt lat="43.697938782774884" lon="11.620479849012558"><ele>1291.0</ele><time>2026-04-18T09:29:46Z</time></trkpt><trkpt lat="43.69792574855494" lon="11.620646036054566"><ele>1291.0</ele><time>2026-04-18T09:29:47Z</time></trkpt><trkpt lat="43.69790688875081" lon="11.620780517512223"><ele>1291.0</ele><time>2026-04-18T09:29:48Z</time></trkpt><trkpt lat="43.697857566628166" lon="11.62089355513446"><ele>1291.0</ele><time>2026-04-18T09:29:49Z</time></trkpt><trkpt lat="43.69779161427034" lon="11.620992390624917"><ele>1291.0</ele><time>2026-04-18T09:29:50Z</time></trkpt><trkpt lat="43.69772263030268" lon="11.621049968878976"><ele>1292.8</ele><time>2026-04-18T09:29:51Z</time></trkpt><trkpt lat="43.69763557222584" lon="11.621085825596332"><ele>1294.6</ele><time>2026-04-18T09:29:52Z</time></trkpt><trkpt lat="43.69754263067979" lon="11.621099092152228"><ele>1296.4</ele><time>2026-04-18T09:29:53Z</time></trkpt><trkpt lat="43.697450688769486" lon="11.621082940250734"><ele>1298.2</ele><time>2026-04-18T09:29:54Z</time></trkpt><trkpt lat="43.69737090662281" lon="11.621009942143512"><ele>1300.0</ele><time>2026-04-18T09:29:55Z</time></trkpt><trkpt lat="43.6972899462617" lon="11.620929641409397"><ele>1300.0</ele><time>2026-04-18T09:29:56Z</time></trkpt><trkpt lat="43.69722469484692" lon="11.620828752668213"><ele>1300.0</ele><time>2026-04-18T09:29:57Z</time></trkpt><trkpt lat="43.69716559664564" lon="11.620697663271953"><ele>1300.0</ele><time>2026-04-18T09:29:58Z</time></trkpt><trkpt lat="43.6971099687152" lon="11.620562495179"><ele>1300.0</ele><time>2026-04-18T09:29:58.999Z</time></trkpt><trkpt lat="43.697042038959665" lon="11.62040898109914"><ele>1298.75</ele><time>2026-04-18T09:29:59.999Z</time></trkpt><trkpt lat="43.696973747708775" lon="11.62025881808774"><ele>1297.5</ele><time>2026-04-18T09:30:00.999Z</time></trkpt><trkpt lat="43.696917461823986" lon="11.620120241407342"><ele>1296.25</ele><time>2026-04-18T09:30:01.999Z</time></trkpt><trkpt lat="43.6968677320115" lon="11.61998324705483"><ele>1295.0</ele><time>2026-04-18T09:30:02.999Z</time></trkpt><trkpt lat="43.696813135700765" lon="11.619860731751274"><ele>1295.0</ele><time>2026-04-18T09:30:03.999Z</time></trkpt><trkpt lat="43.69673830769032" lon="11.619770601188222"><ele>1295.0</ele><time>2026-04-18T09:30:04.999Z</time></trkpt><trkpt lat="43.69667821399563" lon="11.61968892522392"><ele>1295.0</ele><time>2026-04-18T09:30:05.999Z</time></trkpt><trkpt lat="43.696594567258344" lon="11.619609212576009"><ele>1295.0</ele><time>2026-04-18T09:30:06.999Z</time></trkpt><trkpt lat="43.696481256419005" lon="11.61956836773614"><ele>1295.0</ele><time>2026-04-18T09:30:07.999Z</time></trkpt><trkpt lat="43.69634211978127" lon="11.619554093462128"><ele>1295.0</ele><time>2026-04-18T09:30:08.999Z</time></trkpt><trkpt lat="43.696183761771024" lon="11.619580709060186"><ele>1295.0</ele><time>2026-04-18T09:30:09.999Z</time></trkpt><trkpt lat="43.69603513890039" lon="11.619621894485594"><ele>1295.0</ele><time>2026-04-18T09:30:10.999Z</time></trkpt><trkpt lat="43.69591118284299" lon="11.619636934583875"><ele>1295.0</ele><time>2026-04-18T09:30:11.999Z</time></trkpt><trkpt lat="43.695819964688575" lon="11.619599813486131"><ele>1296.5</ele><time>2026-04-18T09:30:12.999Z</time></trkpt><trkpt lat="43.695737209989396" lon="11.619577043223787"><ele>1298.0</ele><time>2026-04-18T09:30:13.999Z</time></trkpt><trkpt lat="43.69566896264857" lon="11.619537131475752"><ele>1299.5</ele><time>2026-04-18T09:30:14.999Z</time></trkpt><trkpt lat="43.6956010403388" lon="11.619476662477124"><ele>1301.0</ele><time>2026-04-18T09:30:15.999Z</time></trkpt><trkpt lat="43.695533240912546" lon="11.619380389344702"><ele>1302.5</ele><time>2026-04-18T09:30:16.999Z</time></trkpt><trkpt lat="43.69546060059713" lon="11.61927165565508"><ele>1304.0</ele><time>2026-04-18T09:30:17.999Z</time></trkpt><trkpt lat="43.69539131732048" lon="11.619186442325669"><ele>1304.0</ele><time>2026-04-18T09:30:18.999Z</time></trkpt><trkpt lat="43.6953378566443" lon="11.619070284607018"><ele>1304.0</ele><time>2026-04-18T09:30:19.999Z</time></trkpt><trkpt lat="43.69525983944373" lon="11.61896829696004"><ele>1304.0</ele><time>2026-04-18T09:30:20.999Z</time></trkpt><trkpt lat="43.695173378254935" lon="11.61885583868943"><ele>1304.0</ele><time>2026-04-18T09:30:21.999Z</time></trkpt><trkpt lat="43.69509537708286" lon="11.618762139818958"><ele>1304.0</ele><time>2026-04-18T09:30:22.999Z</time></trkpt><trkpt lat="43.69501425612638" lon="11.618652357795899"><ele>1303.2</ele><time>2026-04-18T09:30:23.999Z</time></trkpt><trkpt lat="43.69493314548218" lon="11.618567768702901"><ele>1302.4</ele><time>2026-04-18T09:30:24.999Z</time></trkpt><trkpt lat="43.69487405488601" lon="11.618461937074684"><ele>1301.6</ele><time>2026-04-18T09:30:25.999Z</time></trkpt><trkpt lat="43.694807617349404" lon="11.618377127108296"><ele>1300.8</ele><time>2026-04-18T09:30:26.999Z</time></trkpt><trkpt lat="43.69473550247701" lon="11.61829406038168"><ele>1300.0</ele><time>2026-04-18T09:30:27.999Z</time></trkpt><trkpt lat="43.69466760546342" lon="11.618219551807318"><ele>1300.0</ele><time>2026-04-18T09:30:28.999Z</time></trkpt><trkpt lat="43.69458576010836" lon="11.618164615169734"><ele>1300.0</ele><time>2026-04-18T09:30:29.999Z</time></trkpt><trkpt lat="43.69450697139295" lon="11.61807495693027"><ele>1300.0</ele><time>2026-04-18T09:30:30.999Z</time></trkpt><trkpt lat="43.69443119195737" lon="11.618026392951256"><ele>1300.0</ele><time>2026-04-18T09:30:31.999Z</time></trkpt><trkpt lat="43.69431279434581" lon="11.617990845191688"><ele>1300.0</ele><time>2026-04-18T09:30:32.999Z</time></trkpt><trkpt lat="43.694173917961415" lon="11.618015821299773"><ele>1293.5</ele><time>2026-04-18T09:30:33.999Z</time></trkpt><trkpt lat="43.69406818134974" lon="11.618071782118331"><ele>1287.0</ele><time>2026-04-18T09:30:34.999Z</time></trkpt><trkpt lat="43.69398300872893" lon="11.61815863006247"><ele>1280.5</ele><time>2026-04-18T09:30:35.999Z</time></trkpt><trkpt lat="43.6938851790685" lon="11.618242197120255"><ele>1274.0</ele><time>2026-04-18T09:30:36.999Z</time></trkpt><trkpt lat="43.693767146903234" lon="11.618317001099909"><ele>1274.0</ele><time>2026-04-18T09:30:37.999Z</time></trkpt><trkpt lat="43.69364973381751" lon="11.618406626578686"><ele>1274.0</ele><time>2026-04-18T09:30:38.999Z</time></trkpt><trkpt lat="43.693545358554225" lon="11.618486299843244"><ele>1274.0</ele><time>2026-04-18T09:30:39.999Z</time></trkpt><trkpt lat="43.6934492135" lon="11.618559690688606"><ele>1274.0</ele><time>2026-04-18T09:30:40.999Z</time></trkpt><trkpt lat="43.693346834260545" lon="11.618637840324329"><ele>1270.6000000000001</ele><time>2026-04-18T09:30:41.999Z</time></trkpt><trkpt lat="43.693244542150225" lon="11.61871617324186"><ele>1267.2</ele><time>2026-04-18T09:30:42.999Z</time></trkpt><trkpt lat="43.69315605500713" lon="11.618783992484346"><ele>1263.8000000000002</ele><time>2026-04-18T09:30:43.999Z</time></trkpt><trkpt lat="43.69306958137982" lon="11.618847670737546"><ele>1260.4</ele><time>2026-04-18T09:30:44.999Z</time></trkpt><trkpt lat="43.692972750459994" lon="11.618917548705811"><ele>1257.0</ele><time>2026-04-18T09:30:45.999Z</time></trkpt><trkpt lat="43.692874283477515" lon="11.618986146765543"><ele>1257.0</ele><time>2026-04-18T09:30:46.999Z</time></trkpt><trkpt lat="43.69279107492007" lon="11.619043603369228"><ele>1257.0</ele><time>2026-04-18T09:30:47.999Z</time></trkpt><trkpt lat="43.69270510379416" lon="11.619126634152664"><ele>1257.0</ele><time>2026-04-18T09:30:48.999Z</time></trkpt><trkpt lat="43.69260184123144" lon="11.619188338170158"><ele>1257.0</ele><time>2026-04-18T09:30:49.999Z</time></trkpt><trkpt lat="43.69249700024038" lon="11.619246665802821"><ele>1257.0</ele><time>2026-04-18T09:30:50.999Z</time></trkpt><trkpt lat="43.69240832255592" lon="11.619307898913052"><ele>1258.8</ele><time>2026-04-18T09:30:51.999Z</time></trkpt><trkpt lat="43.69232564354059" lon="11.61938518182268"><ele>1260.6</ele><time>2026-04-18T09:30:52.999Z</time></trkpt><trkpt lat="43.69221872247138" lon="11.61943689627217"><ele>1262.3999999999999</ele><time>2026-04-18T09:30:53.999Z</time></trkpt><trkpt lat="43.692122048619396" lon="11.61953044289187"><ele>1264.2</ele><time>2026-04-18T09:30:54.999Z</time></trkpt><trkpt lat="43.69201903333088" lon="11.619603553588881"><ele>1266.0</ele><time>2026-04-18T09:30:55.999Z</time></trkpt><trkpt lat="43.69192938058539" lon="11.619702536891575"><ele>1263.2</ele><time>2026-04-18T09:30:56.999Z</time></trkpt><trkpt lat="43.69184800046542" lon="11.619817273315176"><ele>1260.3999999999999</ele><time>2026-04-18T09:30:57.999Z</time></trkpt><trkpt lat="43.69176843716313" lon="11.619902585432271"><ele>1257.6</ele><time>2026-04-18T09:30:58.999Z</time></trkpt><trkpt lat="43.69168912184552" lon="11.620015765419383"><ele>1254.8</ele><time>2026-04-18T09:30:59.999Z</time></trkpt><trkpt lat="43.69159834844384" lon="11.620096450055962"><ele>1252.0</ele><time>2026-04-18T09:31:00.999Z</time></trkpt><trkpt lat="43.6915262320166" lon="11.620190241657484"><ele>1252.0</ele><time>2026-04-18T09:31:01.999Z</time></trkpt><trkpt lat="43.691454440473024" lon="11.620307959630452"><ele>1252.0</ele><time>2026-04-18T09:31:02.999Z</time></trkpt><trkpt lat="43.691368057932046" lon="11.620410954039567"><ele>1252.0</ele><time>2026-04-18T09:31:03.999Z</time></trkpt><trkpt lat="43.69128894447337" lon="11.620538319831077"><ele>1252.0</ele><time>2026-04-18T09:31:04.999Z</time></trkpt><trkpt lat="43.69121766606097" lon="11.620683158088966"><ele>1251.2</ele><time>2026-04-18T09:31:05.999Z</time></trkpt><trkpt lat="43.69114126388189" lon="11.620805557919862"><ele>1250.4</ele><time>2026-04-18T09:31:06.999Z</time></trkpt><trkpt lat="43.691081629881786" lon="11.620935786184818"><ele>1249.6</ele><time>2026-04-18T09:31:08Z</time></trkpt><trkpt lat="43.69102670953757" lon="11.621052584660355"><ele>1248.8</ele><time>2026-04-18T09:31:09Z</time></trkpt><trkpt lat="43.69097862524039" lon="11.6211767782817"><ele>1248.0</ele><time>2026-04-18T09:31:10Z</time></trkpt><trkpt lat="43.69093007078603" lon="11.621292130781233"><ele>1245.4</ele><time>2026-04-18T09:31:11Z</time></trkpt><trkpt lat="43.69090236651232" lon="11.621380068198286"><ele>1242.8</ele><time>2026-04-18T09:31:12Z</time></trkpt><trkpt lat="43.69088842223954" lon="11.621478163462628"><ele>1240.2</ele><time>2026-04-18T09:31:46Z</time></trkpt><trkpt lat="43.69084818399526" lon="11.62159495929387"><ele>1237.6</ele><time>2026-04-18T09:31:55Z</time></trkpt><trkpt lat="43.69079503682555" lon="11.62171074090438"><ele>1235.0</ele><time>2026-04-18T09:32:22.999Z</time></trkpt><trkpt lat="43.690714925614785" lon="11.621830770619432"><ele>1235.0</ele><time>2026-04-18T09:32:24.999Z</time></trkpt><trkpt lat="43.690658080513195" lon="11.62187743287387"><ele>1235.0</ele><time>2026-04-18T09:32:25.999Z</time></trkpt><trkpt lat="43.6905910728893" lon="11.621941297627956"><ele>1235.0</ele><time>2026-04-18T09:32:26.999Z</time></trkpt><trkpt lat="43.69051227325516" lon="11.621968086834316"><ele>1235.0</ele><time>2026-04-18T09:32:27.999Z</time></trkpt><trkpt lat="43.690440804799486" lon="11.621990111857778"><ele>1235.0</ele><time>2026-04-18T09:32:28.999Z</time></trkpt><trkpt lat="43.6903658181124" lon="11.622015529772133"><ele>1235.0</ele><time>2026-04-18T09:32:29.999Z</time></trkpt><trkpt lat="43.69029277979136" lon="11.622049551748677"><ele>1232.8333333333335</ele><time>2026-04-18T09:32:30.999Z</time></trkpt><trkpt lat="43.69021762349171" lon="11.622094696484247"><ele>1230.6666666666667</ele><time>2026-04-18T09:32:31.999Z</time></trkpt><trkpt lat="43.690158539932426" lon="11.622155202414937"><ele>1228.5</ele><time>2026-04-18T09:32:32.999Z</time></trkpt><trkpt lat="43.69007065908242" lon="11.622194953646341"><ele>1226.3333333333333</ele><time>2026-04-18T09:32:33.999Z</time></trkpt><trkpt lat="43.689987821347245" lon="11.622248369043394"><ele>1224.1666666666665</ele><time>2026-04-18T09:32:34.999Z</time></trkpt><trkpt lat="43.689916500607204" lon="11.622267627683993"><ele>1222.0</ele><time>2026-04-18T09:32:35.999Z</time></trkpt><trkpt lat="43.689843693773874" lon="11.622280324610362"><ele>1222.0</ele><time>2026-04-18T09:32:36.999Z</time></trkpt><trkpt lat="43.68971385195082" lon="11.622268013923682"><ele>1222.0</ele><time>2026-04-18T09:32:38.999Z</time></trkpt><trkpt lat="43.68964798971633" lon="11.622234058088456"><ele>1222.0</ele><time>2026-04-18T09:32:39.999Z</time></trkpt><trkpt lat="43.68957150269239" lon="11.622163648587032"><ele>1222.0</ele><time>2026-04-18T09:32:40.999Z</time></trkpt><trkpt lat="43.689500215286095" lon="11.622081203500334"><ele>1222.0</ele><time>2026-04-18T09:32:41.999Z</time></trkpt><trkpt lat="43.68945255964025" lon="11.621996155069736"><ele>1223.4</ele><time>2026-04-18T09:32:42.999Z</time></trkpt><trkpt lat="43.68939988518131" lon="11.621916387747598"><ele>1224.8000000000002</ele><time>2026-04-18T09:32:43.999Z</time></trkpt><trkpt lat="43.689324877589925" lon="11.621859169859887"><ele>1226.2</ele><time>2026-04-18T09:32:44.999Z</time></trkpt><trkpt lat="43.689230654556766" lon="11.621777512178285"><ele>1227.6000000000001</ele><time>2026-04-18T09:32:45.999Z</time></trkpt><trkpt lat="43.68911040095893" lon="11.621776987799363"><ele>1229.0</ele><time>2026-04-18T09:32:46.999Z</time></trkpt><trkpt lat="43.68897881614912" lon="11.62176809365744"><ele>1229.0</ele><time>2026-04-18T09:32:47.999Z</time></trkpt><trkpt lat="43.688811866375694" lon="11.621806056605898"><ele>1229.0</ele><time>2026-04-18T09:32:48.999Z</time></trkpt><trkpt lat="43.68864176091344" lon="11.621796620797381"><ele>1229.0</ele><time>2026-04-18T09:32:49.999Z</time></trkpt><trkpt lat="43.688488984574086" lon="11.62180927462987"><ele>1228.5</ele><time>2026-04-18T09:32:50.999Z</time></trkpt><trkpt lat="43.68833504229045" lon="11.62182213169635"><ele>1228.0</ele><time>2026-04-18T09:32:51.999Z</time></trkpt><trkpt lat="43.68820607338913" lon="11.621832903021076"><ele>1227.5</ele><time>2026-04-18T09:32:52.999Z</time></trkpt><trkpt lat="43.68807043264733" lon="11.621844231578812"><ele>1227.0</ele><time>2026-04-18T09:32:53.999Z</time></trkpt><trkpt lat="43.68793250652611" lon="11.62185585183608"><ele>1227.0</ele><time>2026-04-18T09:32:54.999Z</time></trkpt><trkpt lat="43.68781033822582" lon="11.621866819807268"><ele>1227.0</ele><time>2026-04-18T09:32:55.999Z</time></trkpt><trkpt lat="43.687702965138115" lon="11.621876457874864"><ele>1227.0</ele><time>2026-04-18T09:32:56.999Z</time></trkpt><trkpt lat="43.68758031552305" lon="11.621892186418654"><ele>1227.0</ele><time>2026-04-18T09:32:57.999Z</time></trkpt><trkpt lat="43.68749653139524" lon="11.621903725539903"><ele>1227.0</ele><time>2026-04-18T09:32:58.999Z</time></trkpt><trkpt lat="43.68739085067024" lon="11.621912650271323"><ele>1226.8</ele><time>2026-04-18T09:32:59.999Z</time></trkpt><trkpt lat="43.68729223930221" lon="11.621934061100566"><ele>1226.6</ele><time>2026-04-18T09:33:00.999Z</time></trkpt><trkpt lat="43.6871910582101" lon="11.621928620810555"><ele>1226.3999999999999</ele><time>2026-04-18T09:33:01.999Z</time></trkpt><trkpt lat="43.68710069712907" lon="11.621899947123401"><ele>1226.2</ele><time>2026-04-18T09:33:02.999Z</time></trkpt><trkpt lat="43.68700154497274" lon="11.621844002097415"><ele>1226.0</ele><time>2026-04-18T09:33:03.999Z</time></trkpt><trkpt lat="43.68690071164319" lon="11.621770561903764"><ele>1223.25</ele><time>2026-04-18T09:33:04.999Z</time></trkpt><trkpt lat="43.686801407929785" lon="11.621663279547896"><ele>1220.5</ele><time>2026-04-18T09:33:05.999Z</time></trkpt><trkpt lat="43.68671062010563" lon="11.621583059729707"><ele>1217.75</ele><time>2026-04-18T09:33:06.999Z</time></trkpt><trkpt lat="43.686620587631346" lon="11.621489468324098"><ele>1215.0</ele><time>2026-04-18T09:33:07.999Z</time></trkpt><trkpt lat="43.68652520782826" lon="11.62139352373919"><ele>1215.0</ele><time>2026-04-18T09:33:08.999Z</time></trkpt><trkpt lat="43.68643513843555" lon="11.621310959423917"><ele>1215.0</ele><time>2026-04-18T09:33:09.999Z</time></trkpt><trkpt lat="43.68636675066299" lon="11.621270678553282"><ele>1215.0</ele><time>2026-04-18T09:33:10.999Z</time></trkpt><trkpt lat="43.68627164049945" lon="11.621239695515785"><ele>1215.0</ele><time>2026-04-18T09:33:11.999Z</time></trkpt><trkpt lat="43.68615456250789" lon="11.62125114617504"><ele>1215.0</ele><time>2026-04-18T09:33:12.999Z</time></trkpt><trkpt lat="43.68601697460718" lon="11.621270763401505"><ele>1213.6666666666667</ele><time>2026-04-18T09:33:14Z</time></trkpt><trkpt lat="43.68588152769851" lon="11.621392018413546"><ele>1212.3333333333335</ele><time>2026-04-18T09:33:15Z</time></trkpt><trkpt lat="43.685750959272966" lon="11.621522237318924"><ele>1211.0</ele><time>2026-04-18T09:33:16Z</time></trkpt><trkpt lat="43.68560005393171" lon="11.621655073097207"><ele>1211.0</ele><time>2026-04-18T09:33:17Z</time></trkpt><trkpt lat="43.68548115790672" lon="11.621764346347517"><ele>1211.0</ele><time>2026-04-18T09:33:18Z</time></trkpt><trkpt lat="43.68538384206608" lon="11.621847626233306"><ele>1211.0</ele><time>2026-04-18T09:33:19Z</time></trkpt><trkpt lat="43.68529622248439" lon="11.621920314297101"><ele>1211.0</ele><time>2026-04-18T09:33:20Z</time></trkpt><trkpt lat="43.68521751570418" lon="11.621981735346491"><ele>1209.25</ele><time>2026-04-18T09:33:21Z</time></trkpt><trkpt lat="43.68511559175502" lon="11.6220577272663"><ele>1207.5</ele><time>2026-04-18T09:33:22Z</time></trkpt><trkpt lat="43.68501533055127" lon="11.622135655431391"><ele>1205.75</ele><time>2026-04-18T09:33:23Z</time></trkpt><trkpt lat="43.684886986183585" lon="11.6221925794"><ele>1204.0</ele><time>2026-04-18T09:33:24Z</time></trkpt><trkpt lat="43.6847781498129" lon="11.622225029206966"><ele>1204.0</ele><time>2026-04-18T09:33:25Z</time></trkpt><trkpt lat="43.68467353603592" lon="11.622198205233644"><ele>1204.0</ele><time>2026-04-18T09:33:26Z</time></trkpt><trkpt lat="43.6845436474912" lon="11.622180050704392"><ele>1204.0</ele><time>2026-04-18T09:33:27Z</time></trkpt><trkpt lat="43.68438153247945" lon="11.62215406438843"><ele>1204.0</ele><time>2026-04-18T09:33:28Z</time></trkpt><trkpt lat="43.68425764868239" lon="11.622116505664055"><ele>1203.5</ele><time>2026-04-18T09:33:29Z</time></trkpt><trkpt lat="43.68414450770208" lon="11.622092184990514"><ele>1203.0</ele><time>2026-04-18T09:33:30Z</time></trkpt><trkpt lat="43.683969197134296" lon="11.62209262642388"><ele>1202.5</ele><time>2026-04-18T09:33:31Z</time></trkpt><trkpt lat="43.6838152195839" lon="11.622072108545636"><ele>1202.0</ele><time>2026-04-18T09:33:32Z</time></trkpt><trkpt lat="43.68365263064576" lon="11.622123043888694"><ele>1203.0</ele><time>2026-04-18T09:33:33Z</time></trkpt><trkpt lat="43.683466249521565" lon="11.622181886899806"><ele>1204.0</ele><time>2026-04-18T09:33:34Z</time></trkpt><trkpt lat="43.68331168311031" lon="11.6222315665441"><ele>1205.0</ele><time>2026-04-18T09:33:35Z</time></trkpt><trkpt lat="43.68314434010234" lon="11.622273819376623"><ele>1205.0</ele><time>2026-04-18T09:33:36Z</time></trkpt><trkpt lat="43.68300143970713" lon="11.622326291766395"><ele>1205.0</ele><time>2026-04-18T09:33:37Z</time></trkpt><trkpt lat="43.68287066546588" lon="11.622395052007683"><ele>1205.0</ele><time>2026-04-18T09:33:38Z</time></trkpt><trkpt lat="43.682711323050036" lon="11.62244228112551"><ele>1208.0</ele><time>2026-04-18T09:33:39Z</time></trkpt><trkpt lat="43.682495073681594" lon="11.62249809192079"><ele>1211.0</ele><time>2026-04-18T09:33:40Z</time></trkpt><trkpt lat="43.682266555133886" lon="11.622555761837145"><ele>1211.0</ele><time>2026-04-18T09:33:41Z</time></trkpt><trkpt lat="43.682350611296215" lon="11.622545244730393"><ele>1211.0</ele><time>2026-04-18T09:33:42Z</time></trkpt><trkpt lat="43.6822366849814" lon="11.622558705096665"><ele>1211.0</ele><time>2026-04-18T09:33:43Z</time></trkpt><trkpt lat="43.68210845315812" lon="11.622542622312398"><ele>1211.0</ele><time>2026-04-18T09:33:44Z</time></trkpt><trkpt lat="43.681972529394294" lon="11.622510504942774"><ele>1212.0</ele><time>2026-04-18T09:33:45Z</time></trkpt><trkpt lat="43.68182910078093" lon="11.622487546063585"><ele>1213.0</ele><time>2026-04-18T09:33:46Z</time></trkpt><trkpt lat="43.68169478683597" lon="11.6224618762479"><ele>1214.0</ele><time>2026-04-18T09:33:47Z</time></trkpt><trkpt lat="43.68155380920587" lon="11.622457478567203"><ele>1215.0</ele><time>2026-04-18T09:33:48Z</time></trkpt><trkpt lat="43.68141011278601" lon="11.622503906328442"><ele>1215.0</ele><time>2026-04-18T09:33:49Z</time></trkpt><trkpt lat="43.68126891725156" lon="11.622613289195503"><ele>1215.0</ele><time>2026-04-18T09:33:50Z</time></trkpt><trkpt lat="43.68110788784011" lon="11.622696861442012"><ele>1215.0</ele><time>2026-04-18T09:33:51Z</time></trkpt><trkpt lat="43.68098069319977" lon="11.622793514113376"><ele>1214.0</ele><time>2026-04-18T09:33:52Z</time></trkpt><trkpt lat="43.680878452362364" lon="11.62285838730063"><ele>1213.0</ele><time>2026-04-18T09:33:53Z</time></trkpt><trkpt lat="43.68079755372678" lon="11.622922733647155"><ele>1212.0</ele><time>2026-04-18T09:33:54Z</time></trkpt><trkpt lat="43.68068917251424" lon="11.62298441463788"><ele>1211.0</ele><time>2026-04-18T09:33:55Z</time></trkpt><trkpt lat="43.68058056490381" lon="11.623048648450428"><ele>1210.0</ele><time>2026-04-18T09:33:56Z</time></trkpt><trkpt lat="43.68047383296832" lon="11.623101754563558"><ele>1210.0</ele><time>2026-04-18T09:33:57Z</time></trkpt><trkpt lat="43.680351798908795" lon="11.62316701444802"><ele>1210.0</ele><time>2026-04-18T09:33:58Z</time></trkpt><trkpt lat="43.68023316635121" lon="11.62322281396623"><ele>1210.0</ele><time>2026-04-18T09:33:59Z</time></trkpt><trkpt lat="43.68013558001945" lon="11.623270562882515"><ele>1210.0</ele><time>2026-04-18T09:34:00Z</time></trkpt><trkpt lat="43.68005013433751" lon="11.623314548396632"><ele>1211.4</ele><time>2026-04-18T09:34:01Z</time></trkpt><trkpt lat="43.67997371450682" lon="11.623363270603635"><ele>1212.8</ele><time>2026-04-18T09:34:02Z</time></trkpt><trkpt lat="43.6799022614121" lon="11.623445532332799"><ele>1214.2</ele><time>2026-04-18T09:34:03Z</time></trkpt><trkpt lat="43.67983274538301" lon="11.623554543475985"><ele>1215.6</ele><time>2026-04-18T09:34:04Z</time></trkpt><trkpt lat="43.67977081951197" lon="11.623691397394435"><ele>1217.0</ele><time>2026-04-18T09:34:05Z</time></trkpt><trkpt lat="43.67974092607232" lon="11.623891785123769"><ele>1217.0</ele><time>2026-04-18T09:34:05.999Z</time></trkpt><trkpt lat="43.679715470563785" lon="11.624084395881855"><ele>1217.0</ele><time>2026-04-18T09:34:06.999Z</time></trkpt><trkpt lat="43.67970553750726" lon="11.624311074672548"><ele>1217.0</ele><time>2026-04-18T09:34:07.999Z</time></trkpt><trkpt lat="43.67969544391206" lon="11.624540487921964"><ele>1216.75</ele><time>2026-04-18T09:34:08.999Z</time></trkpt><trkpt lat="43.679693961878435" lon="11.624759400580894"><ele>1216.5</ele><time>2026-04-18T09:34:09.999Z</time></trkpt><trkpt lat="43.67968719493203" lon="11.624914508805338"><ele>1216.25</ele><time>2026-04-18T09:34:10.999Z</time></trkpt><trkpt lat="43.67966715241967" lon="11.62503319575091"><ele>1216.0</ele><time>2026-04-18T09:34:11.999Z</time></trkpt><trkpt lat="43.67967083324416" lon="11.625235125308429"><ele>1218.6666666666665</ele><time>2026-04-18T09:34:12.999Z</time></trkpt><trkpt lat="43.67969955320357" lon="11.625494854013185"><ele>1221.3333333333333</ele><time>2026-04-18T09:34:13.999Z</time></trkpt><trkpt lat="43.67974059284382" lon="11.625725721329264"><ele>1224.0</ele><time>2026-04-18T09:34:14.999Z</time></trkpt><trkpt lat="43.67979810999025" lon="11.625983293811926"><ele>1227.0</ele><time>2026-04-18T09:34:15.999Z</time></trkpt><trkpt lat="43.679850790478206" lon="11.626204775107484"><ele>1230.0</ele><time>2026-04-18T09:34:16.999Z</time></trkpt><trkpt lat="43.67990273621779" lon="11.6264005903789"><ele>1233.0</ele><time>2026-04-18T09:34:17.999Z</time></trkpt><trkpt lat="43.67995496447239" lon="11.626645670649468"><ele>1233.0</ele><time>2026-04-18T09:34:18.999Z</time></trkpt><trkpt lat="43.67999319384148" lon="11.626805214826126"><ele>1233.0</ele><time>2026-04-18T09:34:19.999Z</time></trkpt><trkpt lat="43.680038482565536" lon="11.626971370024625"><ele>1233.0</ele><time>2026-04-18T09:34:20.999Z</time></trkpt><trkpt lat="43.68006279461477" lon="11.627149457149766"><ele>1233.0</ele><time>2026-04-18T09:34:21.999Z</time></trkpt><trkpt lat="43.68007875590958" lon="11.62729002274458"><ele>1233.8</ele><time>2026-04-18T09:34:22.999Z</time></trkpt><trkpt lat="43.68006379987196" lon="11.627423267647552"><ele>1234.6</ele><time>2026-04-18T09:34:23.999Z</time></trkpt><trkpt lat="43.68002878147939" lon="11.627569613382624"><ele>1235.4</ele><time>2026-04-18T09:34:24.999Z</time></trkpt><trkpt lat="43.67996558533553" lon="11.627694843556728"><ele>1236.2</ele><time>2026-04-18T09:34:25.999Z</time></trkpt><trkpt lat="43.67987660609146" lon="11.62777628462602"><ele>1237.0</ele><time>2026-04-18T09:34:26.999Z</time></trkpt><trkpt lat="43.679787316449655" lon="11.627865680011109"><ele>1238.75</ele><time>2026-04-18T09:34:27.999Z</time></trkpt><trkpt lat="43.67966737441746" lon="11.627959054868676"><ele>1240.5</ele><time>2026-04-18T09:34:28.999Z</time></trkpt><trkpt lat="43.679541724622204" lon="11.628018095245885"><ele>1242.25</ele><time>2026-04-18T09:34:29.999Z</time></trkpt><trkpt lat="43.67943272560493" lon="11.628032870389736"><ele>1244.0</ele><time>2026-04-18T09:34:30.999Z</time></trkpt><trkpt lat="43.679301479798546" lon="11.628019290418974"><ele>1244.0</ele><time>2026-04-18T09:34:31.999Z</time></trkpt><trkpt lat="43.67916911494451" lon="11.627989539049068"><ele>1244.0</ele><time>2026-04-18T09:34:32.999Z</time></trkpt><trkpt lat="43.679039692226894" lon="11.627969953004447"><ele>1244.0</ele><time>2026-04-18T09:34:33.999Z</time></trkpt><trkpt lat="43.67892037563075" lon="11.627956173406115"><ele>1244.0</ele><time>2026-04-18T09:34:34.999Z</time></trkpt><trkpt lat="43.67876288295708" lon="11.62796086645423"><ele>1244.0</ele><time>2026-04-18T09:34:35.999Z</time></trkpt><trkpt lat="43.6786505629858" lon="11.62800232324437"><ele>1244.0</ele><time>2026-04-18T09:34:36.999Z</time></trkpt><trkpt lat="43.67852640630113" lon="11.628072093125226"><ele>1244.0</ele><time>2026-04-18T09:34:37.999Z</time></trkpt><trkpt lat="43.67838653722729" lon="11.628170202467839"><ele>1244.0</ele><time>2026-04-18T09:34:38.999Z</time></trkpt><trkpt lat="43.678273549450296" lon="11.6282790014889"><ele>1246.4</ele><time>2026-04-18T09:34:39.999Z</time></trkpt><trkpt lat="43.67818069176599" lon="11.628362247684052"><ele>1248.8000000000002</ele><time>2026-04-18T09:34:40.999Z</time></trkpt><trkpt lat="43.67809453916898" lon="11.628414465289685"><ele>1251.1999999999998</ele><time>2026-04-18T09:34:41.999Z</time></trkpt><trkpt lat="43.678015058835754" lon="11.628427720719571"><ele>1253.6</ele><time>2026-04-18T09:34:42.999Z</time></trkpt><trkpt lat="43.67790252804207" lon="11.628431966668352"><ele>1256.0</ele><time>2026-04-18T09:34:43.999Z</time></trkpt><trkpt lat="43.6777763749379" lon="11.62840653637332"><ele>1258.25</ele><time>2026-04-18T09:34:44.999Z</time></trkpt><trkpt lat="43.6776461393415" lon="11.62836526346395"><ele>1260.5</ele><time>2026-04-18T09:34:45.999Z</time></trkpt><trkpt lat="43.677500114925046" lon="11.62833149361459"><ele>1262.75</ele><time>2026-04-18T09:34:46.999Z</time></trkpt><trkpt lat="43.6773514816171" lon="11.628338629675676"><ele>1265.0</ele><time>2026-04-18T09:34:47.999Z</time></trkpt><trkpt lat="43.677225063826974" lon="11.628379883268623"><ele>1265.0</ele><time>2026-04-18T09:34:48.999Z</time></trkpt><trkpt lat="43.67711479951447" lon="11.628405553887324"><ele>1265.0</ele><time>2026-04-18T09:34:49.999Z</time></trkpt><trkpt lat="43.67702913503059" lon="11.628430864785507"><ele>1265.0</ele><time>2026-04-18T09:34:50.999Z</time></trkpt><trkpt lat="43.67692035457528" lon="11.628453347840876"><ele>1265.0</ele><time>2026-04-18T09:34:51.999Z</time></trkpt><trkpt lat="43.676810473868606" lon="11.628483227803907"><ele>1265.0</ele><time>2026-04-18T09:34:52.999Z</time></trkpt><trkpt lat="43.67671328920175" lon="11.628492640947767"><ele>1264.5</ele><time>2026-04-18T09:34:53.999Z</time></trkpt><trkpt lat="43.676631206050686" lon="11.628514663139828"><ele>1264.0</ele><time>2026-04-18T09:34:54.999Z</time></trkpt><trkpt lat="43.67656102079792" lon="11.628534162485035"><ele>1263.5</ele><time>2026-04-18T09:34:55.999Z</time></trkpt><trkpt lat="43.6764853708111" lon="11.628558212059659"><ele>1263.0</ele><time>2026-04-18T09:34:56.999Z</time></trkpt><trkpt lat="43.67638512291541" lon="11.628595780887695"><ele>1262.5</ele><time>2026-04-18T09:34:57.999Z</time></trkpt><trkpt lat="43.67629328969376" lon="11.628625290992542"><ele>1262.0</ele><time>2026-04-18T09:34:58.999Z</time></trkpt><trkpt lat="43.67617980975732" lon="11.628658714542343"><ele>1264.6</ele><time>2026-04-18T09:34:59.999Z</time></trkpt><trkpt lat="43.67605770785074" lon="11.62867252173785"><ele>1267.2</ele><time>2026-04-18T09:35:00.999Z</time></trkpt><trkpt lat="43.6759676566124" lon="11.628667117359647"><ele>1269.8</ele><time>2026-04-18T09:35:01.999Z</time></trkpt><trkpt lat="43.67587264985543" lon="11.628645466416407"><ele>1272.4</ele><time>2026-04-18T09:35:02.999Z</time></trkpt><trkpt lat="43.675740176584185" lon="11.62861902938759"><ele>1275.0</ele><time>2026-04-18T09:35:03.999Z</time></trkpt><trkpt lat="43.6755993573719" lon="11.62858950024466"><ele>1277.5</ele><time>2026-04-18T09:35:04.999Z</time></trkpt><trkpt lat="43.67545606842531" lon="11.6285788035024"><ele>1280.0</ele><time>2026-04-18T09:35:05.999Z</time></trkpt><trkpt lat="43.67533008419629" lon="11.628549824230252"><ele>1282.5</ele><time>2026-04-18T09:35:06.999Z</time></trkpt><trkpt lat="43.67520758918377" lon="11.628504607064695"><ele>1285.0</ele><time>2026-04-18T09:35:07.999Z</time></trkpt><trkpt lat="43.67508652968074" lon="11.628481482857039"><ele>1286.8</ele><time>2026-04-18T09:35:08.999Z</time></trkpt><trkpt lat="43.674967099509054" lon="11.62846037403379"><ele>1288.6</ele><time>2026-04-18T09:35:09.999Z</time></trkpt><trkpt lat="43.67486347365223" lon="11.62844205857054"><ele>1290.4</ele><time>2026-04-18T09:35:10.999Z</time></trkpt><trkpt lat="43.674753862574384" lon="11.628446978332764"><ele>1292.2</ele><time>2026-04-18T09:35:11.999Z</time></trkpt><trkpt lat="43.67465606295098" lon="11.628409607632262"><ele>1294.0</ele><time>2026-04-18T09:35:12.999Z</time></trkpt><trkpt lat="43.674547950602374" lon="11.628393273452563"><ele>1296.0</ele><time>2026-04-18T09:35:13.999Z</time></trkpt><trkpt lat="43.67443222303096" lon="11.628376018557578"><ele>1298.0</ele><time>2026-04-18T09:35:14.999Z</time></trkpt><trkpt lat="43.67432458662299" lon="11.628358966521326"><ele>1300.0</ele><time>2026-04-18T09:35:15.999Z</time></trkpt><trkpt lat="43.6742058091954" lon="11.628345262846597"><ele>1302.0</ele><time>2026-04-18T09:35:16.999Z</time></trkpt><trkpt lat="43.674081804847745" lon="11.628337672717"><ele>1302.0</ele><time>2026-04-18T09:35:17.999Z</time></trkpt><trkpt lat="43.67396616318316" lon="11.628305791648335"><ele>1302.0</ele><time>2026-04-18T09:35:18.999Z</time></trkpt><trkpt lat="43.67384970187802" lon="11.62831685667614"><ele>1302.0</ele><time>2026-04-18T09:35:20Z</time></trkpt><trkpt lat="43.673731081453" lon="11.628322259415059"><ele>1302.0</ele><time>2026-04-18T09:35:21Z</time></trkpt><trkpt lat="43.673630642672165" lon="11.628372124200045"><ele>1302.6</ele><time>2026-04-18T09:35:22Z</time></trkpt><trkpt lat="43.673545347678875" lon="11.628443593609425"><ele>1303.1999999999998</ele><time>2026-04-18T09:35:23Z</time></trkpt><trkpt lat="43.67346431159886" lon="11.628531726764074"><ele>1303.8</ele><time>2026-04-18T09:35:24Z</time></trkpt><trkpt lat="43.673382962280016" lon="11.628639395911842"><ele>1304.4</ele><time>2026-04-18T09:35:25Z</time></trkpt><trkpt lat="43.673294583170026" lon="11.628775026967679"><ele>1305.0</ele><time>2026-04-18T09:35:26Z</time></trkpt><trkpt lat="43.67321721183175" lon="11.628913952230935"><ele>1305.0</ele><time>2026-04-18T09:35:27Z</time></trkpt><trkpt lat="43.67316693062953" lon="11.62904992167232"><ele>1305.0</ele><time>2026-04-18T09:35:28Z</time></trkpt><trkpt lat="43.673091158050475" lon="11.629147635248888"><ele>1305.0</ele><time>2026-04-18T09:35:29Z</time></trkpt><trkpt lat="43.67305159898267" lon="11.629288222856708"><ele>1305.0</ele><time>2026-04-18T09:35:30Z</time></trkpt><trkpt lat="43.67300921933248" lon="11.629426182624634"><ele>1305.0</ele><time>2026-04-18T09:35:31Z</time></trkpt><trkpt lat="43.67298686463912" lon="11.62960512003756"><ele>1303.25</ele><time>2026-04-18T09:35:32Z</time></trkpt><trkpt lat="43.67296523337077" lon="11.62977613570765"><ele>1301.5</ele><time>2026-04-18T09:35:33Z</time></trkpt><trkpt lat="43.672962654511416" lon="11.629974772913423"><ele>1299.75</ele><time>2026-04-18T09:35:34Z</time></trkpt><trkpt lat="43.67297372624331" lon="11.630137210946948"><ele>1298.0</ele><time>2026-04-18T09:35:35Z</time></trkpt><trkpt lat="43.672996970482444" lon="11.630279274796465"><ele>1298.3333333333335</ele><time>2026-04-18T09:35:36Z</time></trkpt><trkpt lat="43.67302485395492" lon="11.630417409483005"><ele>1298.6666666666667</ele><time>2026-04-18T09:35:37Z</time></trkpt><trkpt lat="43.67305422659207" lon="11.630539896368514"><ele>1299.0</ele><time>2026-04-18T09:35:38Z</time></trkpt><trkpt lat="43.673058969224094" lon="11.630654972176513"><ele>1299.3333333333333</ele><time>2026-04-18T09:35:39Z</time></trkpt><trkpt lat="43.67304557975363" lon="11.630754011681042"><ele>1299.6666666666665</ele><time>2026-04-18T09:35:40Z</time></trkpt><trkpt lat="43.67302018832762" lon="11.630851703849455"><ele>1300.0</ele><time>2026-04-18T09:35:41Z</time></trkpt><trkpt lat="43.672982441383226" lon="11.63093556076249"><ele>1300.0</ele><time>2026-04-18T09:35:42Z</time></trkpt><trkpt lat="43.67293266272269" lon="11.631020545666605"><ele>1300.0</ele><time>2026-04-18T09:35:43Z</time></trkpt><trkpt lat="43.67285665315018" lon="11.631113177438827"><ele>1300.0</ele><time>2026-04-18T09:35:44Z</time></trkpt><trkpt lat="43.67275636647827" lon="11.631215574417949"><ele>1300.0</ele><time>2026-04-18T09:35:45Z</time></trkpt><trkpt lat="43.67263619212106" lon="11.631339434161973"><ele>1303.6</ele><time>2026-04-18T09:35:46Z</time></trkpt><trkpt lat="43.67252919953695" lon="11.631432864107593"><ele>1307.2</ele><time>2026-04-18T09:35:47Z</time></trkpt><trkpt lat="43.67243709432903" lon="11.631485246783049"><ele>1310.8000000000002</ele><time>2026-04-18T09:35:48Z</time></trkpt><trkpt lat="43.672354811408155" lon="11.631490668601751"><ele>1314.4</ele><time>2026-04-18T09:35:49Z</time></trkpt><trkpt lat="43.67227573679946" lon="11.631468617799907"><ele>1318.0</ele><time>2026-04-18T09:35:50Z</time></trkpt><trkpt lat="43.67220334855987" lon="11.63144129618745"><ele>1318.0</ele><time>2026-04-18T09:35:51Z</time></trkpt><trkpt lat="43.672123992017404" lon="11.631430456289008"><ele>1318.0</ele><time>2026-04-18T09:35:52Z</time></trkpt><trkpt lat="43.6720517310799" lon="11.631429763901885"><ele>1318.0</ele><time>2026-04-18T09:35:53Z</time></trkpt><trkpt lat="43.67195359082484" lon="11.631483173255399"><ele>1318.0</ele><time>2026-04-18T09:35:54Z</time></trkpt><trkpt lat="43.6718791631979" lon="11.63153494309852"><ele>1318.0</ele><time>2026-04-18T09:35:55Z</time></trkpt><trkpt lat="43.67181946867114" lon="11.631573937888614"><ele>1318.0</ele><time>2026-04-18T09:35:56Z</time></trkpt><trkpt lat="43.67172613295036" lon="11.631636170590594"><ele>1319.25</ele><time>2026-04-18T09:35:57Z</time></trkpt><trkpt lat="43.67163162815848" lon="11.631737639751456"><ele>1320.5</ele><time>2026-04-18T09:35:58Z</time></trkpt><trkpt lat="43.67150055789239" lon="11.631840166519726"><ele>1321.75</ele><time>2026-04-18T09:35:59Z</time></trkpt><trkpt lat="43.671374566909606" lon="11.631984549580986"><ele>1323.0</ele><time>2026-04-18T09:36:00Z</time></trkpt><trkpt lat="43.67122522534468" lon="11.632096209495339"><ele>1326.2</ele><time>2026-04-18T09:36:01Z</time></trkpt><trkpt lat="43.67108337880779" lon="11.632201276014593"><ele>1329.4</ele><time>2026-04-18T09:36:02Z</time></trkpt><trkpt lat="43.670985644930454" lon="11.632264364993782"><ele>1332.6000000000001</ele><time>2026-04-18T09:36:03Z</time></trkpt><trkpt lat="43.67089682294475" lon="11.632269503495136"><ele>1335.8000000000002</ele><time>2026-04-18T09:36:04Z</time></trkpt><trkpt lat="43.67082081550397" lon="11.632291008608357"><ele>1339.0</ele><time>2026-04-18T09:36:05Z</time></trkpt><trkpt lat="43.67073945755223" lon="11.632245153628725"><ele>1339.0</ele><time>2026-04-18T09:36:06Z</time></trkpt><trkpt lat="43.67065950696198" lon="11.632190979794895"><ele>1339.0</ele><time>2026-04-18T09:36:07Z</time></trkpt><trkpt lat="43.67056439716406" lon="11.632108102731245"><ele>1339.0</ele><time>2026-04-18T09:36:08Z</time></trkpt><trkpt lat="43.67044986505343" lon="11.63201389204211"><ele>1339.0</ele><time>2026-04-18T09:36:09Z</time></trkpt><trkpt lat="43.6703210532035" lon="11.631896177639659"><ele>1344.3333333333333</ele><time>2026-04-18T09:36:10Z</time></trkpt><trkpt lat="43.670167206908374" lon="11.63176587367073"><ele>1349.6666666666667</ele><time>2026-04-18T09:36:10.999Z</time></trkpt><trkpt lat="43.670017547976805" lon="11.6316805452619"><ele>1355.0</ele><time>2026-04-18T09:36:11.999Z</time></trkpt><trkpt lat="43.66987923400012" lon="11.631594909543796"><ele>1355.0</ele><time>2026-04-18T09:36:12.999Z</time></trkpt><trkpt lat="43.66972238384216" lon="11.63156162850974"><ele>1355.0</ele><time>2026-04-18T09:36:13.999Z</time></trkpt><trkpt lat="43.66958067233451" lon="11.631579424660138"><ele>1355.0</ele><time>2026-04-18T09:36:14.999Z</time></trkpt><trkpt lat="43.669504549088074" lon="11.631596939266561"><ele>1355.0</ele><time>2026-04-18T09:36:15.999Z</time></trkpt><trkpt lat="43.66942248931188" lon="11.631642033716979"><ele>1356.0</ele><time>2026-04-18T09:36:16.999Z</time></trkpt><trkpt lat="43.66923685265201" lon="11.631703246928563"><ele>1357.0</ele><time>2026-04-18T09:36:17.999Z</time></trkpt><trkpt lat="43.66913820887355" lon="11.631792199364304"><ele>1358.0</ele><time>2026-04-18T09:36:18.999Z</time></trkpt><trkpt lat="43.66906154966282" lon="11.631875343778953"><ele>1359.0</ele><time>2026-04-18T09:36:19.999Z</time></trkpt><trkpt lat="43.669008675303665" lon="11.631943429565373"><ele>1358.2</ele><time>2026-04-18T09:36:20.999Z</time></trkpt><trkpt lat="43.66896789517589" lon="11.632018747644505"><ele>1357.4</ele><time>2026-04-18T09:36:22.999Z</time></trkpt><trkpt lat="43.6688790431011" lon="11.632118851676132"><ele>1356.6</ele><time>2026-04-18T09:36:24.999Z</time></trkpt><trkpt lat="43.6688440722332" lon="11.63220938221355"><ele>1355.8</ele><time>2026-04-18T09:36:26.999Z</time></trkpt><trkpt lat="43.66878251297779" lon="11.632304395707704"><ele>1355.0</ele><time>2026-04-18T09:37:07.999Z</time></trkpt><trkpt lat="43.66869634600286" lon="11.632453532883101"><ele>1357.75</ele><time>2026-04-18T09:42:51.999Z</time></trkpt><trkpt lat="43.66860830257327" lon="11.632530962435904"><ele>1360.5</ele><time>2026-04-18T09:42:52.999Z</time></trkpt><trkpt lat="43.6684915652808" lon="11.632589711411912"><ele>1363.25</ele><time>2026-04-18T09:42:53.999Z</time></trkpt><trkpt lat="43.66840946888167" lon="11.632747352134245"><ele>1366.0</ele><time>2026-04-18T09:42:54.999Z</time></trkpt><trkpt lat="43.66832383067789" lon="11.632869819353338"><ele>1367.0</ele><time>2026-04-18T09:42:55.999Z</time></trkpt><trkpt lat="43.66826181008617" lon="11.63293917647601"><ele>1368.0</ele><time>2026-04-18T09:42:56.999Z</time></trkpt><trkpt lat="43.66819031183827" lon="11.633030385068848"><ele>1369.0</ele><time>2026-04-18T09:42:57.999Z</time></trkpt><trkpt lat="43.66813271520999" lon="11.633129938789734"><ele>1370.0</ele><time>2026-04-18T09:42:58.999Z</time></trkpt><trkpt lat="43.66808691238931" lon="11.633228059889115"><ele>1371.0</ele><time>2026-04-18T09:42:59.999Z</time></trkpt><trkpt lat="43.66808613467997" lon="11.633359705625086"><ele>1372.0</ele><time>2026-04-18T09:43:00.999Z</time></trkpt><trkpt lat="43.66807449156794" lon="11.633489618188381"><ele>1372.0</ele><time>2026-04-18T09:43:01.999Z</time></trkpt><trkpt lat="43.66809973679863" lon="11.633627824119614"><ele>1372.0</ele><time>2026-04-18T09:43:02.999Z</time></trkpt><trkpt lat="43.66809425328143" lon="11.633757881672482"><ele>1372.0</ele><time>2026-04-18T09:43:03.999Z</time></trkpt><trkpt lat="43.66808111216309" lon="11.633860270005313"><ele>1372.0</ele><time>2026-04-18T09:43:04.999Z</time></trkpt><trkpt lat="43.668073045178446" lon="11.633971121442551"><ele>1372.0</ele><time>2026-04-18T09:43:05.999Z</time></trkpt><trkpt lat="43.66803927611225" lon="11.634072148547663"><ele>1372.0</ele><time>2026-04-18T09:43:06.999Z</time></trkpt><trkpt lat="43.66800087500369" lon="11.634175321280333"><ele>1372.75</ele><time>2026-04-18T09:43:07.999Z</time></trkpt><trkpt lat="43.66793383723728" lon="11.63429320476639"><ele>1373.5</ele><time>2026-04-18T09:43:08.999Z</time></trkpt><trkpt lat="43.667852367417204" lon="11.634401220694748"><ele>1374.25</ele><time>2026-04-18T09:43:09.999Z</time></trkpt><trkpt lat="43.667790897973696" lon="11.634541105026976"><ele>1375.0</ele><time>2026-04-18T09:43:10.999Z</time></trkpt><trkpt lat="43.66777681887323" lon="11.634707706832751"><ele>1376.0</ele><time>2026-04-18T09:43:11.999Z</time></trkpt><trkpt lat="43.667796827408814" lon="11.634837994403354"><ele>1377.0</ele><time>2026-04-18T09:43:12.999Z</time></trkpt><trkpt lat="43.66789218754902" lon="11.634941758168956"><ele>1378.0</ele><time>2026-04-18T09:43:13.999Z</time></trkpt><trkpt lat="43.6679581940991" lon="11.635052615926826"><ele>1379.0</ele><time>2026-04-18T09:43:14.999Z</time></trkpt><trkpt lat="43.668019935052996" lon="11.635154031457692"><ele>1380.0</ele><time>2026-04-18T09:43:15.999Z</time></trkpt><trkpt lat="43.66807959412202" lon="11.635238360212881"><ele>1381.8333333333333</ele><time>2026-04-18T09:43:16.999Z</time></trkpt><trkpt lat="43.66814527133912" lon="11.635324342041182"><ele>1383.6666666666667</ele><time>2026-04-18T09:43:17.999Z</time></trkpt><trkpt lat="43.668186217022416" lon="11.635430986720012"><ele>1385.5</ele><time>2026-04-18T09:43:18.999Z</time></trkpt><trkpt lat="43.668227294510665" lon="11.635517942792461"><ele>1387.3333333333335</ele><time>2026-04-18T09:43:19.999Z</time></trkpt><trkpt lat="43.66827362712478" lon="11.635616710774036"><ele>1389.1666666666667</ele><time>2026-04-18T09:43:20.999Z</time></trkpt><trkpt lat="43.66828365913649" lon="11.635751320249323"><ele>1391.0</ele><time>2026-04-18T09:43:21.999Z</time></trkpt><trkpt lat="43.66828933781101" lon="11.635879445077885"><ele>1391.0</ele><time>2026-04-18T09:43:22.999Z</time></trkpt><trkpt lat="43.66826086472009" lon="11.635998368355246"><ele>1391.0</ele><time>2026-04-18T09:43:23.999Z</time></trkpt><trkpt lat="43.668205505515665" lon="11.636104354300544"><ele>1391.0</ele><time>2026-04-18T09:43:24.999Z</time></trkpt><trkpt lat="43.66814328860062" lon="11.636212731507038"><ele>1391.0</ele><time>2026-04-18T09:43:25.999Z</time></trkpt><trkpt lat="43.66808067745159" lon="11.636341240991548"><ele>1391.0</ele><time>2026-04-18T09:43:26.999Z</time></trkpt><trkpt lat="43.66801036167321" lon="11.636465919680658"><ele>1391.25</ele><time>2026-04-18T09:43:27.998Z</time></trkpt><trkpt lat="43.66793085678965" lon="11.636594541001314"><ele>1391.5</ele><time>2026-04-18T09:43:28.998Z</time></trkpt><trkpt lat="43.667865722117874" lon="11.636732331634011"><ele>1391.75</ele><time>2026-04-18T09:43:29.998Z</time></trkpt><trkpt lat="43.66780191119785" lon="11.636849688854937"><ele>1392.0</ele><time>2026-04-18T09:43:30.998Z</time></trkpt><trkpt lat="43.667745661167345" lon="11.63700089393158"><ele>1393.0</ele><time>2026-04-18T09:43:31.998Z</time></trkpt><trkpt lat="43.667733783261625" lon="11.637157546043186"><ele>1394.0</ele><time>2026-04-18T09:43:32.998Z</time></trkpt><trkpt lat="43.66776673887902" lon="11.63731831176101"><ele>1395.0</ele><time>2026-04-18T09:43:33.998Z</time></trkpt><trkpt lat="43.66783817272556" lon="11.63746766499883"><ele>1396.0</ele><time>2026-04-18T09:43:34.998Z</time></trkpt><trkpt lat="43.667901311955994" lon="11.6375997952723"><ele>1396.0</ele><time>2026-04-18T09:43:35.998Z</time></trkpt><trkpt lat="43.66795670775282" lon="11.637716013724239"><ele>1396.0</ele><time>2026-04-18T09:43:36.998Z</time></trkpt><trkpt lat="43.668005877689595" lon="11.637823140906615"><ele>1396.0</ele><time>2026-04-18T09:43:37.998Z</time></trkpt><trkpt lat="43.6680252329835" lon="11.63795738928296"><ele>1396.0</ele><time>2026-04-18T09:43:38.998Z</time></trkpt><trkpt lat="43.66803616952319" lon="11.638135340541758"><ele>1396.0</ele><time>2026-04-18T09:43:39.998Z</time></trkpt><trkpt lat="43.668041157877745" lon="11.638319286211214"><ele>1397.5</ele><time>2026-04-18T09:43:40.998Z</time></trkpt><trkpt lat="43.66803855788211" lon="11.638485699558466"><ele>1399.0</ele><time>2026-04-18T09:43:41.998Z</time></trkpt><trkpt lat="43.66803329848684" lon="11.638698814599081"><ele>1400.5</ele><time>2026-04-18T09:43:42.998Z</time></trkpt><trkpt lat="43.66804281730449" lon="11.638879027645542"><ele>1402.0</ele><time>2026-04-18T09:43:44Z</time></trkpt><trkpt lat="43.66802580912322" lon="11.639056142509675"><ele>1402.0</ele><time>2026-04-18T09:43:45Z</time></trkpt><trkpt lat="43.668020645687946" lon="11.639187490756726"><ele>1402.0</ele><time>2026-04-18T09:43:46Z</time></trkpt><trkpt lat="43.6680003489679" lon="11.639336764496266"><ele>1402.0</ele><time>2026-04-18T09:43:47Z</time></trkpt><trkpt lat="43.6679828285934" lon="11.639450284099707"><ele>1402.0</ele><time>2026-04-18T09:43:48Z</time></trkpt><trkpt lat="43.667944279617444" lon="11.639545146895884"><ele>1402.0</ele><time>2026-04-18T09:43:49Z</time></trkpt><trkpt lat="43.6678831344339" lon="11.639660159331294"><ele>1402.3999999999999</ele><time>2026-04-18T09:43:50Z</time></trkpt><trkpt lat="43.667820116942295" lon="11.639784768692667"><ele>1402.8</ele><time>2026-04-18T09:43:51Z</time></trkpt><trkpt lat="43.66777165738055" lon="11.639900036526157"><ele>1403.2</ele><time>2026-04-18T09:43:52Z</time></trkpt><trkpt lat="43.66769769364351" lon="11.639978675532356"><ele>1403.6</ele><time>2026-04-18T09:43:53Z</time></trkpt><trkpt lat="43.66760649339622" lon="11.640061473263541"><ele>1404.0</ele><time>2026-04-18T09:43:54Z</time></trkpt><trkpt lat="43.66750767704327" lon="11.640122957758575"><ele>1408.8000000000002</ele><time>2026-04-18T09:43:55Z</time></trkpt><trkpt lat="43.6674093112771" lon="11.640154792694704"><ele>1413.6000000000001</ele><time>2026-04-18T09:43:56Z</time></trkpt><trkpt lat="43.66730788016778" lon="11.640166850459055"><ele>1418.4</ele><time>2026-04-18T09:43:57Z</time></trkpt><trkpt lat="43.66722049480173" lon="11.640195543330307"><ele>1423.2</ele><time>2026-04-18T09:43:59Z</time></trkpt><trkpt lat="43.66707434236573" lon="11.640195141626807"><ele>1428.0</ele><time>2026-04-18T09:44:07Z</time></trkpt><trkpt lat="43.66696462479473" lon="11.640201300889714"><ele>1431.5</ele><time>2026-04-18T09:44:08Z</time></trkpt><trkpt lat="43.666850051827495" lon="11.64021089539773"><ele>1435.0</ele><time>2026-04-18T09:44:09Z</time></trkpt><trkpt lat="43.666719774044076" lon="11.64024462818609"><ele>1438.5</ele><time>2026-04-18T09:44:10Z</time></trkpt><trkpt lat="43.66660360967489" lon="11.640241584904912"><ele>1442.0</ele><time>2026-04-18T09:44:11Z</time></trkpt><trkpt lat="43.666497915015015" lon="11.640243314075247"><ele>1442.0</ele><time>2026-04-18T09:44:12Z</time></trkpt><trkpt lat="43.66642145613524" lon="11.640248645776982"><ele>1442.0</ele><time>2026-04-18T09:44:13Z</time></trkpt><trkpt lat="43.66633273790716" lon="11.640254225414823"><ele>1442.0</ele><time>2026-04-18T09:44:14Z</time></trkpt><trkpt lat="43.66622688380337" lon="11.640260342043012"><ele>1442.0</ele><time>2026-04-18T09:44:15Z</time></trkpt><trkpt lat="43.666106878670135" lon="11.640265803550179"><ele>1442.0</ele><time>2026-04-18T09:44:16Z</time></trkpt><trkpt lat="43.66598387123065" lon="11.640264867587915"><ele>1443.5</ele><time>2026-04-18T09:44:17Z</time></trkpt><trkpt lat="43.665850793229794" lon="11.640249907006664"><ele>1445.0</ele><time>2026-04-18T09:44:18Z</time></trkpt><trkpt lat="43.66570458354557" lon="11.640215396476595"><ele>1446.5</ele><time>2026-04-18T09:44:19Z</time></trkpt><trkpt lat="43.665571353877816" lon="11.640181512433056"><ele>1448.0</ele><time>2026-04-18T09:44:20Z</time></trkpt><trkpt lat="43.665448857883725" lon="11.64015243521175"><ele>1448.0</ele><time>2026-04-18T09:44:21Z</time></trkpt><trkpt lat="43.66533542664469" lon="11.640135923501417"><ele>1448.0</ele><time>2026-04-18T09:44:22Z</time></trkpt><trkpt lat="43.66522548140526" lon="11.640121984558244"><ele>1448.0</ele><time>2026-04-18T09:44:22.999Z</time></trkpt><trkpt lat="43.66510335177698" lon="11.64012498292729"><ele>1448.0</ele><time>2026-04-18T09:44:23.999Z</time></trkpt><trkpt lat="43.665000706436594" lon="11.640156465143043"><ele>1448.5</ele><time>2026-04-18T09:44:24.999Z</time></trkpt><trkpt lat="43.66490782810643" lon="11.640211193602937"><ele>1449.0</ele><time>2026-04-18T09:44:25.999Z</time></trkpt><trkpt lat="43.664819234978125" lon="11.64029159086554"><ele>1449.5</ele><time>2026-04-18T09:44:26.999Z</time></trkpt><trkpt lat="43.66473517942511" lon="11.640405400434854"><ele>1450.0</ele><time>2026-04-18T09:44:27.999Z</time></trkpt><trkpt lat="43.66463313309686" lon="11.640520483357884"><ele>1446.0</ele><time>2026-04-18T09:44:28.999Z</time></trkpt><trkpt lat="43.66457533867375" lon="11.640694069931127"><ele>1442.0</ele><time>2026-04-18T09:44:29.999Z</time></trkpt><trkpt lat="43.6645470404421" lon="11.640856134418707"><ele>1438.0</ele><time>2026-04-18T09:44:30.999Z</time></trkpt><trkpt lat="43.664506725829725" lon="11.641024656714142"><ele>1434.0</ele><time>2026-04-18T09:44:31.999Z</time></trkpt><trkpt lat="43.664468060198516" lon="11.641193799000519"><ele>1436.6</ele><time>2026-04-18T09:44:32.999Z</time></trkpt><trkpt lat="43.664415875881694" lon="11.641354043539113"><ele>1439.2</ele><time>2026-04-18T09:44:33.999Z</time></trkpt><trkpt lat="43.664352825494944" lon="11.64147295301708"><ele>1441.8</ele><time>2026-04-18T09:44:34.999Z</time></trkpt><trkpt lat="43.66429511388359" lon="11.64156393997882"><ele>1444.3999999999999</ele><time>2026-04-18T09:44:35.999Z</time></trkpt><trkpt lat="43.66424824534718" lon="11.64163875713293"><ele>1447.0</ele><time>2026-04-18T09:44:36.999Z</time></trkpt><trkpt lat="43.664200870228726" lon="11.641712572582016"><ele>1447.0</ele><time>2026-04-18T09:44:37.999Z</time></trkpt><trkpt lat="43.664148834267586" lon="11.641768833871453"><ele>1447.0</ele><time>2026-04-18T09:44:38.999Z</time></trkpt><trkpt lat="43.6640881347542" lon="11.64185794322057"><ele>1447.0</ele><time>2026-04-18T09:44:39.999Z</time></trkpt><trkpt lat="43.664036717752445" lon="11.641951983000917"><ele>1447.0</ele><time>2026-04-18T09:44:40.999Z</time></trkpt><trkpt lat="43.6640024767317" lon="11.642034668575045"><ele>1447.0</ele><time>2026-04-18T09:44:41.999Z</time></trkpt><trkpt lat="43.66394701104027" lon="11.642142409681602"><ele>1447.0</ele><time>2026-04-18T09:45:01.999Z</time></trkpt><trkpt lat="43.66388900378314" lon="11.642258125714614"><ele>1444.8</ele><time>2026-04-18T09:45:03.999Z</time></trkpt><trkpt lat="43.663842694834976" lon="11.64234403047084"><ele>1442.6</ele><time>2026-04-18T09:45:06.999Z</time></trkpt><trkpt lat="43.66380827222923" lon="11.642428160942885"><ele>1440.3999999999999</ele><time>2026-04-18T09:45:08.999Z</time></trkpt><trkpt lat="43.66375938568665" lon="11.642612051402196"><ele>1438.1999999999998</ele><time>2026-04-18T09:45:10.999Z</time></trkpt><trkpt lat="43.66373798538055" lon="11.642718772569415"><ele>1436.0</ele><time>2026-04-18T09:45:11.999Z</time></trkpt><trkpt lat="43.66371606041323" lon="11.642838933965297"><ele>1433.4</ele><time>2026-04-18T09:45:12.999Z</time></trkpt><trkpt lat="43.663696528329574" lon="11.64295872534682"><ele>1430.8</ele><time>2026-04-18T09:45:13.999Z</time></trkpt><trkpt lat="43.66368521319597" lon="11.64307391316703"><ele>1428.2</ele><time>2026-04-18T09:45:14.999Z</time></trkpt><trkpt lat="43.663661007067" lon="11.643211340678455"><ele>1425.6000000000001</ele><time>2026-04-18T09:45:15.999Z</time></trkpt><trkpt lat="43.66367179497218" lon="11.64337461281407"><ele>1423.0</ele><time>2026-04-18T09:45:16.999Z</time></trkpt><trkpt lat="43.663671913341055" lon="11.643537762161566"><ele>1423.75</ele><time>2026-04-18T09:45:17.999Z</time></trkpt><trkpt lat="43.66367604956669" lon="11.64370284312518"><ele>1424.5</ele><time>2026-04-18T09:45:18.999Z</time></trkpt><trkpt lat="43.66367452489512" lon="11.643887480479457"><ele>1425.25</ele><time>2026-04-18T09:45:19.999Z</time></trkpt><trkpt lat="43.66367561485265" lon="11.64403074431331"><ele>1426.0</ele><time>2026-04-18T09:45:20.999Z</time></trkpt><trkpt lat="43.66368116512956" lon="11.64417652472778"><ele>1426.0</ele><time>2026-04-18T09:45:21.999Z</time></trkpt><trkpt lat="43.6636813391709" lon="11.644332064342255"><ele>1426.0</ele><time>2026-04-18T09:45:22.999Z</time></trkpt><trkpt lat="43.663679748086906" lon="11.64448351576009"><ele>1426.0</ele><time>2026-04-18T09:45:23.999Z</time></trkpt><trkpt lat="43.66368576235859" lon="11.644634616338115"><ele>1426.0</ele><time>2026-04-18T09:45:24.999Z</time></trkpt><trkpt lat="43.6637057811807" lon="11.644785540215132"><ele>1426.0</ele><time>2026-04-18T09:45:25.999Z</time></trkpt><trkpt lat="43.663733558712394" lon="11.64494223880458"><ele>1429.0</ele><time>2026-04-18T09:45:26.998Z</time></trkpt><trkpt lat="43.663799305958776" lon="11.645111850680191"><ele>1432.0</ele><time>2026-04-18T09:45:27.998Z</time></trkpt><trkpt lat="43.66389420953174" lon="11.645271170157736"><ele>1435.0</ele><time>2026-04-18T09:45:28.998Z</time></trkpt><trkpt lat="43.66399831757525" lon="11.645441094971742"><ele>1431.5</ele><time>2026-04-18T09:45:29.998Z</time></trkpt><trkpt lat="43.66412362656462" lon="11.645570100843589"><ele>1428.0</ele><time>2026-04-18T09:45:30.998Z</time></trkpt><trkpt lat="43.664233549703404" lon="11.64567608878709"><ele>1424.5</ele><time>2026-04-18T09:45:31.998Z</time></trkpt><trkpt lat="43.66435028275963" lon="11.64576845293885"><ele>1421.0</ele><time>2026-04-18T09:45:32.998Z</time></trkpt><trkpt lat="43.66445347962802" lon="11.645894608758857"><ele>1421.0</ele><time>2026-04-18T09:45:33.998Z</time></trkpt><trkpt lat="43.66455213448311" lon="11.646017059630843"><ele>1421.0</ele><time>2026-04-18T09:45:34.998Z</time></trkpt><trkpt lat="43.664626688112484" lon="11.646147470958333"><ele>1421.0</ele><time>2026-04-18T09:45:35.998Z</time></trkpt><trkpt lat="43.66468341010225" lon="11.646281847283358"><ele>1421.0</ele><time>2026-04-18T09:45:36.998Z</time></trkpt><trkpt lat="43.664745090769145" lon="11.646402812953099"><ele>1424.8</ele><time>2026-04-18T09:45:37.998Z</time></trkpt><trkpt lat="43.66481321354866" lon="11.646507426398907"><ele>1428.6</ele><time>2026-04-18T09:45:38.998Z</time></trkpt><trkpt lat="43.6648750562053" lon="11.646629877146594"><ele>1432.4</ele><time>2026-04-18T09:45:39.998Z</time></trkpt><trkpt lat="43.66493600759613" lon="11.646738044999493"><ele>1436.2</ele><time>2026-04-18T09:45:40.998Z</time></trkpt><trkpt lat="43.665000026195166" lon="11.646850206362988"><ele>1440.0</ele><time>2026-04-18T09:45:41.998Z</time></trkpt><trkpt lat="43.66503022037171" lon="11.64699024708628"><ele>1444.0</ele><time>2026-04-18T09:45:42.998Z</time></trkpt><trkpt lat="43.665026586497184" lon="11.647141739812715"><ele>1448.0</ele><time>2026-04-18T09:45:43.998Z</time></trkpt><trkpt lat="43.66506568684611" lon="11.647269244245855"><ele>1452.0</ele><time>2026-04-18T09:45:44.998Z</time></trkpt><trkpt lat="43.6651268507412" lon="11.64736998329352"><ele>1456.0</ele><time>2026-04-18T09:45:45.998Z</time></trkpt><trkpt lat="43.66517784502257" lon="11.647458201027304"><ele>1460.0</ele><time>2026-04-18T09:45:46.998Z</time></trkpt><trkpt lat="43.66524661309854" lon="11.647540428569496"><ele>1453.2</ele><time>2026-04-18T09:45:47.998Z</time></trkpt><trkpt lat="43.665345818190055" lon="11.647588140108459"><ele>1446.4</ele><time>2026-04-18T09:45:48.998Z</time></trkpt><trkpt lat="43.665453341571556" lon="11.647612797987692"><ele>1439.6</ele><time>2026-04-18T09:45:49.999Z</time></trkpt><trkpt lat="43.665569187139724" lon="11.647642418043016"><ele>1432.8</ele><time>2026-04-18T09:45:51Z</time></trkpt><trkpt lat="43.66567883804792" lon="11.647686309506879"><ele>1426.0</ele><time>2026-04-18T09:45:52Z</time></trkpt><trkpt lat="43.66577708456663" lon="11.647729110876957"><ele>1426.0</ele><time>2026-04-18T09:45:53Z</time></trkpt><trkpt lat="43.66587085155815" lon="11.647776133050632"><ele>1426.0</ele><time>2026-04-18T09:45:54Z</time></trkpt><trkpt lat="43.665962763349356" lon="11.647822112853465"><ele>1426.0</ele><time>2026-04-18T09:45:55Z</time></trkpt><trkpt lat="43.666042897996455" lon="11.647931960352912"><ele>1426.0</ele><time>2026-04-18T09:45:56Z</time></trkpt><trkpt lat="43.66610968425756" lon="11.648051614405139"><ele>1426.0</ele><time>2026-04-18T09:45:57Z</time></trkpt><trkpt lat="43.66615208937083" lon="11.648175305026042"><ele>1421.75</ele><time>2026-04-18T09:45:58Z</time></trkpt><trkpt lat="43.666135510170214" lon="11.648341886234356"><ele>1417.5</ele><time>2026-04-18T09:45:59Z</time></trkpt><trkpt lat="43.666103899717164" lon="11.648491846372082"><ele>1413.25</ele><time>2026-04-18T09:46:00Z</time></trkpt><trkpt lat="43.66606881630561" lon="11.648641912427893"><ele>1409.0</ele><time>2026-04-18T09:46:01Z</time></trkpt><trkpt lat="43.66602723994962" lon="11.648774701756516"><ele>1410.75</ele><time>2026-04-18T09:46:02Z</time></trkpt><trkpt lat="43.66603459296559" lon="11.648907558705197"><ele>1412.5</ele><time>2026-04-18T09:46:03Z</time></trkpt><trkpt lat="43.666055651426326" lon="11.649058724736639"><ele>1414.25</ele><time>2026-04-18T09:46:04Z</time></trkpt><trkpt lat="43.66614315044287" lon="11.649200201987766"><ele>1416.0</ele><time>2026-04-18T09:46:05Z</time></trkpt><trkpt lat="43.66624588903657" lon="11.649320563116873"><ele>1421.25</ele><time>2026-04-18T09:46:06Z</time></trkpt><trkpt lat="43.66635887169073" lon="11.649468817065365"><ele>1426.5</ele><time>2026-04-18T09:46:07Z</time></trkpt><trkpt lat="43.66642385666649" lon="11.649578668797679"><ele>1431.75</ele><time>2026-04-18T09:46:08Z</time></trkpt><trkpt lat="43.66651795584553" lon="11.649733013890394"><ele>1437.0</ele><time>2026-04-18T09:46:09Z</time></trkpt><trkpt lat="43.66662320413112" lon="11.649875750797035"><ele>1437.0</ele><time>2026-04-18T09:46:10Z</time></trkpt><trkpt lat="43.6667202910106" lon="11.650008507199711"><ele>1437.0</ele><time>2026-04-18T09:46:11Z</time></trkpt><trkpt lat="43.66677232412314" lon="11.650065988254617"><ele>1437.0</ele><time>2026-04-18T09:46:12Z</time></trkpt><trkpt lat="43.66705607704579" lon="11.650313217226897"><ele>1433.5</ele><time>2026-04-18T09:46:13Z</time></trkpt><trkpt lat="43.66715254454837" lon="11.650442093451359"><ele>1430.0</ele><time>2026-04-18T09:46:14Z</time></trkpt><trkpt lat="43.667248956961735" lon="11.650571622558989"><ele>1426.5</ele><time>2026-04-18T09:46:15Z</time></trkpt><trkpt lat="43.66733472258085" lon="11.650695760713946"><ele>1423.0</ele><time>2026-04-18T09:46:15.999Z</time></trkpt><trkpt lat="43.66741532827261" lon="11.650819311439658"><ele>1423.0</ele><time>2026-04-18T09:46:16.999Z</time></trkpt><trkpt lat="43.66748810568011" lon="11.650940408055943"><ele>1423.0</ele><time>2026-04-18T09:46:17.999Z</time></trkpt><trkpt lat="43.66754906287941" lon="11.65105626908988"><ele>1423.0</ele><time>2026-04-18T09:46:18.999Z</time></trkpt><trkpt lat="43.667597130066966" lon="11.651166572553404"><ele>1423.0</ele><time>2026-04-18T09:46:19.999Z</time></trkpt><trkpt lat="43.667626238131795" lon="11.651264059440896"><ele>1423.0</ele><time>2026-04-18T09:46:20.999Z</time></trkpt><trkpt lat="43.667653469552285" lon="11.651380083537196"><ele>1423.4</ele><time>2026-04-18T09:46:21.999Z</time></trkpt><trkpt lat="43.66765776888247" lon="11.6515098770885"><ele>1423.8000000000002</ele><time>2026-04-18T09:46:22.999Z</time></trkpt><trkpt lat="43.667632497289155" lon="11.651628856210353"><ele>1424.2</ele><time>2026-04-18T09:46:23.999Z</time></trkpt><trkpt lat="43.66758030887632" lon="11.651717820123467"><ele>1424.6</ele><time>2026-04-18T09:46:24.999Z</time></trkpt><trkpt lat="43.66752126942794" lon="11.651841830148093"><ele>1425.0</ele><time>2026-04-18T09:46:25.999Z</time></trkpt><trkpt lat="43.66745930342366" lon="11.651972242885584"><ele>1424.0</ele><time>2026-04-18T09:46:26.999Z</time></trkpt><trkpt lat="43.667399372559174" lon="11.652069380215629"><ele>1423.0</ele><time>2026-04-18T09:46:27.999Z</time></trkpt><trkpt lat="43.66734709565321" lon="11.652161753111896"><ele>1422.0</ele><time>2026-04-18T09:46:28.999Z</time></trkpt><trkpt lat="43.667305680591305" lon="11.652308071957151"><ele>1421.0</ele><time>2026-04-18T09:46:29.999Z</time></trkpt><trkpt lat="43.667328093444624" lon="11.652483947056194"><ele>1420.0</ele><time>2026-04-18T09:46:30.999Z</time></trkpt><trkpt lat="43.66735346624208" lon="11.652673007282973"><ele>1420.0</ele><time>2026-04-18T09:46:31.999Z</time></trkpt><trkpt lat="43.66740851529066" lon="11.652848899422278"><ele>1420.0</ele><time>2026-04-18T09:46:32.999Z</time></trkpt><trkpt lat="43.66744703567029" lon="11.653024618327533"><ele>1420.0</ele><time>2026-04-18T09:46:33.999Z</time></trkpt><trkpt lat="43.66746114533663" lon="11.653174178393233"><ele>1420.0</ele><time>2026-04-18T09:46:34.999Z</time></trkpt><trkpt lat="43.66742705288099" lon="11.65332102658043"><ele>1420.0</ele><time>2026-04-18T09:46:35.999Z</time></trkpt><trkpt lat="43.66745128342306" lon="11.65346859155371"><ele>1420.0</ele><time>2026-04-18T09:46:36.999Z</time></trkpt><trkpt lat="43.66751459402418" lon="11.653593335065144"><ele>1420.0</ele><time>2026-04-18T09:46:37.999Z</time></trkpt><trkpt lat="43.66758833313363" lon="11.653719255048202"><ele>1420.0</ele><time>2026-04-18T09:46:38.999Z</time></trkpt><trkpt lat="43.66773208055695" lon="11.653788616322785"><ele>1416.0</ele><time>2026-04-18T09:46:39.999Z</time></trkpt><trkpt lat="43.66782423454808" lon="11.653872464999935"><ele>1412.0</ele><time>2026-04-18T09:46:40.999Z</time></trkpt><trkpt lat="43.66792509245966" lon="11.653983779262047"><ele>1408.0</ele><time>2026-04-18T09:46:41.999Z</time></trkpt><trkpt lat="43.66803113294016" lon="11.654112795370517"><ele>1404.0</ele><time>2026-04-18T09:46:42.999Z</time></trkpt><trkpt lat="43.66812948014613" lon="11.65423192857259"><ele>1404.0</ele><time>2026-04-18T09:46:43.999Z</time></trkpt><trkpt lat="43.668274232270136" lon="11.654298808765294"><ele>1404.0</ele><time>2026-04-18T09:46:44.999Z</time></trkpt><trkpt lat="43.66840802872102" lon="11.654350306912892"><ele>1404.0</ele><time>2026-04-18T09:46:45.999Z</time></trkpt><trkpt lat="43.668530553828674" lon="11.654378125095612"><ele>1404.0</ele><time>2026-04-18T09:46:46.999Z</time></trkpt><trkpt lat="43.668653198266114" lon="11.654422394131386"><ele>1402.8000000000002</ele><time>2026-04-18T09:46:47.999Z</time></trkpt><trkpt lat="43.66874700797941" lon="11.654473897600313"><ele>1401.6000000000001</ele><time>2026-04-18T09:46:48.999Z</time></trkpt><trkpt lat="43.66885016758009" lon="11.654529682001826"><ele>1400.4</ele><time>2026-04-18T09:46:49.999Z</time></trkpt><trkpt lat="43.66891972406687" lon="11.654579398645142"><ele>1399.2</ele><time>2026-04-18T09:46:50.999Z</time></trkpt><trkpt lat="43.6689711772473" lon="11.654669908181043"><ele>1398.0</ele><time>2026-04-18T09:46:52.999Z</time></trkpt><trkpt lat="43.66893450759714" lon="11.654834774220364"><ele>1398.0</ele><time>2026-04-18T09:46:55.999Z</time></trkpt><trkpt lat="43.66885485037733" lon="11.654905588706365"><ele>1398.0</ele><time>2026-04-18T09:46:57.999Z</time></trkpt><trkpt lat="43.668776699138036" lon="11.654963323979105"><ele>1398.0</ele><time>2026-04-18T09:46:58.999Z</time></trkpt><trkpt lat="43.66870704703836" lon="11.655014226739825"><ele>1398.0</ele><time>2026-04-18T09:46:59.999Z</time></trkpt><trkpt lat="43.66861626899514" lon="11.655038180026796"><ele>1398.0</ele><time>2026-04-18T09:47:00.999Z</time></trkpt><trkpt lat="43.66851240359002" lon="11.655044887271108"><ele>1401.5</ele><time>2026-04-18T09:47:01.999Z</time></trkpt><trkpt lat="43.66840961336487" lon="11.655077264215768"><ele>1405.0</ele><time>2026-04-18T09:47:02.999Z</time></trkpt><trkpt lat="43.66828513940244" lon="11.655141116533539"><ele>1408.5</ele><time>2026-04-18T09:47:03.999Z</time></trkpt><trkpt lat="43.668158115691575" lon="11.65519150917215"><ele>1412.0</ele><time>2026-04-18T09:47:04.999Z</time></trkpt><trkpt lat="43.66804789340227" lon="11.655275543446258"><ele>1411.1999999999998</ele><time>2026-04-18T09:47:05.999Z</time></trkpt><trkpt lat="43.667942203035224" lon="11.655331622929571"><ele>1410.4</ele><time>2026-04-18T09:47:06.999Z</time></trkpt><trkpt lat="43.667848390686835" lon="11.655339073002665"><ele>1409.6</ele><time>2026-04-18T09:47:07.999Z</time></trkpt><trkpt lat="43.66774340162659" lon="11.65536521449144"><ele>1408.8000000000002</ele><time>2026-04-18T09:47:08.999Z</time></trkpt><trkpt lat="43.66762556171007" lon="11.655402151382637"><ele>1408.0</ele><time>2026-04-18T09:47:09.999Z</time></trkpt><trkpt lat="43.66749912031755" lon="11.655406303942756"><ele>1408.0</ele><time>2026-04-18T09:47:10.999Z</time></trkpt><trkpt lat="43.66737831758136" lon="11.65542451306412"><ele>1408.0</ele><time>2026-04-18T09:47:11.999Z</time></trkpt><trkpt lat="43.66727631146042" lon="11.655439724111725"><ele>1408.0</ele><time>2026-04-18T09:47:12.999Z</time></trkpt><trkpt lat="43.667176936027154" lon="11.65544689382417"><ele>1408.0</ele><time>2026-04-18T09:47:13.999Z</time></trkpt><trkpt lat="43.667093336228554" lon="11.655451932739304"><ele>1408.0</ele><time>2026-04-18T09:47:14.999Z</time></trkpt><trkpt lat="43.667024606746956" lon="11.655437815112162"><ele>1408.0</ele><time>2026-04-18T09:47:15.999Z</time></trkpt><trkpt lat="43.666952428629855" lon="11.655398997555476"><ele>1408.0</ele><time>2026-04-18T09:47:16.999Z</time></trkpt><trkpt lat="43.6669009142855" lon="11.655332936533586"><ele>1408.0</ele><time>2026-04-18T09:47:17.999Z</time></trkpt><trkpt lat="43.6668935116972" lon="11.655214677083865"><ele>1408.0</ele><time>2026-04-18T09:47:18.999Z</time></trkpt><trkpt lat="43.66684899378213" lon="11.655104482265948"><ele>1408.0</ele><time>2026-04-18T09:47:19.999Z</time></trkpt><trkpt lat="43.66680878798883" lon="11.654980656607146"><ele>1408.0</ele><time>2026-04-18T09:47:20.999Z</time></trkpt><trkpt lat="43.66676468387865" lon="11.654889187346066"><ele>1411.2</ele><time>2026-04-18T09:47:21.999Z</time></trkpt><trkpt lat="43.66670338682931" lon="11.654770292904722"><ele>1414.4</ele><time>2026-04-18T09:47:23.999Z</time></trkpt><trkpt lat="43.66660378899246" lon="11.654747078710834"><ele>1417.6000000000001</ele><time>2026-04-18T09:47:26.999Z</time></trkpt><trkpt lat="43.666528579525256" lon="11.65471578874208"><ele>1420.8000000000002</ele><time>2026-04-18T09:47:27.999Z</time></trkpt><trkpt lat="43.666427163365285" lon="11.654719915702033"><ele>1424.0</ele><time>2026-04-18T09:47:28.999Z</time></trkpt><trkpt lat="43.66631728953381" lon="11.654759580072202"><ele>1424.0</ele><time>2026-04-18T09:47:29.998Z</time></trkpt><trkpt lat="43.66621607249488" lon="11.654770871913412"><ele>1424.0</ele><time>2026-04-18T09:47:30.998Z</time></trkpt><trkpt lat="43.666134892319384" lon="11.654788793211164"><ele>1424.0</ele><time>2026-04-18T09:47:31.998Z</time></trkpt><trkpt lat="43.66605567039489" lon="11.654771958563646"><ele>1424.0</ele><time>2026-04-18T09:47:32.998Z</time></trkpt><trkpt lat="43.66598414622678" lon="11.654722124464971"><ele>1424.0</ele><time>2026-04-18T09:47:33.998Z</time></trkpt><trkpt lat="43.66592543034864" lon="11.654668453454777"><ele>1424.0</ele><time>2026-04-18T09:47:34.998Z</time></trkpt><trkpt lat="43.66586373141873" lon="11.654605721237079"><ele>1423.0</ele><time>2026-04-18T09:47:35.998Z</time></trkpt><trkpt lat="43.6657845335749" lon="11.654510499854888"><ele>1422.0</ele><time>2026-04-18T09:47:36.998Z</time></trkpt><trkpt lat="43.6657071227305" lon="11.65439628926968"><ele>1421.0</ele><time>2026-04-18T09:47:37.998Z</time></trkpt><trkpt lat="43.66564478905701" lon="11.65428217494931"><ele>1420.0</ele><time>2026-04-18T09:47:38.998Z</time></trkpt><trkpt lat="43.66559326857237" lon="11.654171459473876"><ele>1419.0</ele><time>2026-04-18T09:47:39.998Z</time></trkpt><trkpt lat="43.66555525914519" lon="11.654076263087163"><ele>1422.6</ele><time>2026-04-18T09:47:40.998Z</time></trkpt><trkpt lat="43.66549817936909" lon="11.65389812817127"><ele>1426.2</ele><time>2026-04-18T09:47:42.998Z</time></trkpt><trkpt lat="43.66545592576329" lon="11.653806104637251"><ele>1429.8</ele><time>2026-04-18T09:47:43.998Z</time></trkpt><trkpt lat="43.665434402024644" lon="11.653699827788845"><ele>1433.3999999999999</ele><time>2026-04-18T09:47:44.998Z</time></trkpt><trkpt lat="43.66537456652569" lon="11.65359577762986"><ele>1437.0</ele><time>2026-04-18T09:47:45.998Z</time></trkpt><trkpt lat="43.665334234898026" lon="11.65348772050155"><ele>1437.8</ele><time>2026-04-18T09:47:46.998Z</time></trkpt><trkpt lat="43.66524255670024" lon="11.653421839195234"><ele>1438.6</ele><time>2026-04-18T09:47:47.998Z</time></trkpt><trkpt lat="43.66515407152747" lon="11.653377488705994"><ele>1439.3999999999999</ele><time>2026-04-18T09:47:48.998Z</time></trkpt><trkpt lat="43.66504799066593" lon="11.653372655819584"><ele>1440.1999999999998</ele><time>2026-04-18T09:47:49.998Z</time></trkpt><trkpt lat="43.6649390656072" lon="11.653384923536848"><ele>1441.0</ele><time>2026-04-18T09:47:50.998Z</time></trkpt><trkpt lat="43.66480814315488" lon="11.653381643730635"><ele>1441.0</ele><time>2026-04-18T09:47:51.998Z</time></trkpt><trkpt lat="43.664695407403144" lon="11.65337866720838"><ele>1441.0</ele><time>2026-04-18T09:47:52.998Z</time></trkpt><trkpt lat="43.66458649609346" lon="11.653351752453704"><ele>1441.0</ele><time>2026-04-18T09:47:53.998Z</time></trkpt><trkpt lat="43.664488917194056" lon="11.653315264107537"><ele>1441.0</ele><time>2026-04-18T09:47:54.998Z</time></trkpt><trkpt lat="43.66439735930681" lon="11.65328529572548"><ele>1441.0</ele><time>2026-04-18T09:47:56Z</time></trkpt><trkpt lat="43.66431891282776" lon="11.653213133137609"><ele>1441.0</ele><time>2026-04-18T09:47:57Z</time></trkpt><trkpt lat="43.66423126762407" lon="11.653149411113198"><ele>1441.0</ele><time>2026-04-18T09:47:58Z</time></trkpt><trkpt lat="43.66414607334456" lon="11.653085800930896"><ele>1441.0</ele><time>2026-04-18T09:47:59Z</time></trkpt><trkpt lat="43.66408690068486" lon="11.653032095884738"><ele>1441.0</ele><time>2026-04-18T09:48:00Z</time></trkpt><trkpt lat="43.664020828206425" lon="11.652951595986282"><ele>1441.0</ele><time>2026-04-18T09:48:01Z</time></trkpt><trkpt lat="43.66395693363928" lon="11.65278287335831"><ele>1444.5</ele><time>2026-04-18T09:48:03Z</time></trkpt><trkpt lat="43.6639078783821" lon="11.652678679632853"><ele>1448.0</ele><time>2026-04-18T09:48:04Z</time></trkpt><trkpt lat="43.66388193407676" lon="11.65252602868931"><ele>1451.5</ele><time>2026-04-18T09:48:05Z</time></trkpt><trkpt lat="43.66381278096922" lon="11.652376170187532"><ele>1455.0</ele><time>2026-04-18T09:48:06Z</time></trkpt><trkpt lat="43.66369692605999" lon="11.652227356554377"><ele>1455.5</ele><time>2026-04-18T09:48:07Z</time></trkpt><trkpt lat="43.663583993772576" lon="11.652135822856497"><ele>1456.0</ele><time>2026-04-18T09:48:08Z</time></trkpt><trkpt lat="43.66349628137415" lon="11.652036538507035"><ele>1456.5</ele><time>2026-04-18T09:48:09Z</time></trkpt><trkpt lat="43.66339243805351" lon="11.651965301160676"><ele>1457.0</ele><time>2026-04-18T09:48:10Z</time></trkpt><trkpt lat="43.663315665374576" lon="11.651861535904324"><ele>1457.0</ele><time>2026-04-18T09:48:11Z</time></trkpt><trkpt lat="43.66325200319231" lon="11.651776979982476"><ele>1457.0</ele><time>2026-04-18T09:48:12Z</time></trkpt><trkpt lat="43.66321249573082" lon="11.651703547751712"><ele>1457.0</ele><time>2026-04-18T09:48:13Z</time></trkpt><trkpt lat="43.66318191276272" lon="11.651621926614263"><ele>1457.0</ele><time>2026-04-18T09:48:14Z</time></trkpt><trkpt lat="43.663167694361235" lon="11.651531953477868"><ele>1457.0</ele><time>2026-04-18T09:48:15Z</time></trkpt><trkpt lat="43.66317398392837" lon="11.651419509391818"><ele>1457.0</ele><time>2026-04-18T09:48:16Z</time></trkpt><trkpt lat="43.663158589855975" lon="11.651288576860164"><ele>1457.0</ele><time>2026-04-18T09:48:17Z</time></trkpt><trkpt lat="43.6631426550597" lon="11.651184846742446"><ele>1457.0</ele><time>2026-04-18T09:48:18Z</time></trkpt><trkpt lat="43.66312432924034" lon="11.651095281680716"><ele>1457.0</ele><time>2026-04-18T09:48:19Z</time></trkpt><trkpt lat="43.6630920234165" lon="11.6510155829866"><ele>1457.0</ele><time>2026-04-18T09:48:20Z</time></trkpt><trkpt lat="43.66302516235152" lon="11.650952253475394"><ele>1457.0</ele><time>2026-04-18T09:48:21Z</time></trkpt><trkpt lat="43.66295746762818" lon="11.650934797671061"><ele>1457.0</ele><time>2026-04-18T09:48:22Z</time></trkpt><trkpt lat="43.66287830519523" lon="11.650948222590502"><ele>1457.0</ele><time>2026-04-18T09:48:23Z</time></trkpt><trkpt lat="43.66279466617019" lon="11.650979804071925"><ele>1456.8333333333335</ele><time>2026-04-18T09:48:24Z</time></trkpt><trkpt lat="43.66270545004197" lon="11.65104540561283"><ele>1456.6666666666667</ele><time>2026-04-18T09:48:25Z</time></trkpt><trkpt lat="43.662624115778705" lon="11.651135198322367"><ele>1456.5</ele><time>2026-04-18T09:48:26Z</time></trkpt><trkpt lat="43.66256101833304" lon="11.651187652195842"><ele>1456.3333333333333</ele><time>2026-04-18T09:48:27Z</time></trkpt><trkpt lat="43.6624793517713" lon="11.651258621876602"><ele>1456.1666666666665</ele><time>2026-04-18T09:48:29Z</time></trkpt><trkpt lat="43.66241668018238" lon="11.651281901169881"><ele>1456.0</ele><time>2026-04-18T09:48:30.999Z</time></trkpt><trkpt lat="43.662360174854555" lon="11.651228750289006"><ele>1456.0</ele><time>2026-04-18T09:48:32.999Z</time></trkpt><trkpt lat="43.662333583567076" lon="11.651142320524407"><ele>1456.0</ele><time>2026-04-18T09:48:34.999Z</time></trkpt><trkpt lat="43.66228460450787" lon="11.651041795379266"><ele>1456.0</ele><time>2026-04-18T09:48:45.999Z</time></trkpt><trkpt lat="43.66222041717112" lon="11.650957627131927"><ele>1456.0</ele><time>2026-04-18T09:48:50.999Z</time></trkpt><trkpt lat="43.66217601211108" lon="11.650863277625792"><ele>1456.0</ele><time>2026-04-18T09:48:55.999Z</time></trkpt><trkpt lat="43.662108340070596" lon="11.650819248524062"><ele>1456.0</ele><time>2026-04-18T09:49:01.999Z</time></trkpt><trkpt lat="43.66203710275654" lon="11.650742692496847"><ele>1457.3333333333333</ele><time>2026-04-18T09:49:04.999Z</time></trkpt><trkpt lat="43.661982082685164" lon="11.650694995857172"><ele>1458.6666666666665</ele><time>2026-04-18T09:49:06.999Z</time></trkpt><trkpt lat="43.66194503147719" lon="11.650622753961237"><ele>1460.0</ele><time>2026-04-18T09:49:08.999Z</time></trkpt><trkpt lat="43.66190467264045" lon="11.650517589777094"><ele>1461.3333333333333</ele><time>2026-04-18T09:49:11.999Z</time></trkpt><trkpt lat="43.66186422813634" lon="11.650423922573067"><ele>1462.6666666666667</ele><time>2026-04-18T09:49:14.999Z</time></trkpt><trkpt lat="43.66180892796352" lon="11.65032781726872"><ele>1464.0</ele><time>2026-04-18T09:49:17.999Z</time></trkpt><trkpt lat="43.661777194237445" lon="11.650230816230232"><ele>1466.3333333333333</ele><time>2026-04-18T09:49:20.999Z</time></trkpt><trkpt lat="43.66177064707696" lon="11.650139242898929"><ele>1468.6666666666667</ele><time>2026-04-18T09:49:22.999Z</time></trkpt><trkpt lat="43.66175423426487" lon="11.650043901114266"><ele>1471.0</ele><time>2026-04-18T09:49:24.999Z</time></trkpt><trkpt lat="43.661723753389346" lon="11.649950295363945"><ele>1473.3333333333335</ele><time>2026-04-18T09:49:26.999Z</time></trkpt><trkpt lat="43.66171531499176" lon="11.64983221240168"><ele>1475.6666666666667</ele><time>2026-04-18T09:49:29.999Z</time></trkpt><trkpt lat="43.661707340796674" lon="11.649729876993666"><ele>1478.0</ele><time>2026-04-18T09:49:31.999Z</time></trkpt><trkpt lat="43.66168622317308" lon="11.649596096612367"><ele>1478.0</ele><time>2026-04-18T09:49:33.999Z</time></trkpt><trkpt lat="43.66168168538521" lon="11.64949900698088"><ele>1478.0</ele><time>2026-04-18T09:49:35.999Z</time></trkpt><trkpt lat="43.66166307489925" lon="11.649375891501402"><ele>1478.0</ele><time>2026-04-18T09:49:37.999Z</time></trkpt><trkpt lat="43.66167017001577" lon="11.64922979930224"><ele>1478.0</ele><time>2026-04-18T09:49:39.999Z</time></trkpt><trkpt lat="43.66162131044439" lon="11.649106209642259"><ele>1478.0</ele><time>2026-04-18T09:49:41.999Z</time></trkpt><trkpt lat="43.661605802545175" lon="11.648989100816655"><ele>1480.0</ele><time>2026-04-18T09:49:43.999Z</time></trkpt><trkpt lat="43.66159687924052" lon="11.648873204165774"><ele>1482.0</ele><time>2026-04-18T09:49:45.998Z</time></trkpt><trkpt lat="43.66160313251348" lon="11.64877387184869"><ele>1484.0</ele><time>2026-04-18T09:49:47.998Z</time></trkpt><trkpt lat="43.66161304703275" lon="11.64867278503991"><ele>1486.0</ele><time>2026-04-18T09:49:51.998Z</time></trkpt><trkpt lat="43.66163133409632" lon="11.648570516276816"><ele>1488.0</ele><time>2026-04-18T09:49:55.998Z</time></trkpt><trkpt lat="43.66161395868858" lon="11.64846677953861"><ele>1490.0</ele><time>2026-04-18T09:49:58.998Z</time></trkpt><trkpt lat="43.661616620550674" lon="11.648366591983262"><ele>1492.0</ele><time>2026-04-18T09:50:02Z</time></trkpt><trkpt lat="43.6616274502927" lon="11.648258110506331"><ele>1494.0</ele><time>2026-04-18T09:50:04Z</time></trkpt><trkpt lat="43.6616539761085" lon="11.648173727523455"><ele>1496.0</ele><time>2026-04-18T09:50:05Z</time></trkpt><trkpt lat="43.661688134026406" lon="11.64807350274323"><ele>1498.0</ele><time>2026-04-18T09:50:06Z</time></trkpt><trkpt lat="43.661707965102615" lon="11.647963728423212"><ele>1500.0</ele><time>2026-04-18T09:50:07Z</time></trkpt><trkpt lat="43.661717312920764" lon="11.647840734850151"><ele>1502.0</ele><time>2026-04-18T09:50:08Z</time></trkpt><trkpt lat="43.66172102411633" lon="11.647730400279848"><ele>1505.1666666666667</ele><time>2026-04-18T09:50:09Z</time></trkpt><trkpt lat="43.661750071798586" lon="11.647639196763889"><ele>1508.3333333333335</ele><time>2026-04-18T09:50:10Z</time></trkpt><trkpt lat="43.66180923949996" lon="11.647484641326498"><ele>1511.5</ele><time>2026-04-18T09:50:12Z</time></trkpt><trkpt lat="43.66182338976695" lon="11.647390294618285"><ele>1514.6666666666667</ele><time>2026-04-18T09:50:13Z</time></trkpt><trkpt lat="43.6618396752467" lon="11.647300634884987"><ele>1517.8333333333333</ele><time>2026-04-18T09:50:14Z</time></trkpt><trkpt lat="43.66185521914956" lon="11.647200928315165"><ele>1521.0</ele><time>2026-04-18T09:50:15Z</time></trkpt><trkpt lat="43.66187301831415" lon="11.64709330152387"><ele>1521.0</ele><time>2026-04-18T09:50:16Z</time></trkpt><trkpt lat="43.66189968897701" lon="11.647002558855979"><ele>1521.0</ele><time>2026-04-18T09:50:17Z</time></trkpt><trkpt lat="43.66190840165162" lon="11.646902487043096"><ele>1521.0</ele><time>2026-04-18T09:50:18Z</time></trkpt><trkpt lat="43.66188944880232" lon="11.646801414177576"><ele>1521.0</ele><time>2026-04-18T09:50:19Z</time></trkpt><trkpt lat="43.661887435699285" lon="11.646710349324758"><ele>1521.0</ele><time>2026-04-18T09:50:20Z</time></trkpt><trkpt lat="43.66187735777957" lon="11.646620344766045"><ele>1521.0</ele><time>2026-04-18T09:50:21Z</time></trkpt><trkpt lat="43.66186399999068" lon="11.6465285460692"><ele>1521.0</ele><time>2026-04-18T09:50:22Z</time></trkpt><trkpt lat="43.66187013895554" lon="11.646428402993028"><ele>1523.3333333333333</ele><time>2026-04-18T09:50:23Z</time></trkpt><trkpt lat="43.66186208678344" lon="11.646319015123888"><ele>1525.6666666666667</ele><time>2026-04-18T09:50:24Z</time></trkpt><trkpt lat="43.66183509343402" lon="11.64621573649036"><ele>1528.0</ele><time>2026-04-18T09:50:25Z</time></trkpt><trkpt lat="43.66176825439128" lon="11.646075944938783"><ele>1530.3333333333335</ele><time>2026-04-18T09:50:27Z</time></trkpt><trkpt lat="43.66173742933789" lon="11.645978104118587"><ele>1532.6666666666667</ele><time>2026-04-18T09:50:28Z</time></trkpt><trkpt lat="43.66168766455556" lon="11.64588475862761"><ele>1535.0</ele><time>2026-04-18T09:50:29Z</time></trkpt><trkpt lat="43.66162005913079" lon="11.645812112121575"><ele>1536.0</ele><time>2026-04-18T09:50:30Z</time></trkpt><trkpt lat="43.661562810196145" lon="11.645740430164453"><ele>1537.0</ele><time>2026-04-18T09:50:31Z</time></trkpt><trkpt lat="43.661509597857716" lon="11.64567769090808"><ele>1538.0</ele><time>2026-04-18T09:50:32Z</time></trkpt><trkpt lat="43.66141314728414" lon="11.64565747331822"><ele>1539.0</ele><time>2026-04-18T09:50:34Z</time></trkpt><trkpt lat="43.66134697350674" lon="11.6456502752801"><ele>1539.9999999999998</ele><time>2026-04-18T09:50:35Z</time></trkpt><trkpt lat="43.66126840648172" lon="11.645655923565561"><ele>1541.0</ele><time>2026-04-18T09:50:36Z</time></trkpt><trkpt lat="43.66117339840214" lon="11.645663456983437"><ele>1543.0</ele><time>2026-04-18T09:50:37Z</time></trkpt><trkpt lat="43.66108171858883" lon="11.645663126251915"><ele>1545.0</ele><time>2026-04-18T09:50:38Z</time></trkpt><trkpt lat="43.660993060835565" lon="11.64564627089113"><ele>1547.0</ele><time>2026-04-18T09:50:39Z</time></trkpt><trkpt lat="43.66089728358775" lon="11.645596342573022"><ele>1549.0</ele><time>2026-04-18T09:50:40Z</time></trkpt><trkpt lat="43.66079063222891" lon="11.645589534894368"><ele>1551.0</ele><time>2026-04-18T09:50:41Z</time></trkpt><trkpt lat="43.66069042439153" lon="11.645578738525083"><ele>1551.0</ele><time>2026-04-18T09:50:42Z</time></trkpt><trkpt lat="43.6606057832843" lon="11.645589463790525"><ele>1551.0</ele><time>2026-04-18T09:50:43Z</time></trkpt><trkpt lat="43.66051363063758" lon="11.645608069172058"><ele>1551.0</ele><time>2026-04-18T09:50:44Z</time></trkpt><trkpt lat="43.66041906510653" lon="11.645581216092872"><ele>1551.0</ele><time>2026-04-18T09:50:45Z</time></trkpt><trkpt lat="43.66032162457923" lon="11.645591783328086"><ele>1551.0</ele><time>2026-04-18T09:50:46Z</time></trkpt><trkpt lat="43.66021773144068" lon="11.645577529270003"><ele>1553.6</ele><time>2026-04-18T09:50:46.999Z</time></trkpt><trkpt lat="43.66011115211238" lon="11.645557604622617"><ele>1556.1999999999998</ele><time>2026-04-18T09:50:47.999Z</time></trkpt><trkpt lat="43.66001387678388" lon="11.645534591590126"><ele>1558.8000000000002</ele><time>2026-04-18T09:50:48.999Z</time></trkpt><trkpt lat="43.65991738520306" lon="11.645521350269473"><ele>1561.4</ele><time>2026-04-18T09:50:49.999Z</time></trkpt><trkpt lat="43.659830484813256" lon="11.645513967022257"><ele>1564.0</ele><time>2026-04-18T09:50:50.999Z</time></trkpt><trkpt lat="43.65974792821151" lon="11.645506479097113"><ele>1564.0000000000002</ele><time>2026-04-18T09:50:51.999Z</time></trkpt><trkpt lat="43.659660873560235" lon="11.64550052738522"><ele>1564.0</ele><time>2026-04-18T09:50:52.999Z</time></trkpt><trkpt lat="43.65956796971058" lon="11.645488766377962"><ele>1564.0</ele><time>2026-04-18T09:50:53.999Z</time></trkpt><trkpt lat="43.65949043342347" lon="11.64547022168476"><ele>1564.0</ele><time>2026-04-18T09:50:54.999Z</time></trkpt><trkpt lat="43.65940140460836" lon="11.645451632635696"><ele>1564.0000000000002</ele><time>2026-04-18T09:50:55.999Z</time></trkpt><trkpt lat="43.65932423630429" lon="11.645443907761733"><ele>1564.0</ele><time>2026-04-18T09:50:56.999Z</time></trkpt><trkpt lat="43.65923924988347" lon="11.645442462648361"><ele>1565.1666666666667</ele><time>2026-04-18T09:50:57.999Z</time></trkpt><trkpt lat="43.65915430830626" lon="11.645443376722776"><ele>1566.3333333333335</ele><time>2026-04-18T09:50:58.999Z</time></trkpt><trkpt lat="43.65908399009081" lon="11.645447122660233"><ele>1567.5</ele><time>2026-04-18T09:50:59.999Z</time></trkpt><trkpt lat="43.65900486569806" lon="11.645445999303261"><ele>1568.6666666666665</ele><time>2026-04-18T09:51:00.999Z</time></trkpt><trkpt lat="43.658913301963246" lon="11.64544752589747"><ele>1569.8333333333333</ele><time>2026-04-18T09:51:02.999Z</time></trkpt><trkpt lat="43.658812403743575" lon="11.645463218476348"><ele>1571.0</ele><time>2026-04-18T09:51:04.999Z</time></trkpt><trkpt lat="43.65873826120247" lon="11.645442665634679"><ele>1571.0</ele><time>2026-04-18T09:51:06.999Z</time></trkpt><trkpt lat="43.658650088362585" lon="11.645430841655553"><ele>1571.0</ele><time>2026-04-18T09:51:08.999Z</time></trkpt><trkpt lat="43.658583889003154" lon="11.645425278448668"><ele>1571.0</ele><time>2026-04-18T09:51:09.999Z</time></trkpt><trkpt lat="43.65847815320506" lon="11.645357360720713"><ele>1571.0</ele><time>2026-04-18T09:51:11.999Z</time></trkpt><trkpt lat="43.658416414028224" lon="11.64533807923444"><ele>1571.0</ele><time>2026-04-18T09:51:12.999Z</time></trkpt><trkpt lat="43.65830888805971" lon="11.64560436774549"><ele>1572.4999999999998</ele><time>2026-04-18T09:51:13.999Z</time></trkpt><trkpt lat="43.658244981526444" lon="11.64560603134624"><ele>1574.0</ele><time>2026-04-18T09:51:14.999Z</time></trkpt><trkpt lat="43.65813145818706" lon="11.645607957935546"><ele>1575.5</ele><time>2026-04-18T09:51:16.999Z</time></trkpt><trkpt lat="43.65800530978241" lon="11.645613186834288"><ele>1577.0</ele><time>2026-04-18T09:51:18.999Z</time></trkpt><trkpt lat="43.65794163251597" lon="11.64562950997059"><ele>1578.4999999999998</ele><time>2026-04-18T09:51:19.999Z</time></trkpt><trkpt lat="43.65787285174401" lon="11.64565666160023"><ele>1580.0</ele><time>2026-04-18T09:51:20.999Z</time></trkpt><trkpt lat="43.65780224865942" lon="11.645694498369858"><ele>1580.6666666666665</ele><time>2026-04-18T09:51:21.999Z</time></trkpt><trkpt lat="43.65773566687587" lon="11.645730775672535"><ele>1581.3333333333333</ele><time>2026-04-18T09:51:22.999Z</time></trkpt><trkpt lat="43.65767042525642" lon="11.645764654939603"><ele>1582.0</ele><time>2026-04-18T09:51:23.999Z</time></trkpt><trkpt lat="43.657598478226625" lon="11.645804069977332"><ele>1582.6666666666665</ele><time>2026-04-18T09:51:24.999Z</time></trkpt><trkpt lat="43.65753544789273" lon="11.645842529833804"><ele>1583.3333333333333</ele><time>2026-04-18T09:51:25.999Z</time></trkpt><trkpt lat="43.65742841301635" lon="11.645911960713708"><ele>1584.0</ele><time>2026-04-18T09:51:27.999Z</time></trkpt><trkpt lat="43.65736728474819" lon="11.645955488507179"><ele>1584.0</ele><time>2026-04-18T09:51:28.999Z</time></trkpt><trkpt lat="43.65730038305219" lon="11.646007879710961"><ele>1584.0</ele><time>2026-04-18T09:51:29.999Z</time></trkpt><trkpt lat="43.6572413137865" lon="11.64605469494665"><ele>1584.0</ele><time>2026-04-18T09:51:30.999Z</time></trkpt><trkpt lat="43.6571780833778" lon="11.646107229094326"><ele>1584.0</ele><time>2026-04-18T09:51:31.999Z</time></trkpt><trkpt lat="43.65712048604739" lon="11.646148681414983"><ele>1584.0</ele><time>2026-04-18T09:51:32.999Z</time></trkpt><trkpt lat="43.65706279305924" lon="11.646189751072797"><ele>1584.0</ele><time>2026-04-18T09:51:33.999Z</time></trkpt><trkpt lat="43.65699847426877" lon="11.646236366832825"><ele>1584.0</ele><time>2026-04-18T09:51:34.999Z</time></trkpt><trkpt lat="43.656905839110294" lon="11.646302670202122"><ele>1575.0</ele><time>2026-04-18T09:51:36.999Z</time></trkpt><trkpt lat="43.65680672892975" lon="11.646327869760139"><ele>1575.0</ele><time>2026-04-18T09:51:38.999Z</time></trkpt><trkpt lat="43.656724852597" lon="11.646302586009632"><ele>1575.0</ele><time>2026-04-18T09:51:40.999Z</time></trkpt><trkpt lat="43.656657224611244" lon="11.646272630813845"><ele>1575.0</ele><time>2026-04-18T09:51:43.999Z</time></trkpt></trkseg></trk></gpx>